<?xml version="1.0" encoding="UTF-8" standalone="no" ?>
<gpx xmlns="http://www.topografix.com/GPX/1/1" xmlns:xsi="http://www.w3.org/2001/XMLSchema-instance" xsi:schemaLocation="http://www.topografix.com/GPX/1/1 http://www.topografix.com/GPX/1/1/gpx.xsd" version="1.1" creator="VisuGPX - https://www.visugpx.com">
  <metadata>
    <name>9344500-riviere point  sublime  60kms</name>
  </metadata>
  <trk>
    <name><![CDATA[9344500-riviere point  sublime  60kms]]></name>
    <trkseg>
      <trkpt lat="44.18827" lon="3.13147">
        <ele>381</ele>
        <time>2019-05-22T20:13:28Z</time>
      </trkpt>
      <trkpt lat="44.19035" lon="3.14018">
        <ele>378</ele>
        <time>2019-05-22T20:15:25Z</time>
      </trkpt>
      <trkpt lat="44.19057" lon="3.14122">
        <ele>380</ele>
        <time>2019-05-22T20:15:39Z</time>
      </trkpt>
      <trkpt lat="44.19061" lon="3.14163">
        <ele>381</ele>
        <time>2019-05-22T20:15:44Z</time>
      </trkpt>
      <trkpt lat="44.19064" lon="3.14259">
        <ele>383</ele>
        <time>2019-05-22T20:15:56Z</time>
      </trkpt>
      <trkpt lat="44.19076" lon="3.14332">
        <ele>384</ele>
        <time>2019-05-22T20:16:06Z</time>
      </trkpt>
      <trkpt lat="44.19128" lon="3.14623">
        <ele>388</ele>
        <time>2019-05-22T20:16:44Z</time>
      </trkpt>
      <trkpt lat="44.19132" lon="3.1466">
        <ele>387</ele>
        <time>2019-05-22T20:16:49Z</time>
      </trkpt>
      <trkpt lat="44.19132" lon="3.14729">
        <ele>389</ele>
        <time>2019-05-22T20:16:58Z</time>
      </trkpt>
      <trkpt lat="44.19129" lon="3.14763">
        <ele>389</ele>
        <time>2019-05-22T20:17:02Z</time>
      </trkpt>
      <trkpt lat="44.19114" lon="3.14825">
        <ele>388</ele>
        <time>2019-05-22T20:17:11Z</time>
      </trkpt>
      <trkpt lat="44.19058" lon="3.15028">
        <ele>389</ele>
        <time>2019-05-22T20:17:38Z</time>
      </trkpt>
      <trkpt lat="44.1904" lon="3.15087">
        <ele>390</ele>
        <time>2019-05-22T20:17:47Z</time>
      </trkpt>
      <trkpt lat="44.18993" lon="3.1521">
        <ele>391</ele>
        <time>2019-05-22T20:18:04Z</time>
      </trkpt>
      <trkpt lat="44.18968" lon="3.15296">
        <ele>394</ele>
        <time>2019-05-22T20:18:16Z</time>
      </trkpt>
      <trkpt lat="44.18947" lon="3.15379">
        <ele>393</ele>
        <time>2019-05-22T20:18:27Z</time>
      </trkpt>
      <trkpt lat="44.1894" lon="3.15423">
        <ele>392</ele>
        <time>2019-05-22T20:18:33Z</time>
      </trkpt>
      <trkpt lat="44.1894" lon="3.15449">
        <ele>392</ele>
        <time>2019-05-22T20:18:36Z</time>
      </trkpt>
      <trkpt lat="44.18944" lon="3.15485">
        <ele>392</ele>
        <time>2019-05-22T20:18:41Z</time>
      </trkpt>
      <trkpt lat="44.18958" lon="3.15534">
        <ele>393</ele>
        <time>2019-05-22T20:18:48Z</time>
      </trkpt>
      <trkpt lat="44.18971" lon="3.1556">
        <ele>393</ele>
        <time>2019-05-22T20:18:52Z</time>
      </trkpt>
      <trkpt lat="44.1899" lon="3.15588">
        <ele>394</ele>
        <time>2019-05-22T20:18:57Z</time>
      </trkpt>
      <trkpt lat="44.19008" lon="3.15604">
        <ele>395</ele>
        <time>2019-05-22T20:19:01Z</time>
      </trkpt>
      <trkpt lat="44.19057" lon="3.15639">
        <ele>397</ele>
        <time>2019-05-22T20:19:10Z</time>
      </trkpt>
      <trkpt lat="44.1908" lon="3.15648">
        <ele>397</ele>
        <time>2019-05-22T20:19:15Z</time>
      </trkpt>
      <trkpt lat="44.19108" lon="3.15652">
        <ele>397</ele>
        <time>2019-05-22T20:19:20Z</time>
      </trkpt>
      <trkpt lat="44.19148" lon="3.15648">
        <ele>400</ele>
        <time>2019-05-22T20:19:27Z</time>
      </trkpt>
      <trkpt lat="44.19203" lon="3.15638">
        <ele>404</ele>
        <time>2019-05-22T20:19:37Z</time>
      </trkpt>
      <trkpt lat="44.19239" lon="3.15628">
        <ele>406</ele>
        <time>2019-05-22T20:19:43Z</time>
      </trkpt>
      <trkpt lat="44.19289" lon="3.15607">
        <ele>405</ele>
        <time>2019-05-22T20:19:52Z</time>
      </trkpt>
      <trkpt lat="44.19314" lon="3.15598">
        <ele>403</ele>
        <time>2019-05-22T20:19:57Z</time>
      </trkpt>
      <trkpt lat="44.19326" lon="3.15588">
        <ele>403</ele>
        <time>2019-05-22T20:20:00Z</time>
      </trkpt>
      <trkpt lat="44.19467" lon="3.15431">
        <ele>409</ele>
        <time>2019-05-22T20:20:32Z</time>
      </trkpt>
      <trkpt lat="44.19484" lon="3.15416">
        <ele>407</ele>
        <time>2019-05-22T20:20:35Z</time>
      </trkpt>
      <trkpt lat="44.19507" lon="3.15401">
        <ele>405</ele>
        <time>2019-05-22T20:20:40Z</time>
      </trkpt>
      <trkpt lat="44.19528" lon="3.1539">
        <ele>405</ele>
        <time>2019-05-22T20:20:44Z</time>
      </trkpt>
      <trkpt lat="44.19588" lon="3.15371">
        <ele>400</ele>
        <time>2019-05-22T20:20:55Z</time>
      </trkpt>
      <trkpt lat="44.19627" lon="3.15366">
        <ele>401</ele>
        <time>2019-05-22T20:21:02Z</time>
      </trkpt>
      <trkpt lat="44.19722" lon="3.15379">
        <ele>397</ele>
        <time>2019-05-22T20:21:19Z</time>
      </trkpt>
      <trkpt lat="44.19771" lon="3.15378">
        <ele>395</ele>
        <time>2019-05-22T20:21:27Z</time>
      </trkpt>
      <trkpt lat="44.19847" lon="3.15367">
        <ele>393</ele>
        <time>2019-05-22T20:21:41Z</time>
      </trkpt>
      <trkpt lat="44.19877" lon="3.15364">
        <ele>395</ele>
        <time>2019-05-22T20:21:46Z</time>
      </trkpt>
      <trkpt lat="44.19903" lon="3.15366">
        <ele>395</ele>
        <time>2019-05-22T20:21:51Z</time>
      </trkpt>
      <trkpt lat="44.19933" lon="3.15372">
        <ele>397</ele>
        <time>2019-05-22T20:21:56Z</time>
      </trkpt>
      <trkpt lat="44.19965" lon="3.15385">
        <ele>399</ele>
        <time>2019-05-22T20:22:02Z</time>
      </trkpt>
      <trkpt lat="44.20003" lon="3.15415">
        <ele>400</ele>
        <time>2019-05-22T20:22:10Z</time>
      </trkpt>
      <trkpt lat="44.20029" lon="3.15448">
        <ele>400</ele>
        <time>2019-05-22T20:22:16Z</time>
      </trkpt>
      <trkpt lat="44.20052" lon="3.15486">
        <ele>400</ele>
        <time>2019-05-22T20:22:23Z</time>
      </trkpt>
      <trkpt lat="44.20066" lon="3.15516">
        <ele>399</ele>
        <time>2019-05-22T20:22:27Z</time>
      </trkpt>
      <trkpt lat="44.20075" lon="3.15542">
        <ele>398</ele>
        <time>2019-05-22T20:22:31Z</time>
      </trkpt>
      <trkpt lat="44.20098" lon="3.15619">
        <ele>394</ele>
        <time>2019-05-22T20:22:42Z</time>
      </trkpt>
      <trkpt lat="44.20109" lon="3.15648">
        <ele>393</ele>
        <time>2019-05-22T20:22:46Z</time>
      </trkpt>
      <trkpt lat="44.20119" lon="3.15667">
        <ele>392</ele>
        <time>2019-05-22T20:22:49Z</time>
      </trkpt>
      <trkpt lat="44.2013" lon="3.15681">
        <ele>392</ele>
        <time>2019-05-22T20:22:51Z</time>
      </trkpt>
      <trkpt lat="44.2014" lon="3.15689">
        <ele>392</ele>
        <time>2019-05-22T20:22:53Z</time>
      </trkpt>
      <trkpt lat="44.20154" lon="3.15698">
        <ele>392</ele>
        <time>2019-05-22T20:22:56Z</time>
      </trkpt>
      <trkpt lat="44.20173" lon="3.15703">
        <ele>393</ele>
        <time>2019-05-22T20:23:00Z</time>
      </trkpt>
      <trkpt lat="44.20271" lon="3.15705">
        <ele>392</ele>
        <time>2019-05-22T20:23:17Z</time>
      </trkpt>
      <trkpt lat="44.2029" lon="3.15707">
        <ele>392</ele>
        <time>2019-05-22T20:23:20Z</time>
      </trkpt>
      <trkpt lat="44.20302" lon="3.15711">
        <ele>391</ele>
        <time>2019-05-22T20:23:23Z</time>
      </trkpt>
      <trkpt lat="44.20316" lon="3.1572">
        <ele>391</ele>
        <time>2019-05-22T20:23:25Z</time>
      </trkpt>
      <trkpt lat="44.20328" lon="3.15732">
        <ele>390</ele>
        <time>2019-05-22T20:23:28Z</time>
      </trkpt>
      <trkpt lat="44.20336" lon="3.15744">
        <ele>389</ele>
        <time>2019-05-22T20:23:30Z</time>
      </trkpt>
      <trkpt lat="44.20344" lon="3.15769">
        <ele>388</ele>
        <time>2019-05-22T20:23:34Z</time>
      </trkpt>
      <trkpt lat="44.20363" lon="3.15874">
        <ele>389</ele>
        <time>2019-05-22T20:23:47Z</time>
      </trkpt>
      <trkpt lat="44.20363" lon="3.15885">
        <ele>390</ele>
        <time>2019-05-22T20:23:49Z</time>
      </trkpt>
      <trkpt lat="44.20361" lon="3.15894">
        <ele>390</ele>
        <time>2019-05-22T20:23:50Z</time>
      </trkpt>
      <trkpt lat="44.20355" lon="3.15904">
        <ele>390</ele>
        <time>2019-05-22T20:23:52Z</time>
      </trkpt>
      <trkpt lat="44.20349" lon="3.15912">
        <ele>390</ele>
        <time>2019-05-22T20:23:53Z</time>
      </trkpt>
      <trkpt lat="44.20145" lon="3.16001">
        <ele>389</ele>
        <time>2019-05-22T20:24:31Z</time>
      </trkpt>
      <trkpt lat="44.20127" lon="3.16014">
        <ele>389</ele>
        <time>2019-05-22T20:24:35Z</time>
      </trkpt>
      <trkpt lat="44.20111" lon="3.16042">
        <ele>391</ele>
        <time>2019-05-22T20:24:39Z</time>
      </trkpt>
      <trkpt lat="44.201" lon="3.16086">
        <ele>393</ele>
        <time>2019-05-22T20:24:45Z</time>
      </trkpt>
      <trkpt lat="44.20096" lon="3.16117">
        <ele>396</ele>
        <time>2019-05-22T20:24:49Z</time>
      </trkpt>
      <trkpt lat="44.20096" lon="3.16144">
        <ele>399</ele>
        <time>2019-05-22T20:24:53Z</time>
      </trkpt>
      <trkpt lat="44.20102" lon="3.16228">
        <ele>404</ele>
        <time>2019-05-22T20:25:04Z</time>
      </trkpt>
      <trkpt lat="44.20105" lon="3.16359">
        <ele>397</ele>
        <time>2019-05-22T20:25:20Z</time>
      </trkpt>
      <trkpt lat="44.20109" lon="3.1645">
        <ele>397</ele>
        <time>2019-05-22T20:25:32Z</time>
      </trkpt>
      <trkpt lat="44.20124" lon="3.16576">
        <ele>401</ele>
        <time>2019-05-22T20:25:48Z</time>
      </trkpt>
      <trkpt lat="44.20124" lon="3.16627">
        <ele>400</ele>
        <time>2019-05-22T20:25:55Z</time>
      </trkpt>
      <trkpt lat="44.20121" lon="3.16727">
        <ele>396</ele>
        <time>2019-05-22T20:26:07Z</time>
      </trkpt>
      <trkpt lat="44.20124" lon="3.16791">
        <ele>395</ele>
        <time>2019-05-22T20:26:16Z</time>
      </trkpt>
      <trkpt lat="44.2014" lon="3.16934">
        <ele>398</ele>
        <time>2019-05-22T20:26:34Z</time>
      </trkpt>
      <trkpt lat="44.20156" lon="3.17032">
        <ele>395</ele>
        <time>2019-05-22T20:26:47Z</time>
      </trkpt>
      <trkpt lat="44.20161" lon="3.17098">
        <ele>392</ele>
        <time>2019-05-22T20:26:55Z</time>
      </trkpt>
      <trkpt lat="44.20179" lon="3.17203">
        <ele>392</ele>
        <time>2019-05-22T20:27:09Z</time>
      </trkpt>
      <trkpt lat="44.20181" lon="3.17246">
        <ele>389</ele>
        <time>2019-05-22T20:27:15Z</time>
      </trkpt>
      <trkpt lat="44.20178" lon="3.17327">
        <ele>388</ele>
        <time>2019-05-22T20:27:25Z</time>
      </trkpt>
      <trkpt lat="44.20173" lon="3.1735">
        <ele>390</ele>
        <time>2019-05-22T20:27:28Z</time>
      </trkpt>
      <trkpt lat="44.20167" lon="3.17365">
        <ele>390</ele>
        <time>2019-05-22T20:27:30Z</time>
      </trkpt>
      <trkpt lat="44.2015" lon="3.17392">
        <ele>391</ele>
        <time>2019-05-22T20:27:35Z</time>
      </trkpt>
      <trkpt lat="44.20135" lon="3.17426">
        <ele>392</ele>
        <time>2019-05-22T20:27:40Z</time>
      </trkpt>
      <trkpt lat="44.20123" lon="3.17462">
        <ele>392</ele>
        <time>2019-05-22T20:27:45Z</time>
      </trkpt>
      <trkpt lat="44.20112" lon="3.17506">
        <ele>392</ele>
        <time>2019-05-22T20:27:51Z</time>
      </trkpt>
      <trkpt lat="44.20108" lon="3.17527">
        <ele>392</ele>
        <time>2019-05-22T20:27:54Z</time>
      </trkpt>
      <trkpt lat="44.20105" lon="3.17559">
        <ele>393</ele>
        <time>2019-05-22T20:27:58Z</time>
      </trkpt>
      <trkpt lat="44.20104" lon="3.17611">
        <ele>395</ele>
        <time>2019-05-22T20:28:04Z</time>
      </trkpt>
      <trkpt lat="44.20098" lon="3.1766">
        <ele>395</ele>
        <time>2019-05-22T20:28:11Z</time>
      </trkpt>
      <trkpt lat="44.20081" lon="3.17766">
        <ele>395</ele>
        <time>2019-05-22T20:28:25Z</time>
      </trkpt>
      <trkpt lat="44.20068" lon="3.17807">
        <ele>397</ele>
        <time>2019-05-22T20:28:30Z</time>
      </trkpt>
      <trkpt lat="44.20029" lon="3.17897">
        <ele>397</ele>
        <time>2019-05-22T20:28:44Z</time>
      </trkpt>
      <trkpt lat="44.19995" lon="3.17993">
        <ele>397</ele>
        <time>2019-05-22T20:28:57Z</time>
      </trkpt>
      <trkpt lat="44.19982" lon="3.18037">
        <ele>397</ele>
        <time>2019-05-22T20:29:03Z</time>
      </trkpt>
      <trkpt lat="44.19975" lon="3.18077">
        <ele>398</ele>
        <time>2019-05-22T20:29:09Z</time>
      </trkpt>
      <trkpt lat="44.19973" lon="3.18109">
        <ele>398</ele>
        <time>2019-05-22T20:29:13Z</time>
      </trkpt>
      <trkpt lat="44.19973" lon="3.18146">
        <ele>399</ele>
        <time>2019-05-22T20:29:18Z</time>
      </trkpt>
      <trkpt lat="44.19978" lon="3.1821">
        <ele>402</ele>
        <time>2019-05-22T20:29:26Z</time>
      </trkpt>
      <trkpt lat="44.19977" lon="3.18241">
        <ele>403</ele>
        <time>2019-05-22T20:29:30Z</time>
      </trkpt>
      <trkpt lat="44.19972" lon="3.18274">
        <ele>403</ele>
        <time>2019-05-22T20:29:34Z</time>
      </trkpt>
      <trkpt lat="44.19963" lon="3.18309">
        <ele>403</ele>
        <time>2019-05-22T20:29:39Z</time>
      </trkpt>
      <trkpt lat="44.19947" lon="3.18348">
        <ele>402</ele>
        <time>2019-05-22T20:29:45Z</time>
      </trkpt>
      <trkpt lat="44.1993" lon="3.18387">
        <ele>403</ele>
        <time>2019-05-22T20:29:50Z</time>
      </trkpt>
      <trkpt lat="44.19908" lon="3.18424">
        <ele>403</ele>
        <time>2019-05-22T20:29:56Z</time>
      </trkpt>
      <trkpt lat="44.19873" lon="3.18464">
        <ele>403</ele>
        <time>2019-05-22T20:30:05Z</time>
      </trkpt>
      <trkpt lat="44.19697" lon="3.18584">
        <ele>397</ele>
        <time>2019-05-22T20:30:39Z</time>
      </trkpt>
      <trkpt lat="44.19679" lon="3.18603">
        <ele>397</ele>
        <time>2019-05-22T20:30:43Z</time>
      </trkpt>
      <trkpt lat="44.19669" lon="3.18618">
        <ele>398</ele>
        <time>2019-05-22T20:30:46Z</time>
      </trkpt>
      <trkpt lat="44.1965" lon="3.18657">
        <ele>399</ele>
        <time>2019-05-22T20:30:52Z</time>
      </trkpt>
      <trkpt lat="44.19642" lon="3.18686">
        <ele>399</ele>
        <time>2019-05-22T20:30:56Z</time>
      </trkpt>
      <trkpt lat="44.19638" lon="3.18706">
        <ele>398</ele>
        <time>2019-05-22T20:30:59Z</time>
      </trkpt>
      <trkpt lat="44.19637" lon="3.18735">
        <ele>399</ele>
        <time>2019-05-22T20:31:02Z</time>
      </trkpt>
      <trkpt lat="44.19639" lon="3.18769">
        <ele>398</ele>
        <time>2019-05-22T20:31:07Z</time>
      </trkpt>
      <trkpt lat="44.19644" lon="3.18792">
        <ele>397</ele>
        <time>2019-05-22T20:31:10Z</time>
      </trkpt>
      <trkpt lat="44.19656" lon="3.18822">
        <ele>396</ele>
        <time>2019-05-22T20:31:14Z</time>
      </trkpt>
      <trkpt lat="44.1967" lon="3.18843">
        <ele>395</ele>
        <time>2019-05-22T20:31:18Z</time>
      </trkpt>
      <trkpt lat="44.19686" lon="3.18857">
        <ele>395</ele>
        <time>2019-05-22T20:31:21Z</time>
      </trkpt>
      <trkpt lat="44.1974" lon="3.18882">
        <ele>396</ele>
        <time>2019-05-22T20:31:31Z</time>
      </trkpt>
      <trkpt lat="44.19763" lon="3.18897">
        <ele>395</ele>
        <time>2019-05-22T20:31:36Z</time>
      </trkpt>
      <trkpt lat="44.19774" lon="3.18907">
        <ele>395</ele>
        <time>2019-05-22T20:31:38Z</time>
      </trkpt>
      <trkpt lat="44.19792" lon="3.18933">
        <ele>394</ele>
        <time>2019-05-22T20:31:43Z</time>
      </trkpt>
      <trkpt lat="44.19866" lon="3.19079">
        <ele>397</ele>
        <time>2019-05-22T20:32:06Z</time>
      </trkpt>
      <trkpt lat="44.19877" lon="3.19115">
        <ele>397</ele>
        <time>2019-05-22T20:32:11Z</time>
      </trkpt>
      <trkpt lat="44.19879" lon="3.19155">
        <ele>396</ele>
        <time>2019-05-22T20:32:16Z</time>
      </trkpt>
      <trkpt lat="44.19875" lon="3.19228">
        <ele>397</ele>
        <time>2019-05-22T20:32:25Z</time>
      </trkpt>
      <trkpt lat="44.1987" lon="3.19261">
        <ele>397</ele>
        <time>2019-05-22T20:32:29Z</time>
      </trkpt>
      <trkpt lat="44.19859" lon="3.19315">
        <ele>399</ele>
        <time>2019-05-22T20:32:36Z</time>
      </trkpt>
      <trkpt lat="44.19769" lon="3.19545">
        <ele>400</ele>
        <time>2019-05-22T20:33:10Z</time>
      </trkpt>
      <trkpt lat="44.19759" lon="3.19577">
        <ele>399</ele>
        <time>2019-05-22T20:33:14Z</time>
      </trkpt>
      <trkpt lat="44.1972" lon="3.19732">
        <ele>397</ele>
        <time>2019-05-22T20:33:35Z</time>
      </trkpt>
      <trkpt lat="44.19707" lon="3.19773">
        <ele>398</ele>
        <time>2019-05-22T20:33:41Z</time>
      </trkpt>
      <trkpt lat="44.1969" lon="3.19808">
        <ele>399</ele>
        <time>2019-05-22T20:33:46Z</time>
      </trkpt>
      <trkpt lat="44.19559" lon="3.20029">
        <ele>396</ele>
        <time>2019-05-22T20:34:23Z</time>
      </trkpt>
      <trkpt lat="44.19547" lon="3.20065">
        <ele>398</ele>
        <time>2019-05-22T20:34:28Z</time>
      </trkpt>
      <trkpt lat="44.19531" lon="3.20146">
        <ele>400</ele>
        <time>2019-05-22T20:34:39Z</time>
      </trkpt>
      <trkpt lat="44.19508" lon="3.20229">
        <ele>399</ele>
        <time>2019-05-22T20:34:50Z</time>
      </trkpt>
      <trkpt lat="44.19485" lon="3.20368">
        <ele>399</ele>
        <time>2019-05-22T20:35:08Z</time>
      </trkpt>
      <trkpt lat="44.19469" lon="3.20426">
        <ele>398</ele>
        <time>2019-05-22T20:35:16Z</time>
      </trkpt>
      <trkpt lat="44.19451" lon="3.20468">
        <ele>396</ele>
        <time>2019-05-22T20:35:22Z</time>
      </trkpt>
      <trkpt lat="44.19446" lon="3.2049">
        <ele>395</ele>
        <time>2019-05-22T20:35:25Z</time>
      </trkpt>
      <trkpt lat="44.19457" lon="3.20594">
        <ele>397</ele>
        <time>2019-05-22T20:35:39Z</time>
      </trkpt>
      <trkpt lat="44.19456" lon="3.20636">
        <ele>398</ele>
        <time>2019-05-22T20:35:44Z</time>
      </trkpt>
      <trkpt lat="44.19451" lon="3.20673">
        <ele>398</ele>
        <time>2019-05-22T20:35:49Z</time>
      </trkpt>
      <trkpt lat="44.19449" lon="3.20704">
        <ele>399</ele>
        <time>2019-05-22T20:35:53Z</time>
      </trkpt>
      <trkpt lat="44.19459" lon="3.20788">
        <ele>401</ele>
        <time>2019-05-22T20:36:04Z</time>
      </trkpt>
      <trkpt lat="44.19472" lon="3.20877">
        <ele>399</ele>
        <time>2019-05-22T20:36:15Z</time>
      </trkpt>
      <trkpt lat="44.19482" lon="3.20929">
        <ele>398</ele>
        <time>2019-05-22T20:36:22Z</time>
      </trkpt>
      <trkpt lat="44.19533" lon="3.21076">
        <ele>399</ele>
        <time>2019-05-22T20:36:43Z</time>
      </trkpt>
      <trkpt lat="44.19558" lon="3.21111">
        <ele>402</ele>
        <time>2019-05-22T20:36:49Z</time>
      </trkpt>
      <trkpt lat="44.19599" lon="3.21162">
        <ele>402</ele>
        <time>2019-05-22T20:36:59Z</time>
      </trkpt>
      <trkpt lat="44.19615" lon="3.21172">
        <ele>404</ele>
        <time>2019-05-22T20:37:02Z</time>
      </trkpt>
      <trkpt lat="44.19656" lon="3.21185">
        <ele>409</ele>
        <time>2019-05-22T20:37:10Z</time>
      </trkpt>
      <trkpt lat="44.19685" lon="3.21204">
        <ele>411</ele>
        <time>2019-05-22T20:37:15Z</time>
      </trkpt>
      <trkpt lat="44.19723" lon="3.21237">
        <ele>412</ele>
        <time>2019-05-22T20:37:23Z</time>
      </trkpt>
      <trkpt lat="44.19771" lon="3.21284">
        <ele>413</ele>
        <time>2019-05-22T20:37:34Z</time>
      </trkpt>
      <trkpt lat="44.19804" lon="3.21309">
        <ele>413</ele>
        <time>2019-05-22T20:37:41Z</time>
      </trkpt>
      <trkpt lat="44.19916" lon="3.21381">
        <ele>414</ele>
        <time>2019-05-22T20:38:03Z</time>
      </trkpt>
      <trkpt lat="44.19942" lon="3.21391">
        <ele>413</ele>
        <time>2019-05-22T20:38:07Z</time>
      </trkpt>
      <trkpt lat="44.20014" lon="3.21408">
        <ele>413</ele>
        <time>2019-05-22T20:38:20Z</time>
      </trkpt>
      <trkpt lat="44.20044" lon="3.21411">
        <ele>415</ele>
        <time>2019-05-22T20:38:26Z</time>
      </trkpt>
      <trkpt lat="44.20077" lon="3.21411">
        <ele>420</ele>
        <time>2019-05-22T20:38:32Z</time>
      </trkpt>
      <trkpt lat="44.201" lon="3.21415">
        <ele>422</ele>
        <time>2019-05-22T20:38:36Z</time>
      </trkpt>
      <trkpt lat="44.20125" lon="3.21426">
        <ele>423</ele>
        <time>2019-05-22T20:38:40Z</time>
      </trkpt>
      <trkpt lat="44.20144" lon="3.21437">
        <ele>422</ele>
        <time>2019-05-22T20:38:44Z</time>
      </trkpt>
      <trkpt lat="44.20166" lon="3.21444">
        <ele>422</ele>
        <time>2019-05-22T20:38:48Z</time>
      </trkpt>
      <trkpt lat="44.20207" lon="3.21475">
        <ele>421</ele>
        <time>2019-05-22T20:38:56Z</time>
      </trkpt>
      <trkpt lat="44.20248" lon="3.21514">
        <ele>417</ele>
        <time>2019-05-22T20:39:05Z</time>
      </trkpt>
      <trkpt lat="44.20296" lon="3.21569">
        <ele>416</ele>
        <time>2019-05-22T20:39:16Z</time>
      </trkpt>
      <trkpt lat="44.20318" lon="3.21597">
        <ele>414</ele>
        <time>2019-05-22T20:39:21Z</time>
      </trkpt>
      <trkpt lat="44.20335" lon="3.21632">
        <ele>410</ele>
        <time>2019-05-22T20:39:27Z</time>
      </trkpt>
      <trkpt lat="44.2035" lon="3.21668">
        <ele>406</ele>
        <time>2019-05-22T20:39:32Z</time>
      </trkpt>
      <trkpt lat="44.20406" lon="3.21755">
        <ele>403</ele>
        <time>2019-05-22T20:39:47Z</time>
      </trkpt>
      <trkpt lat="44.2043" lon="3.21783">
        <ele>401</ele>
        <time>2019-05-22T20:39:53Z</time>
      </trkpt>
      <trkpt lat="44.20494" lon="3.21845">
        <ele>403</ele>
        <time>2019-05-22T20:40:07Z</time>
      </trkpt>
      <trkpt lat="44.20514" lon="3.21879">
        <ele>402</ele>
        <time>2019-05-22T20:40:12Z</time>
      </trkpt>
      <trkpt lat="44.20523" lon="3.21888">
        <ele>402</ele>
        <time>2019-05-22T20:40:14Z</time>
      </trkpt>
      <trkpt lat="44.20561" lon="3.21911">
        <ele>403</ele>
        <time>2019-05-22T20:40:21Z</time>
      </trkpt>
      <trkpt lat="44.20576" lon="3.21914">
        <ele>404</ele>
        <time>2019-05-22T20:40:24Z</time>
      </trkpt>
      <trkpt lat="44.2059" lon="3.21911">
        <ele>406</ele>
        <time>2019-05-22T20:40:27Z</time>
      </trkpt>
      <trkpt lat="44.2059" lon="3.21911">
        <ele>406</ele>
        <time>2019-05-22T20:40:27Z</time>
      </trkpt>
      <trkpt lat="44.20605" lon="3.21911">
        <ele>409</ele>
        <time>2019-05-22T20:40:29Z</time>
      </trkpt>
      <trkpt lat="44.20618" lon="3.21916">
        <ele>410</ele>
        <time>2019-05-22T20:40:32Z</time>
      </trkpt>
      <trkpt lat="44.2063" lon="3.21924">
        <ele>410</ele>
        <time>2019-05-22T20:40:34Z</time>
      </trkpt>
      <trkpt lat="44.20646" lon="3.21944">
        <ele>409</ele>
        <time>2019-05-22T20:40:38Z</time>
      </trkpt>
      <trkpt lat="44.20663" lon="3.21959">
        <ele>408</ele>
        <time>2019-05-22T20:40:42Z</time>
      </trkpt>
      <trkpt lat="44.20681" lon="3.21968">
        <ele>410</ele>
        <time>2019-05-22T20:40:45Z</time>
      </trkpt>
      <trkpt lat="44.207" lon="3.21972">
        <ele>413</ele>
        <time>2019-05-22T20:40:48Z</time>
      </trkpt>
      <trkpt lat="44.20716" lon="3.21979">
        <ele>415</ele>
        <time>2019-05-22T20:40:51Z</time>
      </trkpt>
      <trkpt lat="44.20768" lon="3.22009">
        <ele>421</ele>
        <time>2019-05-22T20:41:01Z</time>
      </trkpt>
      <trkpt lat="44.20783" lon="3.22025">
        <ele>422</ele>
        <time>2019-05-22T20:41:05Z</time>
      </trkpt>
      <trkpt lat="44.20795" lon="3.22051">
        <ele>418</ele>
        <time>2019-05-22T20:41:09Z</time>
      </trkpt>
      <trkpt lat="44.20813" lon="3.22067">
        <ele>418</ele>
        <time>2019-05-22T20:41:12Z</time>
      </trkpt>
      <trkpt lat="44.20858" lon="3.22085">
        <ele>424</ele>
        <time>2019-05-22T20:41:21Z</time>
      </trkpt>
      <trkpt lat="44.20879" lon="3.221">
        <ele>426</ele>
        <time>2019-05-22T20:41:25Z</time>
      </trkpt>
      <trkpt lat="44.20901" lon="3.22126">
        <ele>423</ele>
        <time>2019-05-22T20:41:30Z</time>
      </trkpt>
      <trkpt lat="44.20932" lon="3.22151">
        <ele>422</ele>
        <time>2019-05-22T20:41:36Z</time>
      </trkpt>
      <trkpt lat="44.20968" lon="3.22188">
        <ele>422</ele>
        <time>2019-05-22T20:41:44Z</time>
      </trkpt>
      <trkpt lat="44.21018" lon="3.22219">
        <ele>424</ele>
        <time>2019-05-22T20:41:54Z</time>
      </trkpt>
      <trkpt lat="44.2104" lon="3.2224">
        <ele>422</ele>
        <time>2019-05-22T20:41:59Z</time>
      </trkpt>
      <trkpt lat="44.21087" lon="3.22268">
        <ele>426</ele>
        <time>2019-05-22T20:42:08Z</time>
      </trkpt>
      <trkpt lat="44.21153" lon="3.22316">
        <ele>422</ele>
        <time>2019-05-22T20:42:21Z</time>
      </trkpt>
      <trkpt lat="44.2119" lon="3.22335">
        <ele>422</ele>
        <time>2019-05-22T20:42:28Z</time>
      </trkpt>
      <trkpt lat="44.21206" lon="3.22347">
        <ele>422</ele>
        <time>2019-05-22T20:42:31Z</time>
      </trkpt>
      <trkpt lat="44.21237" lon="3.22379">
        <ele>420</ele>
        <time>2019-05-22T20:42:38Z</time>
      </trkpt>
      <trkpt lat="44.21267" lon="3.22394">
        <ele>419</ele>
        <time>2019-05-22T20:42:44Z</time>
      </trkpt>
      <trkpt lat="44.21292" lon="3.22415">
        <ele>416</ele>
        <time>2019-05-22T20:42:49Z</time>
      </trkpt>
      <trkpt lat="44.2131" lon="3.22421">
        <ele>417</ele>
        <time>2019-05-22T20:42:53Z</time>
      </trkpt>
      <trkpt lat="44.21365" lon="3.22422">
        <ele>418</ele>
        <time>2019-05-22T20:43:02Z</time>
      </trkpt>
      <trkpt lat="44.21396" lon="3.22428">
        <ele>415</ele>
        <time>2019-05-22T20:43:08Z</time>
      </trkpt>
      <trkpt lat="44.21429" lon="3.22429">
        <ele>415</ele>
        <time>2019-05-22T20:43:14Z</time>
      </trkpt>
      <trkpt lat="44.21469" lon="3.22422">
        <ele>417</ele>
        <time>2019-05-22T20:43:21Z</time>
      </trkpt>
      <trkpt lat="44.21631" lon="3.22344">
        <ele>431</ele>
        <time>2019-05-22T20:43:51Z</time>
      </trkpt>
      <trkpt lat="44.21661" lon="3.22336">
        <ele>430</ele>
        <time>2019-05-22T20:43:57Z</time>
      </trkpt>
      <trkpt lat="44.21685" lon="3.22335">
        <ele>426</ele>
        <time>2019-05-22T20:44:01Z</time>
      </trkpt>
      <trkpt lat="44.21738" lon="3.2231">
        <ele>427</ele>
        <time>2019-05-22T20:44:11Z</time>
      </trkpt>
      <trkpt lat="44.21757" lon="3.2229">
        <ele>431</ele>
        <time>2019-05-22T20:44:15Z</time>
      </trkpt>
      <trkpt lat="44.21776" lon="3.2228">
        <ele>430</ele>
        <time>2019-05-22T20:44:19Z</time>
      </trkpt>
      <trkpt lat="44.2183" lon="3.22257">
        <ele>421</ele>
        <time>2019-05-22T20:44:29Z</time>
      </trkpt>
      <trkpt lat="44.21879" lon="3.22251">
        <ele>415</ele>
        <time>2019-05-22T20:44:38Z</time>
      </trkpt>
      <trkpt lat="44.21932" lon="3.22232">
        <ele>414</ele>
        <time>2019-05-22T20:44:47Z</time>
      </trkpt>
      <trkpt lat="44.21983" lon="3.22208">
        <ele>420</ele>
        <time>2019-05-22T20:44:57Z</time>
      </trkpt>
      <trkpt lat="44.22004" lon="3.222">
        <ele>422</ele>
        <time>2019-05-22T20:45:01Z</time>
      </trkpt>
      <trkpt lat="44.22022" lon="3.22206">
        <ele>420</ele>
        <time>2019-05-22T20:45:04Z</time>
      </trkpt>
      <trkpt lat="44.22037" lon="3.2222">
        <ele>417</ele>
        <time>2019-05-22T20:45:07Z</time>
      </trkpt>
      <trkpt lat="44.22081" lon="3.22248">
        <ele>410</ele>
        <time>2019-05-22T20:45:16Z</time>
      </trkpt>
      <trkpt lat="44.22149" lon="3.22279">
        <ele>409</ele>
        <time>2019-05-22T20:45:29Z</time>
      </trkpt>
      <trkpt lat="44.22177" lon="3.22297">
        <ele>410</ele>
        <time>2019-05-22T20:45:34Z</time>
      </trkpt>
      <trkpt lat="44.22221" lon="3.2233">
        <ele>418</ele>
        <time>2019-05-22T20:45:43Z</time>
      </trkpt>
      <trkpt lat="44.22235" lon="3.22351">
        <ele>419</ele>
        <time>2019-05-22T20:45:47Z</time>
      </trkpt>
      <trkpt lat="44.22256" lon="3.22396">
        <ele>419</ele>
        <time>2019-05-22T20:45:54Z</time>
      </trkpt>
      <trkpt lat="44.2229" lon="3.2245">
        <ele>424</ele>
        <time>2019-05-22T20:46:03Z</time>
      </trkpt>
      <trkpt lat="44.22343" lon="3.22545">
        <ele>424</ele>
        <time>2019-05-22T20:46:18Z</time>
      </trkpt>
      <trkpt lat="44.22361" lon="3.22582">
        <ele>425</ele>
        <time>2019-05-22T20:46:24Z</time>
      </trkpt>
      <trkpt lat="44.22376" lon="3.22623">
        <ele>424</ele>
        <time>2019-05-22T20:46:30Z</time>
      </trkpt>
      <trkpt lat="44.22402" lon="3.22717">
        <ele>421</ele>
        <time>2019-05-22T20:46:43Z</time>
      </trkpt>
      <trkpt lat="44.22416" lon="3.22747">
        <ele>418</ele>
        <time>2019-05-22T20:46:47Z</time>
      </trkpt>
      <trkpt lat="44.2243" lon="3.2277">
        <ele>421</ele>
        <time>2019-05-22T20:46:51Z</time>
      </trkpt>
      <trkpt lat="44.22446" lon="3.22788">
        <ele>424</ele>
        <time>2019-05-22T20:46:55Z</time>
      </trkpt>
      <trkpt lat="44.22483" lon="3.22817">
        <ele>428</ele>
        <time>2019-05-22T20:47:02Z</time>
      </trkpt>
      <trkpt lat="44.22526" lon="3.22871">
        <ele>423</ele>
        <time>2019-05-22T20:47:12Z</time>
      </trkpt>
      <trkpt lat="44.22547" lon="3.22885">
        <ele>423</ele>
        <time>2019-05-22T20:47:17Z</time>
      </trkpt>
      <trkpt lat="44.22583" lon="3.22903">
        <ele>425</ele>
        <time>2019-05-22T20:47:23Z</time>
      </trkpt>
      <trkpt lat="44.22638" lon="3.2292">
        <ele>422</ele>
        <time>2019-05-22T20:47:33Z</time>
      </trkpt>
      <trkpt lat="44.22672" lon="3.22923">
        <ele>423</ele>
        <time>2019-05-22T20:47:39Z</time>
      </trkpt>
      <trkpt lat="44.22709" lon="3.22922">
        <ele>423</ele>
        <time>2019-05-22T20:47:46Z</time>
      </trkpt>
      <trkpt lat="44.2277" lon="3.22924">
        <ele>425</ele>
        <time>2019-05-22T20:47:57Z</time>
      </trkpt>
      <trkpt lat="44.22795" lon="3.22935">
        <ele>425</ele>
        <time>2019-05-22T20:48:02Z</time>
      </trkpt>
      <trkpt lat="44.22862" lon="3.22972">
        <ele>421</ele>
        <time>2019-05-22T20:48:14Z</time>
      </trkpt>
      <trkpt lat="44.22884" lon="3.22983">
        <ele>419</ele>
        <time>2019-05-22T20:48:19Z</time>
      </trkpt>
      <trkpt lat="44.22904" lon="3.22987">
        <ele>420</ele>
        <time>2019-05-22T20:48:22Z</time>
      </trkpt>
      <trkpt lat="44.22982" lon="3.22995">
        <ele>416</ele>
        <time>2019-05-22T20:48:36Z</time>
      </trkpt>
      <trkpt lat="44.23008" lon="3.22996">
        <ele>415</ele>
        <time>2019-05-22T20:48:41Z</time>
      </trkpt>
      <trkpt lat="44.23034" lon="3.22991">
        <ele>417</ele>
        <time>2019-05-22T20:48:45Z</time>
      </trkpt>
      <trkpt lat="44.23076" lon="3.22988">
        <ele>417</ele>
        <time>2019-05-22T20:48:53Z</time>
      </trkpt>
      <trkpt lat="44.23131" lon="3.22992">
        <ele>418</ele>
        <time>2019-05-22T20:49:03Z</time>
      </trkpt>
      <trkpt lat="44.23265" lon="3.23013">
        <ele>421</ele>
        <time>2019-05-22T20:49:27Z</time>
      </trkpt>
      <trkpt lat="44.23317" lon="3.23014">
        <ele>424</ele>
        <time>2019-05-22T20:49:36Z</time>
      </trkpt>
      <trkpt lat="44.2334" lon="3.23025">
        <ele>423</ele>
        <time>2019-05-22T20:49:40Z</time>
      </trkpt>
      <trkpt lat="44.23363" lon="3.2304">
        <ele>422</ele>
        <time>2019-05-22T20:49:45Z</time>
      </trkpt>
      <trkpt lat="44.23383" lon="3.23049">
        <ele>421</ele>
        <time>2019-05-22T20:49:48Z</time>
      </trkpt>
      <trkpt lat="44.23406" lon="3.23052">
        <ele>422</ele>
        <time>2019-05-22T20:49:53Z</time>
      </trkpt>
      <trkpt lat="44.23432" lon="3.23051">
        <ele>423</ele>
        <time>2019-05-22T20:49:57Z</time>
      </trkpt>
      <trkpt lat="44.23452" lon="3.23044">
        <ele>425</ele>
        <time>2019-05-22T20:50:01Z</time>
      </trkpt>
      <trkpt lat="44.23469" lon="3.23032">
        <ele>428</ele>
        <time>2019-05-22T20:50:04Z</time>
      </trkpt>
      <trkpt lat="44.23489" lon="3.23026">
        <ele>429</ele>
        <time>2019-05-22T20:50:08Z</time>
      </trkpt>
      <trkpt lat="44.23519" lon="3.23019">
        <ele>431</ele>
        <time>2019-05-22T20:50:13Z</time>
      </trkpt>
      <trkpt lat="44.23575" lon="3.23015">
        <ele>432</ele>
        <time>2019-05-22T20:50:23Z</time>
      </trkpt>
      <trkpt lat="44.23594" lon="3.2302">
        <ele>431</ele>
        <time>2019-05-22T20:50:27Z</time>
      </trkpt>
      <trkpt lat="44.23615" lon="3.23033">
        <ele>426</ele>
        <time>2019-05-22T20:50:31Z</time>
      </trkpt>
      <trkpt lat="44.23638" lon="3.23038">
        <ele>425</ele>
        <time>2019-05-22T20:50:35Z</time>
      </trkpt>
      <trkpt lat="44.23672" lon="3.23039">
        <ele>425</ele>
        <time>2019-05-22T20:50:41Z</time>
      </trkpt>
      <trkpt lat="44.23705" lon="3.23047">
        <ele>426</ele>
        <time>2019-05-22T20:50:47Z</time>
      </trkpt>
      <trkpt lat="44.23732" lon="3.23044">
        <ele>430</ele>
        <time>2019-05-22T20:50:52Z</time>
      </trkpt>
      <trkpt lat="44.23761" lon="3.23036">
        <ele>436</ele>
        <time>2019-05-22T20:50:57Z</time>
      </trkpt>
      <trkpt lat="44.23776" lon="3.23039">
        <ele>436</ele>
        <time>2019-05-22T20:51:00Z</time>
      </trkpt>
      <trkpt lat="44.23798" lon="3.23057">
        <ele>430</ele>
        <time>2019-05-22T20:51:04Z</time>
      </trkpt>
      <trkpt lat="44.23816" lon="3.23063">
        <ele>429</ele>
        <time>2019-05-22T20:51:08Z</time>
      </trkpt>
      <trkpt lat="44.23838" lon="3.23062">
        <ele>430</ele>
        <time>2019-05-22T20:51:12Z</time>
      </trkpt>
      <trkpt lat="44.23857" lon="3.23069">
        <ele>427</ele>
        <time>2019-05-22T20:51:15Z</time>
      </trkpt>
      <trkpt lat="44.23871" lon="3.2307">
        <ele>427</ele>
        <time>2019-05-22T20:51:18Z</time>
      </trkpt>
      <trkpt lat="44.23912" lon="3.23064">
        <ele>429</ele>
        <time>2019-05-22T20:51:25Z</time>
      </trkpt>
      <trkpt lat="44.2393" lon="3.23064">
        <ele>429</ele>
        <time>2019-05-22T20:51:28Z</time>
      </trkpt>
      <trkpt lat="44.23954" lon="3.23071">
        <ele>426</ele>
        <time>2019-05-22T20:51:32Z</time>
      </trkpt>
      <trkpt lat="44.23982" lon="3.23072">
        <ele>426</ele>
        <time>2019-05-22T20:51:37Z</time>
      </trkpt>
      <trkpt lat="44.24004" lon="3.23068">
        <ele>428</ele>
        <time>2019-05-22T20:51:41Z</time>
      </trkpt>
      <trkpt lat="44.24037" lon="3.23077">
        <ele>425</ele>
        <time>2019-05-22T20:51:47Z</time>
      </trkpt>
      <trkpt lat="44.24055" lon="3.23076">
        <ele>426</ele>
        <time>2019-05-22T20:51:51Z</time>
      </trkpt>
      <trkpt lat="44.24073" lon="3.23078">
        <ele>426</ele>
        <time>2019-05-22T20:51:54Z</time>
      </trkpt>
      <trkpt lat="44.24172" lon="3.23109">
        <ele>433</ele>
        <time>2019-05-22T20:52:12Z</time>
      </trkpt>
      <trkpt lat="44.242" lon="3.23113">
        <ele>435</ele>
        <time>2019-05-22T20:52:17Z</time>
      </trkpt>
      <trkpt lat="44.24243" lon="3.2313">
        <ele>432</ele>
        <time>2019-05-22T20:52:25Z</time>
      </trkpt>
      <trkpt lat="44.24296" lon="3.23134">
        <ele>434</ele>
        <time>2019-05-22T20:52:34Z</time>
      </trkpt>
      <trkpt lat="44.24318" lon="3.23143">
        <ele>432</ele>
        <time>2019-05-22T20:52:38Z</time>
      </trkpt>
      <trkpt lat="44.24337" lon="3.23154">
        <ele>430</ele>
        <time>2019-05-22T20:52:42Z</time>
      </trkpt>
      <trkpt lat="44.24397" lon="3.23201">
        <ele>432</ele>
        <time>2019-05-22T20:52:54Z</time>
      </trkpt>
      <trkpt lat="44.24417" lon="3.23214">
        <ele>430</ele>
        <time>2019-05-22T20:52:58Z</time>
      </trkpt>
      <trkpt lat="44.24438" lon="3.23225">
        <ele>428</ele>
        <time>2019-05-22T20:53:02Z</time>
      </trkpt>
      <trkpt lat="44.24481" lon="3.23238">
        <ele>425</ele>
        <time>2019-05-22T20:53:10Z</time>
      </trkpt>
      <trkpt lat="44.24508" lon="3.23238">
        <ele>426</ele>
        <time>2019-05-22T20:53:15Z</time>
      </trkpt>
      <trkpt lat="44.24561" lon="3.23227">
        <ele>430</ele>
        <time>2019-05-22T20:53:24Z</time>
      </trkpt>
      <trkpt lat="44.24729" lon="3.23185">
        <ele>433</ele>
        <time>2019-05-22T20:53:55Z</time>
      </trkpt>
      <trkpt lat="44.24779" lon="3.23186">
        <ele>433</ele>
        <time>2019-05-22T20:54:04Z</time>
      </trkpt>
      <trkpt lat="44.24808" lon="3.23183">
        <ele>435</ele>
        <time>2019-05-22T20:54:09Z</time>
      </trkpt>
      <trkpt lat="44.24842" lon="3.23197">
        <ele>432</ele>
        <time>2019-05-22T20:54:15Z</time>
      </trkpt>
      <trkpt lat="44.24893" lon="3.23204">
        <ele>433</ele>
        <time>2019-05-22T20:54:24Z</time>
      </trkpt>
      <trkpt lat="44.24925" lon="3.23202">
        <ele>434</ele>
        <time>2019-05-22T20:54:30Z</time>
      </trkpt>
      <trkpt lat="44.2496" lon="3.23211">
        <ele>433</ele>
        <time>2019-05-22T20:54:36Z</time>
      </trkpt>
      <trkpt lat="44.25175" lon="3.23227">
        <ele>428</ele>
        <time>2019-05-22T20:55:14Z</time>
      </trkpt>
      <trkpt lat="44.25216" lon="3.23221">
        <ele>426</ele>
        <time>2019-05-22T20:55:22Z</time>
      </trkpt>
      <trkpt lat="44.25261" lon="3.23191">
        <ele>432</ele>
        <time>2019-05-22T20:55:31Z</time>
      </trkpt>
      <trkpt lat="44.25278" lon="3.23187">
        <ele>434</ele>
        <time>2019-05-22T20:55:34Z</time>
      </trkpt>
      <trkpt lat="44.25314" lon="3.23186">
        <ele>433</ele>
        <time>2019-05-22T20:55:40Z</time>
      </trkpt>
      <trkpt lat="44.25367" lon="3.23172">
        <ele>432</ele>
        <time>2019-05-22T20:55:50Z</time>
      </trkpt>
      <trkpt lat="44.25398" lon="3.23151">
        <ele>435</ele>
        <time>2019-05-22T20:55:56Z</time>
      </trkpt>
      <trkpt lat="44.25526" lon="3.23086">
        <ele>426</ele>
        <time>2019-05-22T20:56:20Z</time>
      </trkpt>
      <trkpt lat="44.25632" lon="3.23047">
        <ele>426</ele>
        <time>2019-05-22T20:56:40Z</time>
      </trkpt>
      <trkpt lat="44.25658" lon="3.2303">
        <ele>426</ele>
        <time>2019-05-22T20:56:45Z</time>
      </trkpt>
      <trkpt lat="44.25698" lon="3.22996">
        <ele>428</ele>
        <time>2019-05-22T20:56:53Z</time>
      </trkpt>
      <trkpt lat="44.2585" lon="3.22884">
        <ele>431</ele>
        <time>2019-05-22T20:57:24Z</time>
      </trkpt>
      <trkpt lat="44.25949" lon="3.22817">
        <ele>427</ele>
        <time>2019-05-22T20:57:43Z</time>
      </trkpt>
      <trkpt lat="44.25988" lon="3.22796">
        <ele>425</ele>
        <time>2019-05-22T20:57:51Z</time>
      </trkpt>
      <trkpt lat="44.26027" lon="3.22766">
        <ele>428</ele>
        <time>2019-05-22T20:57:59Z</time>
      </trkpt>
      <trkpt lat="44.26049" lon="3.22754">
        <ele>428</ele>
        <time>2019-05-22T20:58:03Z</time>
      </trkpt>
      <trkpt lat="44.26088" lon="3.22743">
        <ele>425</ele>
        <time>2019-05-22T20:58:10Z</time>
      </trkpt>
      <trkpt lat="44.26134" lon="3.22712">
        <ele>431</ele>
        <time>2019-05-22T20:58:19Z</time>
      </trkpt>
      <trkpt lat="44.26166" lon="3.22698">
        <ele>430</ele>
        <time>2019-05-22T20:58:25Z</time>
      </trkpt>
      <trkpt lat="44.26206" lon="3.22689">
        <ele>428</ele>
        <time>2019-05-22T20:58:32Z</time>
      </trkpt>
      <trkpt lat="44.26232" lon="3.22679">
        <ele>426</ele>
        <time>2019-05-22T20:58:37Z</time>
      </trkpt>
      <trkpt lat="44.26335" lon="3.22613">
        <ele>431</ele>
        <time>2019-05-22T20:58:57Z</time>
      </trkpt>
      <trkpt lat="44.2637" lon="3.22598">
        <ele>431</ele>
        <time>2019-05-22T20:59:04Z</time>
      </trkpt>
      <trkpt lat="44.26406" lon="3.22587">
        <ele>430</ele>
        <time>2019-05-22T20:59:10Z</time>
      </trkpt>
      <trkpt lat="44.26481" lon="3.22571">
        <ele>432</ele>
        <time>2019-05-22T20:59:24Z</time>
      </trkpt>
      <trkpt lat="44.26575" lon="3.22563">
        <ele>431</ele>
        <time>2019-05-22T20:59:40Z</time>
      </trkpt>
      <trkpt lat="44.267" lon="3.22593">
        <ele>426</ele>
        <time>2019-05-22T21:00:03Z</time>
      </trkpt>
      <trkpt lat="44.26927" lon="3.22612">
        <ele>429</ele>
        <time>2019-05-22T21:00:43Z</time>
      </trkpt>
      <trkpt lat="44.26969" lon="3.22613">
        <ele>428</ele>
        <time>2019-05-22T21:00:51Z</time>
      </trkpt>
      <trkpt lat="44.2705" lon="3.22597">
        <ele>429</ele>
        <time>2019-05-22T21:01:05Z</time>
      </trkpt>
      <trkpt lat="44.27105" lon="3.2259">
        <ele>429</ele>
        <time>2019-05-22T21:01:15Z</time>
      </trkpt>
      <trkpt lat="44.27168" lon="3.22586">
        <ele>428</ele>
        <time>2019-05-22T21:01:27Z</time>
      </trkpt>
      <trkpt lat="44.27183" lon="3.22577">
        <ele>430</ele>
        <time>2019-05-22T21:01:29Z</time>
      </trkpt>
      <trkpt lat="44.27207" lon="3.22552">
        <ele>437</ele>
        <time>2019-05-22T21:01:35Z</time>
      </trkpt>
      <trkpt lat="44.27221" lon="3.22548">
        <ele>437</ele>
        <time>2019-05-22T21:01:37Z</time>
      </trkpt>
      <trkpt lat="44.27235" lon="3.22555">
        <ele>434</ele>
        <time>2019-05-22T21:01:40Z</time>
      </trkpt>
      <trkpt lat="44.27245" lon="3.22567">
        <ele>429</ele>
        <time>2019-05-22T21:01:42Z</time>
      </trkpt>
      <trkpt lat="44.27254" lon="3.22573">
        <ele>427</ele>
        <time>2019-05-22T21:01:44Z</time>
      </trkpt>
      <trkpt lat="44.27265" lon="3.22576">
        <ele>426</ele>
        <time>2019-05-22T21:01:46Z</time>
      </trkpt>
      <trkpt lat="44.27291" lon="3.22578">
        <ele>426</ele>
        <time>2019-05-22T21:01:51Z</time>
      </trkpt>
      <trkpt lat="44.27418" lon="3.22571">
        <ele>427</ele>
        <time>2019-05-22T21:02:13Z</time>
      </trkpt>
      <trkpt lat="44.27454" lon="3.22573">
        <ele>426</ele>
        <time>2019-05-22T21:02:20Z</time>
      </trkpt>
      <trkpt lat="44.2748" lon="3.22577">
        <ele>424</ele>
        <time>2019-05-22T21:02:24Z</time>
      </trkpt>
      <trkpt lat="44.27503" lon="3.22568">
        <ele>427</ele>
        <time>2019-05-22T21:02:29Z</time>
      </trkpt>
      <trkpt lat="44.27521" lon="3.22573">
        <ele>426</ele>
        <time>2019-05-22T21:02:32Z</time>
      </trkpt>
      <trkpt lat="44.27542" lon="3.22588">
        <ele>423</ele>
        <time>2019-05-22T21:02:36Z</time>
      </trkpt>
      <trkpt lat="44.27552" lon="3.22593">
        <ele>423</ele>
        <time>2019-05-22T21:02:38Z</time>
      </trkpt>
      <trkpt lat="44.27574" lon="3.22595">
        <ele>423</ele>
        <time>2019-05-22T21:02:42Z</time>
      </trkpt>
      <trkpt lat="44.27632" lon="3.22615">
        <ele>423</ele>
        <time>2019-05-22T21:02:53Z</time>
      </trkpt>
      <trkpt lat="44.27637" lon="3.22614">
        <ele>424</ele>
        <time>2019-05-22T21:02:53Z</time>
      </trkpt>
      <trkpt lat="44.27645" lon="3.22608">
        <ele>426</ele>
        <time>2019-05-22T21:02:55Z</time>
      </trkpt>
      <trkpt lat="44.2765" lon="3.22599">
        <ele>429</ele>
        <time>2019-05-22T21:02:56Z</time>
      </trkpt>
      <trkpt lat="44.27659" lon="3.22591">
        <ele>431</ele>
        <time>2019-05-22T21:02:58Z</time>
      </trkpt>
      <trkpt lat="44.27666" lon="3.2259">
        <ele>432</ele>
        <time>2019-05-22T21:03:00Z</time>
      </trkpt>
      <trkpt lat="44.27676" lon="3.22593">
        <ele>435</ele>
        <time>2019-05-22T21:03:01Z</time>
      </trkpt>
      <trkpt lat="44.2768" lon="3.22599">
        <ele>434</ele>
        <time>2019-05-22T21:03:02Z</time>
      </trkpt>
      <trkpt lat="44.27683" lon="3.22606">
        <ele>433</ele>
        <time>2019-05-22T21:03:04Z</time>
      </trkpt>
      <trkpt lat="44.2769" lon="3.22638">
        <ele>426</ele>
        <time>2019-05-22T21:03:08Z</time>
      </trkpt>
      <trkpt lat="44.27696" lon="3.22655">
        <ele>423</ele>
        <time>2019-05-22T21:03:10Z</time>
      </trkpt>
      <trkpt lat="44.27716" lon="3.22679">
        <ele>422</ele>
        <time>2019-05-22T21:03:15Z</time>
      </trkpt>
      <trkpt lat="44.27745" lon="3.22721">
        <ele>420</ele>
        <time>2019-05-22T21:03:22Z</time>
      </trkpt>
      <trkpt lat="44.27791" lon="3.22763">
        <ele>422</ele>
        <time>2019-05-22T21:03:32Z</time>
      </trkpt>
      <trkpt lat="44.27812" lon="3.22781">
        <ele>423</ele>
        <time>2019-05-22T21:03:37Z</time>
      </trkpt>
      <trkpt lat="44.2783" lon="3.22799">
        <ele>423</ele>
        <time>2019-05-22T21:03:40Z</time>
      </trkpt>
      <trkpt lat="44.27851" lon="3.22825">
        <ele>422</ele>
        <time>2019-05-22T21:03:45Z</time>
      </trkpt>
      <trkpt lat="44.27893" lon="3.22847">
        <ele>425</ele>
        <time>2019-05-22T21:03:53Z</time>
      </trkpt>
      <trkpt lat="44.27955" lon="3.22887">
        <ele>424</ele>
        <time>2019-05-22T21:04:06Z</time>
      </trkpt>
      <trkpt lat="44.27972" lon="3.22895">
        <ele>424</ele>
        <time>2019-05-22T21:04:09Z</time>
      </trkpt>
      <trkpt lat="44.2799" lon="3.22897">
        <ele>426</ele>
        <time>2019-05-22T21:04:12Z</time>
      </trkpt>
      <trkpt lat="44.28002" lon="3.22895">
        <ele>428</ele>
        <time>2019-05-22T21:04:14Z</time>
      </trkpt>
      <trkpt lat="44.28048" lon="3.22884">
        <ele>432</ele>
        <time>2019-05-22T21:04:22Z</time>
      </trkpt>
      <trkpt lat="44.28067" lon="3.22887">
        <ele>432</ele>
        <time>2019-05-22T21:04:26Z</time>
      </trkpt>
      <trkpt lat="44.28074" lon="3.2289">
        <ele>431</ele>
        <time>2019-05-22T21:04:27Z</time>
      </trkpt>
      <trkpt lat="44.28089" lon="3.22901">
        <ele>428</ele>
        <time>2019-05-22T21:04:30Z</time>
      </trkpt>
      <trkpt lat="44.28145" lon="3.22958">
        <ele>422</ele>
        <time>2019-05-22T21:04:42Z</time>
      </trkpt>
      <trkpt lat="44.28222" lon="3.22994">
        <ele>421</ele>
        <time>2019-05-22T21:04:57Z</time>
      </trkpt>
      <trkpt lat="44.28273" lon="3.23004">
        <ele>424</ele>
        <time>2019-05-22T21:05:06Z</time>
      </trkpt>
      <trkpt lat="44.28291" lon="3.23016">
        <ele>425</ele>
        <time>2019-05-22T21:05:10Z</time>
      </trkpt>
      <trkpt lat="44.28302" lon="3.2303">
        <ele>424</ele>
        <time>2019-05-22T21:05:12Z</time>
      </trkpt>
      <trkpt lat="44.28331" lon="3.23099">
        <ele>419</ele>
        <time>2019-05-22T21:05:22Z</time>
      </trkpt>
      <trkpt lat="44.28344" lon="3.23118">
        <ele>420</ele>
        <time>2019-05-22T21:05:26Z</time>
      </trkpt>
      <trkpt lat="44.28351" lon="3.23126">
        <ele>420</ele>
        <time>2019-05-22T21:05:27Z</time>
      </trkpt>
      <trkpt lat="44.28368" lon="3.23138">
        <ele>421</ele>
        <time>2019-05-22T21:05:31Z</time>
      </trkpt>
      <trkpt lat="44.28398" lon="3.23155">
        <ele>423</ele>
        <time>2019-05-22T21:05:37Z</time>
      </trkpt>
      <trkpt lat="44.28414" lon="3.23167">
        <ele>424</ele>
        <time>2019-05-22T21:05:40Z</time>
      </trkpt>
      <trkpt lat="44.28464" lon="3.23208">
        <ele>430</ele>
        <time>2019-05-22T21:05:50Z</time>
      </trkpt>
      <trkpt lat="44.28491" lon="3.23235">
        <ele>428</ele>
        <time>2019-05-22T21:05:56Z</time>
      </trkpt>
      <trkpt lat="44.28527" lon="3.23257">
        <ele>431</ele>
        <time>2019-05-22T21:06:03Z</time>
      </trkpt>
      <trkpt lat="44.28581" lon="3.23299">
        <ele>432</ele>
        <time>2019-05-22T21:06:14Z</time>
      </trkpt>
      <trkpt lat="44.28639" lon="3.23334">
        <ele>429</ele>
        <time>2019-05-22T21:06:25Z</time>
      </trkpt>
      <trkpt lat="44.28657" lon="3.23358">
        <ele>428</ele>
        <time>2019-05-22T21:06:30Z</time>
      </trkpt>
      <trkpt lat="44.28704" lon="3.23447">
        <ele>429</ele>
        <time>2019-05-22T21:06:44Z</time>
      </trkpt>
      <trkpt lat="44.28726" lon="3.23492">
        <ele>433</ele>
        <time>2019-05-22T21:06:51Z</time>
      </trkpt>
      <trkpt lat="44.28762" lon="3.2355">
        <ele>437</ele>
        <time>2019-05-22T21:07:00Z</time>
      </trkpt>
      <trkpt lat="44.28791" lon="3.23592">
        <ele>444</ele>
        <time>2019-05-22T21:07:08Z</time>
      </trkpt>
      <trkpt lat="44.28802" lon="3.23615">
        <ele>442</ele>
        <time>2019-05-22T21:07:11Z</time>
      </trkpt>
      <trkpt lat="44.28813" lon="3.23629">
        <ele>440</ele>
        <time>2019-05-22T21:07:14Z</time>
      </trkpt>
      <trkpt lat="44.28853" lon="3.23647">
        <ele>443</ele>
        <time>2019-05-22T21:07:22Z</time>
      </trkpt>
      <trkpt lat="44.28903" lon="3.23682">
        <ele>445</ele>
        <time>2019-05-22T21:07:32Z</time>
      </trkpt>
      <trkpt lat="44.2893" lon="3.2371">
        <ele>443</ele>
        <time>2019-05-22T21:07:38Z</time>
      </trkpt>
      <trkpt lat="44.28952" lon="3.23726">
        <ele>444</ele>
        <time>2019-05-22T21:07:42Z</time>
      </trkpt>
      <trkpt lat="44.28988" lon="3.23762">
        <ele>441</ele>
        <time>2019-05-22T21:07:50Z</time>
      </trkpt>
      <trkpt lat="44.29004" lon="3.23776">
        <ele>443</ele>
        <time>2019-05-22T21:07:53Z</time>
      </trkpt>
      <trkpt lat="44.29017" lon="3.2378">
        <ele>445</ele>
        <time>2019-05-22T21:07:56Z</time>
      </trkpt>
      <trkpt lat="44.29046" lon="3.2378">
        <ele>450</ele>
        <time>2019-05-22T21:08:01Z</time>
      </trkpt>
      <trkpt lat="44.29063" lon="3.23777">
        <ele>454</ele>
        <time>2019-05-22T21:08:04Z</time>
      </trkpt>
      <trkpt lat="44.29083" lon="3.23769">
        <ele>459</ele>
        <time>2019-05-22T21:08:07Z</time>
      </trkpt>
      <trkpt lat="44.29115" lon="3.2375">
        <ele>460</ele>
        <time>2019-05-22T21:08:14Z</time>
      </trkpt>
      <trkpt lat="44.29134" lon="3.23747">
        <ele>460</ele>
        <time>2019-05-22T21:08:17Z</time>
      </trkpt>
      <trkpt lat="44.29191" lon="3.23751">
        <ele>451</ele>
        <time>2019-05-22T21:08:27Z</time>
      </trkpt>
      <trkpt lat="44.29208" lon="3.23749">
        <ele>449</ele>
        <time>2019-05-22T21:08:30Z</time>
      </trkpt>
      <trkpt lat="44.29261" lon="3.23735">
        <ele>447</ele>
        <time>2019-05-22T21:08:40Z</time>
      </trkpt>
      <trkpt lat="44.29271" lon="3.23729">
        <ele>448</ele>
        <time>2019-05-22T21:08:42Z</time>
      </trkpt>
      <trkpt lat="44.29338" lon="3.23668">
        <ele>458</ele>
        <time>2019-05-22T21:08:56Z</time>
      </trkpt>
      <trkpt lat="44.29352" lon="3.23663">
        <ele>461</ele>
        <time>2019-05-22T21:08:59Z</time>
      </trkpt>
      <trkpt lat="44.29377" lon="3.23665">
        <ele>462</ele>
        <time>2019-05-22T21:09:03Z</time>
      </trkpt>
      <trkpt lat="44.2939" lon="3.23671">
        <ele>461</ele>
        <time>2019-05-22T21:09:05Z</time>
      </trkpt>
      <trkpt lat="44.29419" lon="3.23707">
        <ele>452</ele>
        <time>2019-05-22T21:09:12Z</time>
      </trkpt>
      <trkpt lat="44.29448" lon="3.23736">
        <ele>450</ele>
        <time>2019-05-22T21:09:19Z</time>
      </trkpt>
      <trkpt lat="44.29468" lon="3.23743">
        <ele>453</ele>
        <time>2019-05-22T21:09:22Z</time>
      </trkpt>
      <trkpt lat="44.29478" lon="3.23748">
        <ele>453</ele>
        <time>2019-05-22T21:09:24Z</time>
      </trkpt>
      <trkpt lat="44.29496" lon="3.23771">
        <ele>451</ele>
        <time>2019-05-22T21:09:29Z</time>
      </trkpt>
      <trkpt lat="44.29506" lon="3.2378">
        <ele>451</ele>
        <time>2019-05-22T21:09:31Z</time>
      </trkpt>
      <trkpt lat="44.29533" lon="3.23798">
        <ele>451</ele>
        <time>2019-05-22T21:09:36Z</time>
      </trkpt>
      <trkpt lat="44.29573" lon="3.23821">
        <ele>452</ele>
        <time>2019-05-22T21:09:44Z</time>
      </trkpt>
      <trkpt lat="44.29593" lon="3.2383">
        <ele>452</ele>
        <time>2019-05-22T21:09:47Z</time>
      </trkpt>
      <trkpt lat="44.2964" lon="3.23841">
        <ele>455</ele>
        <time>2019-05-22T21:09:56Z</time>
      </trkpt>
      <trkpt lat="44.29662" lon="3.23855">
        <ele>454</ele>
        <time>2019-05-22T21:10:00Z</time>
      </trkpt>
      <trkpt lat="44.29674" lon="3.23861">
        <ele>453</ele>
        <time>2019-05-22T21:10:03Z</time>
      </trkpt>
      <trkpt lat="44.29703" lon="3.23866">
        <ele>453</ele>
        <time>2019-05-22T21:10:08Z</time>
      </trkpt>
      <trkpt lat="44.29757" lon="3.23861">
        <ele>456</ele>
        <time>2019-05-22T21:10:17Z</time>
      </trkpt>
      <trkpt lat="44.29774" lon="3.23861">
        <ele>457</ele>
        <time>2019-05-22T21:10:20Z</time>
      </trkpt>
      <trkpt lat="44.29817" lon="3.23869">
        <ele>455</ele>
        <time>2019-05-22T21:10:28Z</time>
      </trkpt>
      <trkpt lat="44.29961" lon="3.23863">
        <ele>457</ele>
        <time>2019-05-22T21:10:54Z</time>
      </trkpt>
      <trkpt lat="44.29975" lon="3.23861">
        <ele>458</ele>
        <time>2019-05-22T21:10:56Z</time>
      </trkpt>
      <trkpt lat="44.30003" lon="3.23849">
        <ele>462</ele>
        <time>2019-05-22T21:11:01Z</time>
      </trkpt>
      <trkpt lat="44.30067" lon="3.23845">
        <ele>458</ele>
        <time>2019-05-22T21:11:13Z</time>
      </trkpt>
      <trkpt lat="44.30082" lon="3.23839">
        <ele>458</ele>
        <time>2019-05-22T21:11:16Z</time>
      </trkpt>
      <trkpt lat="44.30099" lon="3.23829">
        <ele>462</ele>
        <time>2019-05-22T21:11:19Z</time>
      </trkpt>
      <trkpt lat="44.30129" lon="3.23804">
        <ele>482</ele>
        <time>2019-05-22T21:11:25Z</time>
      </trkpt>
      <trkpt lat="44.30141" lon="3.23798">
        <ele>488</ele>
        <time>2019-05-22T21:11:27Z</time>
      </trkpt>
      <trkpt lat="44.30156" lon="3.238">
        <ele>486</ele>
        <time>2019-05-22T21:11:30Z</time>
      </trkpt>
      <trkpt lat="44.30188" lon="3.23811">
        <ele>471</ele>
        <time>2019-05-22T21:11:36Z</time>
      </trkpt>
      <trkpt lat="44.30208" lon="3.23811">
        <ele>469</ele>
        <time>2019-05-22T21:11:39Z</time>
      </trkpt>
      <trkpt lat="44.30237" lon="3.23802">
        <ele>474</ele>
        <time>2019-05-22T21:11:45Z</time>
      </trkpt>
      <trkpt lat="44.30254" lon="3.238">
        <ele>475</ele>
        <time>2019-05-22T21:11:48Z</time>
      </trkpt>
      <trkpt lat="44.3027" lon="3.23802">
        <ele>475</ele>
        <time>2019-05-22T21:11:51Z</time>
      </trkpt>
      <trkpt lat="44.30306" lon="3.23814">
        <ele>469</ele>
        <time>2019-05-22T21:11:57Z</time>
      </trkpt>
      <trkpt lat="44.30324" lon="3.23827">
        <ele>460</ele>
        <time>2019-05-22T21:12:01Z</time>
      </trkpt>
      <trkpt lat="44.3036" lon="3.23867">
        <ele>452</ele>
        <time>2019-05-22T21:12:09Z</time>
      </trkpt>
      <trkpt lat="44.30391" lon="3.23905">
        <ele>447</ele>
        <time>2019-05-22T21:12:16Z</time>
      </trkpt>
      <trkpt lat="44.30401" lon="3.23924">
        <ele>445</ele>
        <time>2019-05-22T21:12:19Z</time>
      </trkpt>
      <trkpt lat="44.30413" lon="3.23955">
        <ele>446</ele>
        <time>2019-05-22T21:12:24Z</time>
      </trkpt>
      <trkpt lat="44.30419" lon="3.23976">
        <ele>446</ele>
        <time>2019-05-22T21:12:27Z</time>
      </trkpt>
      <trkpt lat="44.30422" lon="3.23993">
        <ele>447</ele>
        <time>2019-05-22T21:12:29Z</time>
      </trkpt>
      <trkpt lat="44.30423" lon="3.2401">
        <ele>447</ele>
        <time>2019-05-22T21:12:31Z</time>
      </trkpt>
      <trkpt lat="44.30421" lon="3.24062">
        <ele>449</ele>
        <time>2019-05-22T21:12:38Z</time>
      </trkpt>
      <trkpt lat="44.30427" lon="3.24214">
        <ele>456</ele>
        <time>2019-05-22T21:12:57Z</time>
      </trkpt>
      <trkpt lat="44.30433" lon="3.2425">
        <ele>456</ele>
        <time>2019-05-22T21:13:02Z</time>
      </trkpt>
      <trkpt lat="44.30453" lon="3.24341">
        <ele>456</ele>
        <time>2019-05-22T21:13:14Z</time>
      </trkpt>
      <trkpt lat="44.30463" lon="3.24368">
        <ele>456</ele>
        <time>2019-05-22T21:13:18Z</time>
      </trkpt>
      <trkpt lat="44.3047" lon="3.24378">
        <ele>456</ele>
        <time>2019-05-22T21:13:20Z</time>
      </trkpt>
      <trkpt lat="44.3049" lon="3.24398">
        <ele>456</ele>
        <time>2019-05-22T21:13:24Z</time>
      </trkpt>
      <trkpt lat="44.30535" lon="3.24424">
        <ele>475</ele>
        <time>2019-05-22T21:13:33Z</time>
      </trkpt>
      <trkpt lat="44.30633" lon="3.24494">
        <ele>485</ele>
        <time>2019-05-22T21:13:52Z</time>
      </trkpt>
      <trkpt lat="44.30669" lon="3.24523">
        <ele>495</ele>
        <time>2019-05-22T21:14:00Z</time>
      </trkpt>
      <trkpt lat="44.30696" lon="3.24549">
        <ele>496</ele>
        <time>2019-05-22T21:14:05Z</time>
      </trkpt>
      <trkpt lat="44.30716" lon="3.24578">
        <ele>495</ele>
        <time>2019-05-22T21:14:11Z</time>
      </trkpt>
      <trkpt lat="44.30763" lon="3.24654">
        <ele>481</ele>
        <time>2019-05-22T21:14:23Z</time>
      </trkpt>
      <trkpt lat="44.30768" lon="3.24677">
        <ele>474</ele>
        <time>2019-05-22T21:14:26Z</time>
      </trkpt>
      <trkpt lat="44.30774" lon="3.24737">
        <ele>456</ele>
        <time>2019-05-22T21:14:34Z</time>
      </trkpt>
      <trkpt lat="44.3078" lon="3.24765">
        <ele>452</ele>
        <time>2019-05-22T21:14:38Z</time>
      </trkpt>
      <trkpt lat="44.30794" lon="3.24803">
        <ele>450</ele>
        <time>2019-05-22T21:14:43Z</time>
      </trkpt>
      <trkpt lat="44.30819" lon="3.24848">
        <ele>446</ele>
        <time>2019-05-22T21:14:51Z</time>
      </trkpt>
      <trkpt lat="44.30827" lon="3.24849">
        <ele>447</ele>
        <time>2019-05-22T21:14:52Z</time>
      </trkpt>
      <trkpt lat="44.30838" lon="3.24838">
        <ele>449</ele>
        <time>2019-05-22T21:14:54Z</time>
      </trkpt>
      <trkpt lat="44.30838" lon="3.24838">
        <ele>449</ele>
        <time>2019-05-22T21:14:54Z</time>
      </trkpt>
      <trkpt lat="44.30827" lon="3.24849">
        <ele>447</ele>
        <time>2019-05-22T21:14:57Z</time>
      </trkpt>
      <trkpt lat="44.30819" lon="3.24848">
        <ele>446</ele>
        <time>2019-05-22T21:14:58Z</time>
      </trkpt>
      <trkpt lat="44.30794" lon="3.24803">
        <ele>450</ele>
        <time>2019-05-22T21:15:06Z</time>
      </trkpt>
      <trkpt lat="44.3078" lon="3.24765">
        <ele>452</ele>
        <time>2019-05-22T21:15:11Z</time>
      </trkpt>
      <trkpt lat="44.30774" lon="3.24737">
        <ele>456</ele>
        <time>2019-05-22T21:15:15Z</time>
      </trkpt>
      <trkpt lat="44.30768" lon="3.24677">
        <ele>474</ele>
        <time>2019-05-22T21:15:22Z</time>
      </trkpt>
      <trkpt lat="44.30763" lon="3.24654">
        <ele>481</ele>
        <time>2019-05-22T21:15:25Z</time>
      </trkpt>
      <trkpt lat="44.30716" lon="3.24578">
        <ele>495</ele>
        <time>2019-05-22T21:15:38Z</time>
      </trkpt>
      <trkpt lat="44.30696" lon="3.24549">
        <ele>496</ele>
        <time>2019-05-22T21:15:43Z</time>
      </trkpt>
      <trkpt lat="44.30669" lon="3.24523">
        <ele>495</ele>
        <time>2019-05-22T21:15:49Z</time>
      </trkpt>
      <trkpt lat="44.30633" lon="3.24494">
        <ele>485</ele>
        <time>2019-05-22T21:15:57Z</time>
      </trkpt>
      <trkpt lat="44.30535" lon="3.24424">
        <ele>475</ele>
        <time>2019-05-22T21:16:16Z</time>
      </trkpt>
      <trkpt lat="44.3049" lon="3.24398">
        <ele>456</ele>
        <time>2019-05-22T21:16:25Z</time>
      </trkpt>
      <trkpt lat="44.3047" lon="3.24378">
        <ele>456</ele>
        <time>2019-05-22T21:16:29Z</time>
      </trkpt>
      <trkpt lat="44.30463" lon="3.24368">
        <ele>456</ele>
        <time>2019-05-22T21:16:31Z</time>
      </trkpt>
      <trkpt lat="44.30453" lon="3.24341">
        <ele>456</ele>
        <time>2019-05-22T21:16:35Z</time>
      </trkpt>
      <trkpt lat="44.30433" lon="3.2425">
        <ele>456</ele>
        <time>2019-05-22T21:16:47Z</time>
      </trkpt>
      <trkpt lat="44.30427" lon="3.24214">
        <ele>456</ele>
        <time>2019-05-22T21:16:52Z</time>
      </trkpt>
      <trkpt lat="44.30421" lon="3.24062">
        <ele>449</ele>
        <time>2019-05-22T21:17:11Z</time>
      </trkpt>
      <trkpt lat="44.30423" lon="3.2401">
        <ele>447</ele>
        <time>2019-05-22T21:17:18Z</time>
      </trkpt>
      <trkpt lat="44.30422" lon="3.23993">
        <ele>447</ele>
        <time>2019-05-22T21:17:20Z</time>
      </trkpt>
      <trkpt lat="44.30417" lon="3.23967">
        <ele>446</ele>
        <time>2019-05-22T21:17:23Z</time>
      </trkpt>
      <trkpt lat="44.30401" lon="3.23924">
        <ele>445</ele>
        <time>2019-05-22T21:17:29Z</time>
      </trkpt>
      <trkpt lat="44.30391" lon="3.23905">
        <ele>447</ele>
        <time>2019-05-22T21:17:32Z</time>
      </trkpt>
      <trkpt lat="44.3036" lon="3.23867">
        <ele>452</ele>
        <time>2019-05-22T21:17:40Z</time>
      </trkpt>
      <trkpt lat="44.30324" lon="3.23827">
        <ele>460</ele>
        <time>2019-05-22T21:17:48Z</time>
      </trkpt>
      <trkpt lat="44.30306" lon="3.23814">
        <ele>469</ele>
        <time>2019-05-22T21:17:52Z</time>
      </trkpt>
      <trkpt lat="44.3027" lon="3.23802">
        <ele>475</ele>
        <time>2019-05-22T21:17:58Z</time>
      </trkpt>
      <trkpt lat="44.30254" lon="3.238">
        <ele>475</ele>
        <time>2019-05-22T21:18:01Z</time>
      </trkpt>
      <trkpt lat="44.30237" lon="3.23802">
        <ele>474</ele>
        <time>2019-05-22T21:18:04Z</time>
      </trkpt>
      <trkpt lat="44.30208" lon="3.23811">
        <ele>469</ele>
        <time>2019-05-22T21:18:09Z</time>
      </trkpt>
      <trkpt lat="44.30188" lon="3.23811">
        <ele>471</ele>
        <time>2019-05-22T21:18:13Z</time>
      </trkpt>
      <trkpt lat="44.30156" lon="3.238">
        <ele>486</ele>
        <time>2019-05-22T21:18:19Z</time>
      </trkpt>
      <trkpt lat="44.30141" lon="3.23798">
        <ele>488</ele>
        <time>2019-05-22T21:18:21Z</time>
      </trkpt>
      <trkpt lat="44.30129" lon="3.23804">
        <ele>482</ele>
        <time>2019-05-22T21:18:24Z</time>
      </trkpt>
      <trkpt lat="44.30099" lon="3.23829">
        <ele>462</ele>
        <time>2019-05-22T21:18:30Z</time>
      </trkpt>
      <trkpt lat="44.30082" lon="3.23839">
        <ele>458</ele>
        <time>2019-05-22T21:18:33Z</time>
      </trkpt>
      <trkpt lat="44.30067" lon="3.23845">
        <ele>458</ele>
        <time>2019-05-22T21:18:36Z</time>
      </trkpt>
      <trkpt lat="44.30003" lon="3.23849">
        <ele>462</ele>
        <time>2019-05-22T21:18:47Z</time>
      </trkpt>
      <trkpt lat="44.29975" lon="3.23861">
        <ele>458</ele>
        <time>2019-05-22T21:18:53Z</time>
      </trkpt>
      <trkpt lat="44.29961" lon="3.23863">
        <ele>457</ele>
        <time>2019-05-22T21:18:55Z</time>
      </trkpt>
      <trkpt lat="44.29817" lon="3.23869">
        <ele>455</ele>
        <time>2019-05-22T21:19:21Z</time>
      </trkpt>
      <trkpt lat="44.29774" lon="3.23861">
        <ele>457</ele>
        <time>2019-05-22T21:19:28Z</time>
      </trkpt>
      <trkpt lat="44.29757" lon="3.23861">
        <ele>456</ele>
        <time>2019-05-22T21:19:32Z</time>
      </trkpt>
      <trkpt lat="44.29703" lon="3.23866">
        <ele>453</ele>
        <time>2019-05-22T21:19:41Z</time>
      </trkpt>
      <trkpt lat="44.29674" lon="3.23861">
        <ele>453</ele>
        <time>2019-05-22T21:19:46Z</time>
      </trkpt>
      <trkpt lat="44.29662" lon="3.23855">
        <ele>454</ele>
        <time>2019-05-22T21:19:49Z</time>
      </trkpt>
      <trkpt lat="44.2964" lon="3.23841">
        <ele>455</ele>
        <time>2019-05-22T21:19:53Z</time>
      </trkpt>
      <trkpt lat="44.29593" lon="3.2383">
        <ele>452</ele>
        <time>2019-05-22T21:20:01Z</time>
      </trkpt>
      <trkpt lat="44.29573" lon="3.23821">
        <ele>452</ele>
        <time>2019-05-22T21:20:05Z</time>
      </trkpt>
      <trkpt lat="44.29533" lon="3.23798">
        <ele>451</ele>
        <time>2019-05-22T21:20:13Z</time>
      </trkpt>
      <trkpt lat="44.29506" lon="3.2378">
        <ele>451</ele>
        <time>2019-05-22T21:20:18Z</time>
      </trkpt>
      <trkpt lat="44.29496" lon="3.23771">
        <ele>451</ele>
        <time>2019-05-22T21:20:20Z</time>
      </trkpt>
      <trkpt lat="44.29478" lon="3.23748">
        <ele>453</ele>
        <time>2019-05-22T21:20:25Z</time>
      </trkpt>
      <trkpt lat="44.29468" lon="3.23743">
        <ele>453</ele>
        <time>2019-05-22T21:20:27Z</time>
      </trkpt>
      <trkpt lat="44.29448" lon="3.23736">
        <ele>450</ele>
        <time>2019-05-22T21:20:30Z</time>
      </trkpt>
      <trkpt lat="44.29419" lon="3.23707">
        <ele>452</ele>
        <time>2019-05-22T21:20:37Z</time>
      </trkpt>
      <trkpt lat="44.2939" lon="3.23671">
        <ele>461</ele>
        <time>2019-05-22T21:20:43Z</time>
      </trkpt>
      <trkpt lat="44.29377" lon="3.23665">
        <ele>462</ele>
        <time>2019-05-22T21:20:46Z</time>
      </trkpt>
      <trkpt lat="44.29352" lon="3.23663">
        <ele>461</ele>
        <time>2019-05-22T21:20:50Z</time>
      </trkpt>
      <trkpt lat="44.29338" lon="3.23668">
        <ele>458</ele>
        <time>2019-05-22T21:20:53Z</time>
      </trkpt>
      <trkpt lat="44.29271" lon="3.23729">
        <ele>448</ele>
        <time>2019-05-22T21:21:07Z</time>
      </trkpt>
      <trkpt lat="44.29261" lon="3.23735">
        <ele>447</ele>
        <time>2019-05-22T21:21:09Z</time>
      </trkpt>
      <trkpt lat="44.29208" lon="3.23749">
        <ele>449</ele>
        <time>2019-05-22T21:21:19Z</time>
      </trkpt>
      <trkpt lat="44.29191" lon="3.23751">
        <ele>451</ele>
        <time>2019-05-22T21:21:22Z</time>
      </trkpt>
      <trkpt lat="44.29134" lon="3.23747">
        <ele>460</ele>
        <time>2019-05-22T21:21:32Z</time>
      </trkpt>
      <trkpt lat="44.29115" lon="3.2375">
        <ele>460</ele>
        <time>2019-05-22T21:21:35Z</time>
      </trkpt>
      <trkpt lat="44.29083" lon="3.23769">
        <ele>459</ele>
        <time>2019-05-22T21:21:41Z</time>
      </trkpt>
      <trkpt lat="44.29063" lon="3.23777">
        <ele>454</ele>
        <time>2019-05-22T21:21:45Z</time>
      </trkpt>
      <trkpt lat="44.29046" lon="3.2378">
        <ele>450</ele>
        <time>2019-05-22T21:21:48Z</time>
      </trkpt>
      <trkpt lat="44.29017" lon="3.2378">
        <ele>445</ele>
        <time>2019-05-22T21:21:53Z</time>
      </trkpt>
      <trkpt lat="44.29004" lon="3.23776">
        <ele>443</ele>
        <time>2019-05-22T21:21:56Z</time>
      </trkpt>
      <trkpt lat="44.28988" lon="3.23762">
        <ele>441</ele>
        <time>2019-05-22T21:21:59Z</time>
      </trkpt>
      <trkpt lat="44.28952" lon="3.23726">
        <ele>444</ele>
        <time>2019-05-22T21:22:07Z</time>
      </trkpt>
      <trkpt lat="44.2893" lon="3.2371">
        <ele>443</ele>
        <time>2019-05-22T21:22:11Z</time>
      </trkpt>
      <trkpt lat="44.28903" lon="3.23682">
        <ele>445</ele>
        <time>2019-05-22T21:22:17Z</time>
      </trkpt>
      <trkpt lat="44.28853" lon="3.23647">
        <ele>443</ele>
        <time>2019-05-22T21:22:27Z</time>
      </trkpt>
      <trkpt lat="44.28813" lon="3.23629">
        <ele>440</ele>
        <time>2019-05-22T21:22:35Z</time>
      </trkpt>
      <trkpt lat="44.28802" lon="3.23615">
        <ele>442</ele>
        <time>2019-05-22T21:22:37Z</time>
      </trkpt>
      <trkpt lat="44.28791" lon="3.23592">
        <ele>444</ele>
        <time>2019-05-22T21:22:41Z</time>
      </trkpt>
      <trkpt lat="44.28762" lon="3.2355">
        <ele>437</ele>
        <time>2019-05-22T21:22:48Z</time>
      </trkpt>
      <trkpt lat="44.28726" lon="3.23492">
        <ele>433</ele>
        <time>2019-05-22T21:22:58Z</time>
      </trkpt>
      <trkpt lat="44.28704" lon="3.23447">
        <ele>429</ele>
        <time>2019-05-22T21:23:05Z</time>
      </trkpt>
      <trkpt lat="44.28657" lon="3.23358">
        <ele>428</ele>
        <time>2019-05-22T21:23:19Z</time>
      </trkpt>
      <trkpt lat="44.28639" lon="3.23334">
        <ele>429</ele>
        <time>2019-05-22T21:23:24Z</time>
      </trkpt>
      <trkpt lat="44.28581" lon="3.23299">
        <ele>432</ele>
        <time>2019-05-22T21:23:35Z</time>
      </trkpt>
      <trkpt lat="44.28527" lon="3.23257">
        <ele>431</ele>
        <time>2019-05-22T21:23:46Z</time>
      </trkpt>
      <trkpt lat="44.28491" lon="3.23235">
        <ele>428</ele>
        <time>2019-05-22T21:23:53Z</time>
      </trkpt>
      <trkpt lat="44.28464" lon="3.23208">
        <ele>430</ele>
        <time>2019-05-22T21:23:59Z</time>
      </trkpt>
      <trkpt lat="44.28414" lon="3.23167">
        <ele>424</ele>
        <time>2019-05-22T21:24:09Z</time>
      </trkpt>
      <trkpt lat="44.28398" lon="3.23155">
        <ele>423</ele>
        <time>2019-05-22T21:24:12Z</time>
      </trkpt>
      <trkpt lat="44.28368" lon="3.23138">
        <ele>421</ele>
        <time>2019-05-22T21:24:18Z</time>
      </trkpt>
      <trkpt lat="44.28351" lon="3.23126">
        <ele>420</ele>
        <time>2019-05-22T21:24:21Z</time>
      </trkpt>
      <trkpt lat="44.28344" lon="3.23118">
        <ele>420</ele>
        <time>2019-05-22T21:24:23Z</time>
      </trkpt>
      <trkpt lat="44.28331" lon="3.23099">
        <ele>419</ele>
        <time>2019-05-22T21:24:26Z</time>
      </trkpt>
      <trkpt lat="44.28302" lon="3.2303">
        <ele>424</ele>
        <time>2019-05-22T21:24:37Z</time>
      </trkpt>
      <trkpt lat="44.28291" lon="3.23016">
        <ele>425</ele>
        <time>2019-05-22T21:24:39Z</time>
      </trkpt>
      <trkpt lat="44.28273" lon="3.23004">
        <ele>424</ele>
        <time>2019-05-22T21:24:43Z</time>
      </trkpt>
      <trkpt lat="44.28222" lon="3.22994">
        <ele>421</ele>
        <time>2019-05-22T21:24:52Z</time>
      </trkpt>
      <trkpt lat="44.28145" lon="3.22958">
        <ele>422</ele>
        <time>2019-05-22T21:25:06Z</time>
      </trkpt>
      <trkpt lat="44.28089" lon="3.22901">
        <ele>428</ele>
        <time>2019-05-22T21:25:19Z</time>
      </trkpt>
      <trkpt lat="44.28074" lon="3.2289">
        <ele>431</ele>
        <time>2019-05-22T21:25:22Z</time>
      </trkpt>
      <trkpt lat="44.28067" lon="3.22887">
        <ele>432</ele>
        <time>2019-05-22T21:25:23Z</time>
      </trkpt>
      <trkpt lat="44.28048" lon="3.22884">
        <ele>432</ele>
        <time>2019-05-22T21:25:26Z</time>
      </trkpt>
      <trkpt lat="44.28002" lon="3.22895">
        <ele>428</ele>
        <time>2019-05-22T21:25:35Z</time>
      </trkpt>
      <trkpt lat="44.2799" lon="3.22897">
        <ele>426</ele>
        <time>2019-05-22T21:25:37Z</time>
      </trkpt>
      <trkpt lat="44.27972" lon="3.22895">
        <ele>424</ele>
        <time>2019-05-22T21:25:40Z</time>
      </trkpt>
      <trkpt lat="44.27955" lon="3.22887">
        <ele>424</ele>
        <time>2019-05-22T21:25:43Z</time>
      </trkpt>
      <trkpt lat="44.27893" lon="3.22847">
        <ele>425</ele>
        <time>2019-05-22T21:25:55Z</time>
      </trkpt>
      <trkpt lat="44.27851" lon="3.22825">
        <ele>422</ele>
        <time>2019-05-22T21:26:03Z</time>
      </trkpt>
      <trkpt lat="44.2783" lon="3.22799">
        <ele>423</ele>
        <time>2019-05-22T21:26:08Z</time>
      </trkpt>
      <trkpt lat="44.27812" lon="3.22781">
        <ele>423</ele>
        <time>2019-05-22T21:26:12Z</time>
      </trkpt>
      <trkpt lat="44.27779" lon="3.22753">
        <ele>421</ele>
        <time>2019-05-22T21:26:19Z</time>
      </trkpt>
      <trkpt lat="44.27754" lon="3.22728">
        <ele>420</ele>
        <time>2019-05-22T21:26:25Z</time>
      </trkpt>
      <trkpt lat="44.2775" lon="3.22714">
        <ele>422</ele>
        <time>2019-05-22T21:26:27Z</time>
      </trkpt>
      <trkpt lat="44.27701" lon="3.22646">
        <ele>426</ele>
        <time>2019-05-22T21:26:39Z</time>
      </trkpt>
      <trkpt lat="44.27697" lon="3.22631">
        <ele>430</ele>
        <time>2019-05-22T21:26:41Z</time>
      </trkpt>
      <trkpt lat="44.27694" lon="3.22617">
        <ele>433</ele>
        <time>2019-05-22T21:26:43Z</time>
      </trkpt>
      <trkpt lat="44.27694" lon="3.22614">
        <ele>434</ele>
        <time>2019-05-22T21:26:43Z</time>
      </trkpt>
      <trkpt lat="44.27699" lon="3.22608">
        <ele>437</ele>
        <time>2019-05-22T21:26:44Z</time>
      </trkpt>
      <trkpt lat="44.27705" lon="3.22606">
        <ele>440</ele>
        <time>2019-05-22T21:26:45Z</time>
      </trkpt>
      <trkpt lat="44.27712" lon="3.2261">
        <ele>441</ele>
        <time>2019-05-22T21:26:47Z</time>
      </trkpt>
      <trkpt lat="44.27721" lon="3.22641">
        <ele>433</ele>
        <time>2019-05-22T21:26:51Z</time>
      </trkpt>
      <trkpt lat="44.27727" lon="3.22653">
        <ele>430</ele>
        <time>2019-05-22T21:26:53Z</time>
      </trkpt>
      <trkpt lat="44.27733" lon="3.22658">
        <ele>429</ele>
        <time>2019-05-22T21:26:54Z</time>
      </trkpt>
      <trkpt lat="44.27815" lon="3.22703">
        <ele>440</ele>
        <time>2019-05-22T21:27:10Z</time>
      </trkpt>
      <trkpt lat="44.27852" lon="3.22712">
        <ele>448</ele>
        <time>2019-05-22T21:27:17Z</time>
      </trkpt>
      <trkpt lat="44.27921" lon="3.22769">
        <ele>451</ele>
        <time>2019-05-22T21:27:31Z</time>
      </trkpt>
      <trkpt lat="44.27941" lon="3.22783">
        <ele>452</ele>
        <time>2019-05-22T21:27:35Z</time>
      </trkpt>
      <trkpt lat="44.27975" lon="3.22795">
        <ele>456</ele>
        <time>2019-05-22T21:27:41Z</time>
      </trkpt>
      <trkpt lat="44.28018" lon="3.22805">
        <ele>459</ele>
        <time>2019-05-22T21:27:49Z</time>
      </trkpt>
      <trkpt lat="44.28048" lon="3.22807">
        <ele>459</ele>
        <time>2019-05-22T21:27:54Z</time>
      </trkpt>
      <trkpt lat="44.28073" lon="3.22806">
        <ele>460</ele>
        <time>2019-05-22T21:27:59Z</time>
      </trkpt>
      <trkpt lat="44.28081" lon="3.22804">
        <ele>461</ele>
        <time>2019-05-22T21:28:00Z</time>
      </trkpt>
      <trkpt lat="44.281" lon="3.22793">
        <ele>464</ele>
        <time>2019-05-22T21:28:04Z</time>
      </trkpt>
      <trkpt lat="44.28132" lon="3.22752">
        <ele>477</ele>
        <time>2019-05-22T21:28:11Z</time>
      </trkpt>
      <trkpt lat="44.28146" lon="3.22744">
        <ele>479</ele>
        <time>2019-05-22T21:28:14Z</time>
      </trkpt>
      <trkpt lat="44.28176" lon="3.22734">
        <ele>480</ele>
        <time>2019-05-22T21:28:20Z</time>
      </trkpt>
      <trkpt lat="44.28189" lon="3.22723">
        <ele>484</ele>
        <time>2019-05-22T21:28:22Z</time>
      </trkpt>
      <trkpt lat="44.28212" lon="3.22699">
        <ele>493</ele>
        <time>2019-05-22T21:28:27Z</time>
      </trkpt>
      <trkpt lat="44.2822" lon="3.22693">
        <ele>495</ele>
        <time>2019-05-22T21:28:29Z</time>
      </trkpt>
      <trkpt lat="44.28245" lon="3.22682">
        <ele>497</ele>
        <time>2019-05-22T21:28:34Z</time>
      </trkpt>
      <trkpt lat="44.28294" lon="3.22672">
        <ele>510</ele>
        <time>2019-05-22T21:28:42Z</time>
      </trkpt>
      <trkpt lat="44.28308" lon="3.22671">
        <ele>513</ele>
        <time>2019-05-22T21:28:45Z</time>
      </trkpt>
      <trkpt lat="44.28327" lon="3.22673">
        <ele>517</ele>
        <time>2019-05-22T21:28:48Z</time>
      </trkpt>
      <trkpt lat="44.28332" lon="3.22669">
        <ele>518</ele>
        <time>2019-05-22T21:28:49Z</time>
      </trkpt>
      <trkpt lat="44.28333" lon="3.22664">
        <ele>520</ele>
        <time>2019-05-22T21:28:50Z</time>
      </trkpt>
      <trkpt lat="44.28334" lon="3.2266">
        <ele>521</ele>
        <time>2019-05-22T21:28:51Z</time>
      </trkpt>
      <trkpt lat="44.28331" lon="3.2265">
        <ele>523</ele>
        <time>2019-05-22T21:28:52Z</time>
      </trkpt>
      <trkpt lat="44.28322" lon="3.22647">
        <ele>522</ele>
        <time>2019-05-22T21:28:54Z</time>
      </trkpt>
      <trkpt lat="44.28292" lon="3.22656">
        <ele>515</ele>
        <time>2019-05-22T21:28:59Z</time>
      </trkpt>
      <trkpt lat="44.28256" lon="3.22654">
        <ele>509</ele>
        <time>2019-05-22T21:29:05Z</time>
      </trkpt>
      <trkpt lat="44.28237" lon="3.22656">
        <ele>509</ele>
        <time>2019-05-22T21:29:09Z</time>
      </trkpt>
      <trkpt lat="44.28219" lon="3.22664">
        <ele>507</ele>
        <time>2019-05-22T21:29:12Z</time>
      </trkpt>
      <trkpt lat="44.28207" lon="3.22672">
        <ele>504</ele>
        <time>2019-05-22T21:29:15Z</time>
      </trkpt>
      <trkpt lat="44.28189" lon="3.22682">
        <ele>502</ele>
        <time>2019-05-22T21:29:18Z</time>
      </trkpt>
      <trkpt lat="44.28173" lon="3.22682">
        <ele>503</ele>
        <time>2019-05-22T21:29:21Z</time>
      </trkpt>
      <trkpt lat="44.28152" lon="3.22678">
        <ele>507</ele>
        <time>2019-05-22T21:29:25Z</time>
      </trkpt>
      <trkpt lat="44.28138" lon="3.22677">
        <ele>508</ele>
        <time>2019-05-22T21:29:27Z</time>
      </trkpt>
      <trkpt lat="44.28092" lon="3.2268">
        <ele>510</ele>
        <time>2019-05-22T21:29:35Z</time>
      </trkpt>
      <trkpt lat="44.28072" lon="3.22678">
        <ele>511</ele>
        <time>2019-05-22T21:29:39Z</time>
      </trkpt>
      <trkpt lat="44.28054" lon="3.22672">
        <ele>512</ele>
        <time>2019-05-22T21:29:42Z</time>
      </trkpt>
      <trkpt lat="44.28041" lon="3.22664">
        <ele>513</ele>
        <time>2019-05-22T21:29:45Z</time>
      </trkpt>
      <trkpt lat="44.27921" lon="3.22559">
        <ele>532</ele>
        <time>2019-05-22T21:30:10Z</time>
      </trkpt>
      <trkpt lat="44.27916" lon="3.22547">
        <ele>537</ele>
        <time>2019-05-22T21:30:12Z</time>
      </trkpt>
      <trkpt lat="44.27916" lon="3.22543">
        <ele>538</ele>
        <time>2019-05-22T21:30:12Z</time>
      </trkpt>
      <trkpt lat="44.2792" lon="3.22535">
        <ele>542</ele>
        <time>2019-05-22T21:30:13Z</time>
      </trkpt>
      <trkpt lat="44.27929" lon="3.22533">
        <ele>545</ele>
        <time>2019-05-22T21:30:15Z</time>
      </trkpt>
      <trkpt lat="44.27933" lon="3.22536">
        <ele>544</ele>
        <time>2019-05-22T21:30:16Z</time>
      </trkpt>
      <trkpt lat="44.27953" lon="3.22567">
        <ele>535</ele>
        <time>2019-05-22T21:30:21Z</time>
      </trkpt>
      <trkpt lat="44.27957" lon="3.22571">
        <ele>534</ele>
        <time>2019-05-22T21:30:22Z</time>
      </trkpt>
      <trkpt lat="44.27967" lon="3.22576">
        <ele>534</ele>
        <time>2019-05-22T21:30:24Z</time>
      </trkpt>
      <trkpt lat="44.2801" lon="3.22583">
        <ele>539</ele>
        <time>2019-05-22T21:30:32Z</time>
      </trkpt>
      <trkpt lat="44.2804" lon="3.22595">
        <ele>539</ele>
        <time>2019-05-22T21:30:37Z</time>
      </trkpt>
      <trkpt lat="44.2806" lon="3.22599">
        <ele>540</ele>
        <time>2019-05-22T21:30:41Z</time>
      </trkpt>
      <trkpt lat="44.28092" lon="3.22596">
        <ele>545</ele>
        <time>2019-05-22T21:30:47Z</time>
      </trkpt>
      <trkpt lat="44.28129" lon="3.22584">
        <ele>550</ele>
        <time>2019-05-22T21:30:53Z</time>
      </trkpt>
      <trkpt lat="44.28206" lon="3.22551">
        <ele>561</ele>
        <time>2019-05-22T21:31:08Z</time>
      </trkpt>
      <trkpt lat="44.28264" lon="3.22537">
        <ele>563</ele>
        <time>2019-05-22T21:31:18Z</time>
      </trkpt>
      <trkpt lat="44.28311" lon="3.22529">
        <ele>564</ele>
        <time>2019-05-22T21:31:27Z</time>
      </trkpt>
      <trkpt lat="44.28332" lon="3.22518">
        <ele>568</ele>
        <time>2019-05-22T21:31:31Z</time>
      </trkpt>
      <trkpt lat="44.28411" lon="3.22459">
        <ele>582</ele>
        <time>2019-05-22T21:31:46Z</time>
      </trkpt>
      <trkpt lat="44.28441" lon="3.22431">
        <ele>593</ele>
        <time>2019-05-22T21:31:53Z</time>
      </trkpt>
      <trkpt lat="44.28459" lon="3.22406">
        <ele>602</ele>
        <time>2019-05-22T21:31:57Z</time>
      </trkpt>
      <trkpt lat="44.28462" lon="3.22399">
        <ele>604</ele>
        <time>2019-05-22T21:31:58Z</time>
      </trkpt>
      <trkpt lat="44.28463" lon="3.22387">
        <ele>608</ele>
        <time>2019-05-22T21:32:00Z</time>
      </trkpt>
      <trkpt lat="44.28459" lon="3.2238">
        <ele>610</ele>
        <time>2019-05-22T21:32:01Z</time>
      </trkpt>
      <trkpt lat="44.28454" lon="3.22379">
        <ele>611</ele>
        <time>2019-05-22T21:32:02Z</time>
      </trkpt>
      <trkpt lat="44.2845" lon="3.22379">
        <ele>611</ele>
        <time>2019-05-22T21:32:03Z</time>
      </trkpt>
      <trkpt lat="44.28445" lon="3.22387">
        <ele>608</ele>
        <time>2019-05-22T21:32:04Z</time>
      </trkpt>
      <trkpt lat="44.28434" lon="3.22416">
        <ele>598</ele>
        <time>2019-05-22T21:32:08Z</time>
      </trkpt>
      <trkpt lat="44.28421" lon="3.22431">
        <ele>593</ele>
        <time>2019-05-22T21:32:11Z</time>
      </trkpt>
      <trkpt lat="44.28395" lon="3.22449">
        <ele>590</ele>
        <time>2019-05-22T21:32:16Z</time>
      </trkpt>
      <trkpt lat="44.28378" lon="3.22457">
        <ele>590</ele>
        <time>2019-05-22T21:32:20Z</time>
      </trkpt>
      <trkpt lat="44.28349" lon="3.22465">
        <ele>592</ele>
        <time>2019-05-22T21:32:25Z</time>
      </trkpt>
      <trkpt lat="44.2834" lon="3.22466">
        <ele>593</ele>
        <time>2019-05-22T21:32:26Z</time>
      </trkpt>
      <trkpt lat="44.28317" lon="3.22466">
        <ele>595</ele>
        <time>2019-05-22T21:32:31Z</time>
      </trkpt>
      <trkpt lat="44.28279" lon="3.22455">
        <ele>602</ele>
        <time>2019-05-22T21:32:37Z</time>
      </trkpt>
      <trkpt lat="44.28226" lon="3.22446">
        <ele>608</ele>
        <time>2019-05-22T21:32:47Z</time>
      </trkpt>
      <trkpt lat="44.28164" lon="3.22444">
        <ele>610</ele>
        <time>2019-05-22T21:32:58Z</time>
      </trkpt>
      <trkpt lat="44.28142" lon="3.22442">
        <ele>609</ele>
        <time>2019-05-22T21:33:02Z</time>
      </trkpt>
      <trkpt lat="44.28119" lon="3.22435">
        <ele>611</ele>
        <time>2019-05-22T21:33:06Z</time>
      </trkpt>
      <trkpt lat="44.28065" lon="3.22409">
        <ele>615</ele>
        <time>2019-05-22T21:33:16Z</time>
      </trkpt>
      <trkpt lat="44.28016" lon="3.22372">
        <ele>623</ele>
        <time>2019-05-22T21:33:26Z</time>
      </trkpt>
      <trkpt lat="44.27967" lon="3.22341">
        <ele>629</ele>
        <time>2019-05-22T21:33:36Z</time>
      </trkpt>
      <trkpt lat="44.27923" lon="3.22303">
        <ele>637</ele>
        <time>2019-05-22T21:33:45Z</time>
      </trkpt>
      <trkpt lat="44.27907" lon="3.22292">
        <ele>640</ele>
        <time>2019-05-22T21:33:48Z</time>
      </trkpt>
      <trkpt lat="44.27899" lon="3.22289">
        <ele>640</ele>
        <time>2019-05-22T21:33:50Z</time>
      </trkpt>
      <trkpt lat="44.27842" lon="3.22281">
        <ele>637</ele>
        <time>2019-05-22T21:34:00Z</time>
      </trkpt>
      <trkpt lat="44.27814" lon="3.22275">
        <ele>633</ele>
        <time>2019-05-22T21:34:05Z</time>
      </trkpt>
      <trkpt lat="44.27805" lon="3.22267">
        <ele>633</ele>
        <time>2019-05-22T21:34:07Z</time>
      </trkpt>
      <trkpt lat="44.27803" lon="3.22262">
        <ele>635</ele>
        <time>2019-05-22T21:34:07Z</time>
      </trkpt>
      <trkpt lat="44.27802" lon="3.22256">
        <ele>637</ele>
        <time>2019-05-22T21:34:08Z</time>
      </trkpt>
      <trkpt lat="44.27804" lon="3.22249">
        <ele>640</ele>
        <time>2019-05-22T21:34:09Z</time>
      </trkpt>
      <trkpt lat="44.27809" lon="3.22241">
        <ele>645</ele>
        <time>2019-05-22T21:34:11Z</time>
      </trkpt>
      <trkpt lat="44.27813" lon="3.22239">
        <ele>647</ele>
        <time>2019-05-22T21:34:11Z</time>
      </trkpt>
      <trkpt lat="44.27826" lon="3.22236">
        <ele>652</ele>
        <time>2019-05-22T21:34:14Z</time>
      </trkpt>
      <trkpt lat="44.27875" lon="3.22229">
        <ele>661</ele>
        <time>2019-05-22T21:34:22Z</time>
      </trkpt>
      <trkpt lat="44.27891" lon="3.22231">
        <ele>662</ele>
        <time>2019-05-22T21:34:25Z</time>
      </trkpt>
      <trkpt lat="44.27923" lon="3.22243">
        <ele>661</ele>
        <time>2019-05-22T21:34:31Z</time>
      </trkpt>
      <trkpt lat="44.27945" lon="3.22247">
        <ele>663</ele>
        <time>2019-05-22T21:34:35Z</time>
      </trkpt>
      <trkpt lat="44.28002" lon="3.22242">
        <ele>671</ele>
        <time>2019-05-22T21:34:45Z</time>
      </trkpt>
      <trkpt lat="44.28021" lon="3.22244">
        <ele>674</ele>
        <time>2019-05-22T21:34:49Z</time>
      </trkpt>
      <trkpt lat="44.28057" lon="3.22257">
        <ele>674</ele>
        <time>2019-05-22T21:34:55Z</time>
      </trkpt>
      <trkpt lat="44.28114" lon="3.22271">
        <ele>675</ele>
        <time>2019-05-22T21:35:06Z</time>
      </trkpt>
      <trkpt lat="44.28139" lon="3.22271">
        <ele>676</ele>
        <time>2019-05-22T21:35:10Z</time>
      </trkpt>
      <trkpt lat="44.28153" lon="3.22267">
        <ele>679</ele>
        <time>2019-05-22T21:35:13Z</time>
      </trkpt>
      <trkpt lat="44.28235" lon="3.22223">
        <ele>691</ele>
        <time>2019-05-22T21:35:28Z</time>
      </trkpt>
      <trkpt lat="44.28255" lon="3.22209">
        <ele>694</ele>
        <time>2019-05-22T21:35:32Z</time>
      </trkpt>
      <trkpt lat="44.28269" lon="3.22196">
        <ele>694</ele>
        <time>2019-05-22T21:35:35Z</time>
      </trkpt>
      <trkpt lat="44.2828" lon="3.22179">
        <ele>696</ele>
        <time>2019-05-22T21:35:38Z</time>
      </trkpt>
      <trkpt lat="44.2832" lon="3.22104">
        <ele>703</ele>
        <time>2019-05-22T21:35:50Z</time>
      </trkpt>
      <trkpt lat="44.28336" lon="3.22078">
        <ele>703</ele>
        <time>2019-05-22T21:35:54Z</time>
      </trkpt>
      <trkpt lat="44.2834" lon="3.22065">
        <ele>705</ele>
        <time>2019-05-22T21:35:56Z</time>
      </trkpt>
      <trkpt lat="44.28339" lon="3.22056">
        <ele>708</ele>
        <time>2019-05-22T21:35:57Z</time>
      </trkpt>
      <trkpt lat="44.28336" lon="3.22051">
        <ele>710</ele>
        <time>2019-05-22T21:35:58Z</time>
      </trkpt>
      <trkpt lat="44.28333" lon="3.22049">
        <ele>712</ele>
        <time>2019-05-22T21:35:59Z</time>
      </trkpt>
      <trkpt lat="44.28327" lon="3.22051">
        <ele>713</ele>
        <time>2019-05-22T21:36:00Z</time>
      </trkpt>
      <trkpt lat="44.28321" lon="3.22061">
        <ele>712</ele>
        <time>2019-05-22T21:36:02Z</time>
      </trkpt>
      <trkpt lat="44.28308" lon="3.22092">
        <ele>709</ele>
        <time>2019-05-22T21:36:06Z</time>
      </trkpt>
      <trkpt lat="44.28301" lon="3.221">
        <ele>709</ele>
        <time>2019-05-22T21:36:08Z</time>
      </trkpt>
      <trkpt lat="44.28285" lon="3.2211">
        <ele>712</ele>
        <time>2019-05-22T21:36:11Z</time>
      </trkpt>
      <trkpt lat="44.28254" lon="3.22121">
        <ele>717</ele>
        <time>2019-05-22T21:36:17Z</time>
      </trkpt>
      <trkpt lat="44.28219" lon="3.22129">
        <ele>717</ele>
        <time>2019-05-22T21:36:23Z</time>
      </trkpt>
      <trkpt lat="44.28189" lon="3.22131">
        <ele>718</ele>
        <time>2019-05-22T21:36:28Z</time>
      </trkpt>
      <trkpt lat="44.28168" lon="3.2213">
        <ele>720</ele>
        <time>2019-05-22T21:36:32Z</time>
      </trkpt>
      <trkpt lat="44.28124" lon="3.22121">
        <ele>724</ele>
        <time>2019-05-22T21:36:40Z</time>
      </trkpt>
      <trkpt lat="44.28098" lon="3.22113">
        <ele>727</ele>
        <time>2019-05-22T21:36:45Z</time>
      </trkpt>
      <trkpt lat="44.2807" lon="3.221">
        <ele>730</ele>
        <time>2019-05-22T21:36:50Z</time>
      </trkpt>
      <trkpt lat="44.28017" lon="3.22069">
        <ele>738</ele>
        <time>2019-05-22T21:37:00Z</time>
      </trkpt>
      <trkpt lat="44.27992" lon="3.22057">
        <ele>742</ele>
        <time>2019-05-22T21:37:05Z</time>
      </trkpt>
      <trkpt lat="44.27867" lon="3.22016">
        <ele>751</ele>
        <time>2019-05-22T21:37:28Z</time>
      </trkpt>
      <trkpt lat="44.27804" lon="3.22001">
        <ele>752</ele>
        <time>2019-05-22T21:37:39Z</time>
      </trkpt>
      <trkpt lat="44.2779" lon="3.21999">
        <ele>751</ele>
        <time>2019-05-22T21:37:41Z</time>
      </trkpt>
      <trkpt lat="44.27765" lon="3.22003">
        <ele>747</ele>
        <time>2019-05-22T21:37:46Z</time>
      </trkpt>
      <trkpt lat="44.27757" lon="3.22001">
        <ele>747</ele>
        <time>2019-05-22T21:37:47Z</time>
      </trkpt>
      <trkpt lat="44.2775" lon="3.21993">
        <ele>751</ele>
        <time>2019-05-22T21:37:49Z</time>
      </trkpt>
      <trkpt lat="44.27749" lon="3.21988">
        <ele>754</ele>
        <time>2019-05-22T21:37:50Z</time>
      </trkpt>
      <trkpt lat="44.27752" lon="3.21978">
        <ele>761</ele>
        <time>2019-05-22T21:37:51Z</time>
      </trkpt>
      <trkpt lat="44.27759" lon="3.21975">
        <ele>763</ele>
        <time>2019-05-22T21:37:52Z</time>
      </trkpt>
      <trkpt lat="44.27786" lon="3.21984">
        <ele>760</ele>
        <time>2019-05-22T21:37:57Z</time>
      </trkpt>
      <trkpt lat="44.27805" lon="3.21987">
        <ele>760</ele>
        <time>2019-05-22T21:38:01Z</time>
      </trkpt>
      <trkpt lat="44.27871" lon="3.21978">
        <ele>769</ele>
        <time>2019-05-22T21:38:12Z</time>
      </trkpt>
      <trkpt lat="44.28036" lon="3.21981">
        <ele>778</ele>
        <time>2019-05-22T21:38:42Z</time>
      </trkpt>
      <trkpt lat="44.28078" lon="3.21973">
        <ele>782</ele>
        <time>2019-05-22T21:38:49Z</time>
      </trkpt>
      <trkpt lat="44.28137" lon="3.21955">
        <ele>787</ele>
        <time>2019-05-22T21:39:00Z</time>
      </trkpt>
      <trkpt lat="44.28161" lon="3.2195">
        <ele>788</ele>
        <time>2019-05-22T21:39:04Z</time>
      </trkpt>
      <trkpt lat="44.28196" lon="3.21947">
        <ele>784</ele>
        <time>2019-05-22T21:39:11Z</time>
      </trkpt>
      <trkpt lat="44.28216" lon="3.21942">
        <ele>783</ele>
        <time>2019-05-22T21:39:14Z</time>
      </trkpt>
      <trkpt lat="44.28235" lon="3.21932">
        <ele>784</ele>
        <time>2019-05-22T21:39:18Z</time>
      </trkpt>
      <trkpt lat="44.28249" lon="3.21919">
        <ele>786</ele>
        <time>2019-05-22T21:39:21Z</time>
      </trkpt>
      <trkpt lat="44.28278" lon="3.21868">
        <ele>788</ele>
        <time>2019-05-22T21:39:29Z</time>
      </trkpt>
      <trkpt lat="44.28279" lon="3.21857">
        <ele>790</ele>
        <time>2019-05-22T21:39:31Z</time>
      </trkpt>
      <trkpt lat="44.28279" lon="3.21853">
        <ele>792</ele>
        <time>2019-05-22T21:39:31Z</time>
      </trkpt>
      <trkpt lat="44.28276" lon="3.21847">
        <ele>795</ele>
        <time>2019-05-22T21:39:32Z</time>
      </trkpt>
      <trkpt lat="44.28267" lon="3.21846">
        <ele>799</ele>
        <time>2019-05-22T21:39:34Z</time>
      </trkpt>
      <trkpt lat="44.28249" lon="3.21894">
        <ele>794</ele>
        <time>2019-05-22T21:39:41Z</time>
      </trkpt>
      <trkpt lat="44.28236" lon="3.21905">
        <ele>793</ele>
        <time>2019-05-22T21:39:43Z</time>
      </trkpt>
      <trkpt lat="44.28221" lon="3.21914">
        <ele>794</ele>
        <time>2019-05-22T21:39:46Z</time>
      </trkpt>
      <trkpt lat="44.28045" lon="3.21935">
        <ele>802</ele>
        <time>2019-05-22T21:40:18Z</time>
      </trkpt>
      <trkpt lat="44.27941" lon="3.21897">
        <ele>814</ele>
        <time>2019-05-22T21:40:37Z</time>
      </trkpt>
      <trkpt lat="44.27876" lon="3.21862">
        <ele>823</ele>
        <time>2019-05-22T21:40:49Z</time>
      </trkpt>
      <trkpt lat="44.27797" lon="3.21858">
        <ele>825</ele>
        <time>2019-05-22T21:41:03Z</time>
      </trkpt>
      <trkpt lat="44.2773" lon="3.2185">
        <ele>828</ele>
        <time>2019-05-22T21:41:15Z</time>
      </trkpt>
      <trkpt lat="44.27625" lon="3.21766">
        <ele>835</ele>
        <time>2019-05-22T21:41:37Z</time>
      </trkpt>
      <trkpt lat="44.27565" lon="3.2169">
        <ele>844</ele>
        <time>2019-05-22T21:41:51Z</time>
      </trkpt>
      <trkpt lat="44.27453" lon="3.21617">
        <ele>847</ele>
        <time>2019-05-22T21:42:13Z</time>
      </trkpt>
      <trkpt lat="44.27421" lon="3.21575">
        <ele>853</ele>
        <time>2019-05-22T21:42:21Z</time>
      </trkpt>
      <trkpt lat="44.27291" lon="3.21518">
        <ele>861</ele>
        <time>2019-05-22T21:42:45Z</time>
      </trkpt>
      <trkpt lat="44.27281" lon="3.21504">
        <ele>863</ele>
        <time>2019-05-22T21:42:48Z</time>
      </trkpt>
      <trkpt lat="44.27274" lon="3.21486">
        <ele>865</ele>
        <time>2019-05-22T21:42:50Z</time>
      </trkpt>
      <trkpt lat="44.27272" lon="3.21459">
        <ele>866</ele>
        <time>2019-05-22T21:42:54Z</time>
      </trkpt>
      <trkpt lat="44.27276" lon="3.21429">
        <ele>867</ele>
        <time>2019-05-22T21:42:58Z</time>
      </trkpt>
      <trkpt lat="44.27277" lon="3.21375">
        <ele>867</ele>
        <time>2019-05-22T21:43:05Z</time>
      </trkpt>
      <trkpt lat="44.27274" lon="3.21364">
        <ele>867</ele>
        <time>2019-05-22T21:43:06Z</time>
      </trkpt>
      <trkpt lat="44.2727" lon="3.21352">
        <ele>868</ele>
        <time>2019-05-22T21:43:08Z</time>
      </trkpt>
      <trkpt lat="44.27255" lon="3.21334">
        <ele>869</ele>
        <time>2019-05-22T21:43:11Z</time>
      </trkpt>
      <trkpt lat="44.27247" lon="3.2132">
        <ele>871</ele>
        <time>2019-05-22T21:43:14Z</time>
      </trkpt>
      <trkpt lat="44.27244" lon="3.21307">
        <ele>872</ele>
        <time>2019-05-22T21:43:15Z</time>
      </trkpt>
      <trkpt lat="44.27248" lon="3.21282">
        <ele>874</ele>
        <time>2019-05-22T21:43:19Z</time>
      </trkpt>
      <trkpt lat="44.27253" lon="3.21273">
        <ele>874</ele>
        <time>2019-05-22T21:43:20Z</time>
      </trkpt>
      <trkpt lat="44.27315" lon="3.2123">
        <ele>874</ele>
        <time>2019-05-22T21:43:32Z</time>
      </trkpt>
      <trkpt lat="44.27357" lon="3.21161">
        <ele>882</ele>
        <time>2019-05-22T21:43:44Z</time>
      </trkpt>
      <trkpt lat="44.27366" lon="3.21154">
        <ele>883</ele>
        <time>2019-05-22T21:43:46Z</time>
      </trkpt>
      <trkpt lat="44.27386" lon="3.21149">
        <ele>883</ele>
        <time>2019-05-22T21:43:49Z</time>
      </trkpt>
      <trkpt lat="44.27415" lon="3.21149">
        <ele>881</ele>
        <time>2019-05-22T21:43:54Z</time>
      </trkpt>
      <trkpt lat="44.2744" lon="3.21143">
        <ele>882</ele>
        <time>2019-05-22T21:43:59Z</time>
      </trkpt>
      <trkpt lat="44.27482" lon="3.21122">
        <ele>886</ele>
        <time>2019-05-22T21:44:07Z</time>
      </trkpt>
      <trkpt lat="44.27505" lon="3.21106">
        <ele>888</ele>
        <time>2019-05-22T21:44:11Z</time>
      </trkpt>
      <trkpt lat="44.27581" lon="3.2103">
        <ele>897</ele>
        <time>2019-05-22T21:44:28Z</time>
      </trkpt>
      <trkpt lat="44.27593" lon="3.21023">
        <ele>898</ele>
        <time>2019-05-22T21:44:30Z</time>
      </trkpt>
      <trkpt lat="44.27676" lon="3.20988">
        <ele>899</ele>
        <time>2019-05-22T21:44:46Z</time>
      </trkpt>
      <trkpt lat="44.27759" lon="3.20943">
        <ele>903</ele>
        <time>2019-05-22T21:45:02Z</time>
      </trkpt>
      <trkpt lat="44.27842" lon="3.2086">
        <ele>908</ele>
        <time>2019-05-22T21:45:20Z</time>
      </trkpt>
      <trkpt lat="44.27864" lon="3.20849">
        <ele>908</ele>
        <time>2019-05-22T21:45:24Z</time>
      </trkpt>
      <trkpt lat="44.28115" lon="3.20872">
        <ele>902</ele>
        <time>2019-05-22T21:46:09Z</time>
      </trkpt>
      <trkpt lat="44.28205" lon="3.20847">
        <ele>900</ele>
        <time>2019-05-22T21:46:25Z</time>
      </trkpt>
      <trkpt lat="44.28225" lon="3.20837">
        <ele>899</ele>
        <time>2019-05-22T21:46:29Z</time>
      </trkpt>
      <trkpt lat="44.28288" lon="3.20744">
        <ele>899</ele>
        <time>2019-05-22T21:46:45Z</time>
      </trkpt>
      <trkpt lat="44.28302" lon="3.20718">
        <ele>899</ele>
        <time>2019-05-22T21:46:49Z</time>
      </trkpt>
      <trkpt lat="44.28311" lon="3.20685">
        <ele>898</ele>
        <time>2019-05-22T21:46:54Z</time>
      </trkpt>
      <trkpt lat="44.28316" lon="3.20639">
        <ele>899</ele>
        <time>2019-05-22T21:47:00Z</time>
      </trkpt>
      <trkpt lat="44.2832" lon="3.20516">
        <ele>901</ele>
        <time>2019-05-22T21:47:15Z</time>
      </trkpt>
      <trkpt lat="44.28316" lon="3.20477">
        <ele>901</ele>
        <time>2019-05-22T21:47:20Z</time>
      </trkpt>
      <trkpt lat="44.28304" lon="3.20426">
        <ele>899</ele>
        <time>2019-05-22T21:47:27Z</time>
      </trkpt>
      <trkpt lat="44.28301" lon="3.20384">
        <ele>898</ele>
        <time>2019-05-22T21:47:33Z</time>
      </trkpt>
      <trkpt lat="44.28303" lon="3.20168">
        <ele>897</ele>
        <time>2019-05-22T21:48:00Z</time>
      </trkpt>
      <trkpt lat="44.28308" lon="3.20115">
        <ele>896</ele>
        <time>2019-05-22T21:48:07Z</time>
      </trkpt>
      <trkpt lat="44.28325" lon="3.20079">
        <ele>896</ele>
        <time>2019-05-22T21:48:12Z</time>
      </trkpt>
      <trkpt lat="44.28345" lon="3.20068">
        <ele>895</ele>
        <time>2019-05-22T21:48:16Z</time>
      </trkpt>
      <trkpt lat="44.28365" lon="3.20065">
        <ele>893</ele>
        <time>2019-05-22T21:48:20Z</time>
      </trkpt>
      <trkpt lat="44.28387" lon="3.20075">
        <ele>892</ele>
        <time>2019-05-22T21:48:24Z</time>
      </trkpt>
      <trkpt lat="44.28403" lon="3.20099">
        <ele>892</ele>
        <time>2019-05-22T21:48:28Z</time>
      </trkpt>
      <trkpt lat="44.28433" lon="3.20191">
        <ele>892</ele>
        <time>2019-05-22T21:48:41Z</time>
      </trkpt>
      <trkpt lat="44.28449" lon="3.20223">
        <ele>892</ele>
        <time>2019-05-22T21:48:46Z</time>
      </trkpt>
      <trkpt lat="44.28468" lon="3.20249">
        <ele>891</ele>
        <time>2019-05-22T21:48:51Z</time>
      </trkpt>
      <trkpt lat="44.28498" lon="3.20274">
        <ele>889</ele>
        <time>2019-05-22T21:48:57Z</time>
      </trkpt>
      <trkpt lat="44.28526" lon="3.20285">
        <ele>887</ele>
        <time>2019-05-22T21:49:02Z</time>
      </trkpt>
      <trkpt lat="44.28553" lon="3.20289">
        <ele>886</ele>
        <time>2019-05-22T21:49:07Z</time>
      </trkpt>
      <trkpt lat="44.28842" lon="3.20271">
        <ele>873</ele>
        <time>2019-05-22T21:49:58Z</time>
      </trkpt>
      <trkpt lat="44.28986" lon="3.20182">
        <ele>863</ele>
        <time>2019-05-22T21:50:26Z</time>
      </trkpt>
      <trkpt lat="44.29059" lon="3.2001">
        <ele>866</ele>
        <time>2019-05-22T21:50:52Z</time>
      </trkpt>
      <trkpt lat="44.29123" lon="3.19923">
        <ele>864</ele>
        <time>2019-05-22T21:51:08Z</time>
      </trkpt>
      <trkpt lat="44.29189" lon="3.19876">
        <ele>862</ele>
        <time>2019-05-22T21:51:21Z</time>
      </trkpt>
      <trkpt lat="44.29189" lon="3.19876">
        <ele>862</ele>
        <time>2019-05-22T21:51:21Z</time>
      </trkpt>
      <trkpt lat="44.29219" lon="3.19854">
        <ele>863</ele>
        <time>2019-05-22T21:51:27Z</time>
      </trkpt>
      <trkpt lat="44.29397" lon="3.19562">
        <ele>867</ele>
        <time>2019-05-22T21:52:16Z</time>
      </trkpt>
      <trkpt lat="44.29489" lon="3.19538">
        <ele>865</ele>
        <time>2019-05-22T21:52:33Z</time>
      </trkpt>
      <trkpt lat="44.29547" lon="3.19508">
        <ele>864</ele>
        <time>2019-05-22T21:52:44Z</time>
      </trkpt>
      <trkpt lat="44.29669" lon="3.19528">
        <ele>863</ele>
        <time>2019-05-22T21:53:05Z</time>
      </trkpt>
      <trkpt lat="44.29761" lon="3.19479">
        <ele>867</ele>
        <time>2019-05-22T21:53:23Z</time>
      </trkpt>
      <trkpt lat="44.29876" lon="3.19277">
        <ele>876</ele>
        <time>2019-05-22T21:53:56Z</time>
      </trkpt>
      <trkpt lat="44.29832" lon="3.19088">
        <ele>882</ele>
        <time>2019-05-22T21:54:21Z</time>
      </trkpt>
      <trkpt lat="44.29797" lon="3.18999">
        <ele>879</ele>
        <time>2019-05-22T21:54:34Z</time>
      </trkpt>
      <trkpt lat="44.29795" lon="3.18945">
        <ele>881</ele>
        <time>2019-05-22T21:54:41Z</time>
      </trkpt>
      <trkpt lat="44.29809" lon="3.18892">
        <ele>884</ele>
        <time>2019-05-22T21:54:48Z</time>
      </trkpt>
      <trkpt lat="44.29819" lon="3.18877">
        <ele>884</ele>
        <time>2019-05-22T21:54:51Z</time>
      </trkpt>
      <trkpt lat="44.29853" lon="3.18845">
        <ele>884</ele>
        <time>2019-05-22T21:54:58Z</time>
      </trkpt>
      <trkpt lat="44.29918" lon="3.18831">
        <ele>883</ele>
        <time>2019-05-22T21:55:10Z</time>
      </trkpt>
      <trkpt lat="44.30088" lon="3.18838">
        <ele>885</ele>
        <time>2019-05-22T21:55:40Z</time>
      </trkpt>
      <trkpt lat="44.30165" lon="3.18795">
        <ele>886</ele>
        <time>2019-05-22T21:55:55Z</time>
      </trkpt>
      <trkpt lat="44.30226" lon="3.18724">
        <ele>886</ele>
        <time>2019-05-22T21:56:09Z</time>
      </trkpt>
      <trkpt lat="44.30265" lon="3.18483">
        <ele>881</ele>
        <time>2019-05-22T21:56:40Z</time>
      </trkpt>
      <trkpt lat="44.30375" lon="3.18302">
        <ele>878</ele>
        <time>2019-05-22T21:57:11Z</time>
      </trkpt>
      <trkpt lat="44.30394" lon="3.18258">
        <ele>875</ele>
        <time>2019-05-22T21:57:17Z</time>
      </trkpt>
      <trkpt lat="44.30404" lon="3.18169">
        <ele>871</ele>
        <time>2019-05-22T21:57:29Z</time>
      </trkpt>
      <trkpt lat="44.30415" lon="3.18145">
        <ele>868</ele>
        <time>2019-05-22T21:57:32Z</time>
      </trkpt>
      <trkpt lat="44.30434" lon="3.18126">
        <ele>866</ele>
        <time>2019-05-22T21:57:36Z</time>
      </trkpt>
      <trkpt lat="44.30526" lon="3.18107">
        <ele>862</ele>
        <time>2019-05-22T21:57:53Z</time>
      </trkpt>
      <trkpt lat="44.30566" lon="3.18057">
        <ele>863</ele>
        <time>2019-05-22T21:58:02Z</time>
      </trkpt>
      <trkpt lat="44.30584" lon="3.18045">
        <ele>863</ele>
        <time>2019-05-22T21:58:06Z</time>
      </trkpt>
      <trkpt lat="44.30663" lon="3.18033">
        <ele>865</ele>
        <time>2019-05-22T21:58:20Z</time>
      </trkpt>
      <trkpt lat="44.30688" lon="3.18016">
        <ele>867</ele>
        <time>2019-05-22T21:58:25Z</time>
      </trkpt>
      <trkpt lat="44.30695" lon="3.18001">
        <ele>867</ele>
        <time>2019-05-22T21:58:27Z</time>
      </trkpt>
      <trkpt lat="44.30705" lon="3.17932">
        <ele>869</ele>
        <time>2019-05-22T21:58:36Z</time>
      </trkpt>
      <trkpt lat="44.30713" lon="3.17896">
        <ele>869</ele>
        <time>2019-05-22T21:58:41Z</time>
      </trkpt>
      <trkpt lat="44.30744" lon="3.17819">
        <ele>868</ele>
        <time>2019-05-22T21:58:52Z</time>
      </trkpt>
      <trkpt lat="44.30812" lon="3.17724">
        <ele>866</ele>
        <time>2019-05-22T21:59:09Z</time>
      </trkpt>
      <trkpt lat="44.30836" lon="3.17649">
        <ele>865</ele>
        <time>2019-05-22T21:59:20Z</time>
      </trkpt>
      <trkpt lat="44.30846" lon="3.1761">
        <ele>866</ele>
        <time>2019-05-22T21:59:25Z</time>
      </trkpt>
      <trkpt lat="44.30832" lon="3.17598">
        <ele>866</ele>
        <time>2019-05-22T21:59:28Z</time>
      </trkpt>
      <trkpt lat="44.30816" lon="3.17591">
        <ele>865</ele>
        <time>2019-05-22T21:59:31Z</time>
      </trkpt>
      <trkpt lat="44.30804" lon="3.17581">
        <ele>865</ele>
        <time>2019-05-22T21:59:34Z</time>
      </trkpt>
      <trkpt lat="44.30724" lon="3.17558">
        <ele>862</ele>
        <time>2019-05-22T21:59:48Z</time>
      </trkpt>
      <trkpt lat="44.30705" lon="3.17518">
        <ele>862</ele>
        <time>2019-05-22T21:59:54Z</time>
      </trkpt>
      <trkpt lat="44.30649" lon="3.17438">
        <ele>864</ele>
        <time>2019-05-22T22:00:08Z</time>
      </trkpt>
      <trkpt lat="44.30555" lon="3.17351">
        <ele>869</ele>
        <time>2019-05-22T22:00:29Z</time>
      </trkpt>
      <trkpt lat="44.30544" lon="3.17329">
        <ele>869</ele>
        <time>2019-05-22T22:00:32Z</time>
      </trkpt>
      <trkpt lat="44.3054" lon="3.17311">
        <ele>870</ele>
        <time>2019-05-22T22:00:34Z</time>
      </trkpt>
      <trkpt lat="44.30522" lon="3.17306">
        <ele>871</ele>
        <time>2019-05-22T22:00:38Z</time>
      </trkpt>
      <trkpt lat="44.30502" lon="3.17291">
        <ele>872</ele>
        <time>2019-05-22T22:00:42Z</time>
      </trkpt>
      <trkpt lat="44.30471" lon="3.17266">
        <ele>871</ele>
        <time>2019-05-22T22:00:48Z</time>
      </trkpt>
      <trkpt lat="44.3042" lon="3.17241">
        <ele>868</ele>
        <time>2019-05-22T22:00:58Z</time>
      </trkpt>
      <trkpt lat="44.30368" lon="3.17225">
        <ele>866</ele>
        <time>2019-05-22T22:01:07Z</time>
      </trkpt>
      <trkpt lat="44.30346" lon="3.17221">
        <ele>865</ele>
        <time>2019-05-22T22:01:11Z</time>
      </trkpt>
      <trkpt lat="44.30328" lon="3.17222">
        <ele>865</ele>
        <time>2019-05-22T22:01:14Z</time>
      </trkpt>
      <trkpt lat="44.30266" lon="3.17242">
        <ele>869</ele>
        <time>2019-05-22T22:01:26Z</time>
      </trkpt>
      <trkpt lat="44.30206" lon="3.17266">
        <ele>871</ele>
        <time>2019-05-22T22:01:37Z</time>
      </trkpt>
      <trkpt lat="44.30084" lon="3.1732">
        <ele>870</ele>
        <time>2019-05-22T22:01:59Z</time>
      </trkpt>
      <trkpt lat="44.29862" lon="3.17402">
        <ele>862</ele>
        <time>2019-05-22T22:02:40Z</time>
      </trkpt>
      <trkpt lat="44.29835" lon="3.1741">
        <ele>863</ele>
        <time>2019-05-22T22:02:45Z</time>
      </trkpt>
      <trkpt lat="44.29812" lon="3.17412">
        <ele>863</ele>
        <time>2019-05-22T22:02:49Z</time>
      </trkpt>
      <trkpt lat="44.29694" lon="3.1741">
        <ele>863</ele>
        <time>2019-05-22T22:03:10Z</time>
      </trkpt>
      <trkpt lat="44.29513" lon="3.17412">
        <ele>863</ele>
        <time>2019-05-22T22:03:43Z</time>
      </trkpt>
      <trkpt lat="44.29483" lon="3.17416">
        <ele>862</ele>
        <time>2019-05-22T22:03:48Z</time>
      </trkpt>
      <trkpt lat="44.29465" lon="3.17423">
        <ele>860</ele>
        <time>2019-05-22T22:03:51Z</time>
      </trkpt>
      <trkpt lat="44.2945" lon="3.17433">
        <ele>859</ele>
        <time>2019-05-22T22:03:54Z</time>
      </trkpt>
      <trkpt lat="44.29422" lon="3.17459">
        <ele>857</ele>
        <time>2019-05-22T22:04:00Z</time>
      </trkpt>
      <trkpt lat="44.29401" lon="3.17482">
        <ele>856</ele>
        <time>2019-05-22T22:04:05Z</time>
      </trkpt>
      <trkpt lat="44.29382" lon="3.17506">
        <ele>855</ele>
        <time>2019-05-22T22:04:09Z</time>
      </trkpt>
      <trkpt lat="44.29369" lon="3.17529">
        <ele>854</ele>
        <time>2019-05-22T22:04:13Z</time>
      </trkpt>
      <trkpt lat="44.29343" lon="3.17582">
        <ele>851</ele>
        <time>2019-05-22T22:04:21Z</time>
      </trkpt>
      <trkpt lat="44.29328" lon="3.17606">
        <ele>850</ele>
        <time>2019-05-22T22:04:25Z</time>
      </trkpt>
      <trkpt lat="44.29312" lon="3.17624">
        <ele>851</ele>
        <time>2019-05-22T22:04:29Z</time>
      </trkpt>
      <trkpt lat="44.29296" lon="3.17634">
        <ele>851</ele>
        <time>2019-05-22T22:04:32Z</time>
      </trkpt>
      <trkpt lat="44.2928" lon="3.17642">
        <ele>852</ele>
        <time>2019-05-22T22:04:35Z</time>
      </trkpt>
      <trkpt lat="44.29263" lon="3.17645">
        <ele>853</ele>
        <time>2019-05-22T22:04:38Z</time>
      </trkpt>
      <trkpt lat="44.29244" lon="3.17645">
        <ele>853</ele>
        <time>2019-05-22T22:04:42Z</time>
      </trkpt>
      <trkpt lat="44.29228" lon="3.17641">
        <ele>854</ele>
        <time>2019-05-22T22:04:45Z</time>
      </trkpt>
      <trkpt lat="44.29145" lon="3.176">
        <ele>851</ele>
        <time>2019-05-22T22:05:00Z</time>
      </trkpt>
      <trkpt lat="44.29116" lon="3.17579">
        <ele>851</ele>
        <time>2019-05-22T22:05:06Z</time>
      </trkpt>
      <trkpt lat="44.2907" lon="3.17533">
        <ele>853</ele>
        <time>2019-05-22T22:05:16Z</time>
      </trkpt>
      <trkpt lat="44.28876" lon="3.17434">
        <ele>863</ele>
        <time>2019-05-22T22:05:53Z</time>
      </trkpt>
      <trkpt lat="44.28858" lon="3.17427">
        <ele>865</ele>
        <time>2019-05-22T22:05:56Z</time>
      </trkpt>
      <trkpt lat="44.28835" lon="3.17422">
        <ele>866</ele>
        <time>2019-05-22T22:06:00Z</time>
      </trkpt>
      <trkpt lat="44.28742" lon="3.17415">
        <ele>873</ele>
        <time>2019-05-22T22:06:17Z</time>
      </trkpt>
      <trkpt lat="44.28708" lon="3.17404">
        <ele>873</ele>
        <time>2019-05-22T22:06:23Z</time>
      </trkpt>
      <trkpt lat="44.28685" lon="3.1739">
        <ele>874</ele>
        <time>2019-05-22T22:06:28Z</time>
      </trkpt>
      <trkpt lat="44.28666" lon="3.17374">
        <ele>876</ele>
        <time>2019-05-22T22:06:32Z</time>
      </trkpt>
      <trkpt lat="44.28628" lon="3.17331">
        <ele>880</ele>
        <time>2019-05-22T22:06:40Z</time>
      </trkpt>
      <trkpt lat="44.28605" lon="3.173">
        <ele>881</ele>
        <time>2019-05-22T22:06:46Z</time>
      </trkpt>
      <trkpt lat="44.28579" lon="3.1726">
        <ele>882</ele>
        <time>2019-05-22T22:06:53Z</time>
      </trkpt>
      <trkpt lat="44.28561" lon="3.17238">
        <ele>883</ele>
        <time>2019-05-22T22:06:57Z</time>
      </trkpt>
      <trkpt lat="44.28534" lon="3.17216">
        <ele>884</ele>
        <time>2019-05-22T22:07:03Z</time>
      </trkpt>
      <trkpt lat="44.28524" lon="3.17211">
        <ele>884</ele>
        <time>2019-05-22T22:07:04Z</time>
      </trkpt>
      <trkpt lat="44.28515" lon="3.17211">
        <ele>884</ele>
        <time>2019-05-22T22:07:06Z</time>
      </trkpt>
      <trkpt lat="44.28503" lon="3.17214">
        <ele>883</ele>
        <time>2019-05-22T22:07:08Z</time>
      </trkpt>
      <trkpt lat="44.28488" lon="3.17225">
        <ele>882</ele>
        <time>2019-05-22T22:07:11Z</time>
      </trkpt>
      <trkpt lat="44.28458" lon="3.17252">
        <ele>881</ele>
        <time>2019-05-22T22:07:18Z</time>
      </trkpt>
      <trkpt lat="44.28419" lon="3.17281">
        <ele>882</ele>
        <time>2019-05-22T22:07:25Z</time>
      </trkpt>
      <trkpt lat="44.28389" lon="3.1729">
        <ele>880</ele>
        <time>2019-05-22T22:07:31Z</time>
      </trkpt>
      <trkpt lat="44.28375" lon="3.17289">
        <ele>880</ele>
        <time>2019-05-22T22:07:33Z</time>
      </trkpt>
      <trkpt lat="44.28356" lon="3.17285">
        <ele>879</ele>
        <time>2019-05-22T22:07:37Z</time>
      </trkpt>
      <trkpt lat="44.28033" lon="3.17167">
        <ele>886</ele>
        <time>2019-05-22T22:08:36Z</time>
      </trkpt>
      <trkpt lat="44.27857" lon="3.1708">
        <ele>884</ele>
        <time>2019-05-22T22:09:09Z</time>
      </trkpt>
      <trkpt lat="44.27836" lon="3.17074">
        <ele>883</ele>
        <time>2019-05-22T22:09:13Z</time>
      </trkpt>
      <trkpt lat="44.27822" lon="3.17072">
        <ele>882</ele>
        <time>2019-05-22T22:09:16Z</time>
      </trkpt>
      <trkpt lat="44.27744" lon="3.1708">
        <ele>879</ele>
        <time>2019-05-22T22:09:30Z</time>
      </trkpt>
      <trkpt lat="44.27571" lon="3.17084">
        <ele>869</ele>
        <time>2019-05-22T22:10:01Z</time>
      </trkpt>
      <trkpt lat="44.2755" lon="3.17081">
        <ele>867</ele>
        <time>2019-05-22T22:10:04Z</time>
      </trkpt>
      <trkpt lat="44.27534" lon="3.17075">
        <ele>866</ele>
        <time>2019-05-22T22:10:07Z</time>
      </trkpt>
      <trkpt lat="44.27514" lon="3.17064">
        <ele>864</ele>
        <time>2019-05-22T22:10:11Z</time>
      </trkpt>
      <trkpt lat="44.274" lon="3.1699">
        <ele>863</ele>
        <time>2019-05-22T22:10:33Z</time>
      </trkpt>
      <trkpt lat="44.2733" lon="3.1693">
        <ele>865</ele>
        <time>2019-05-22T22:10:48Z</time>
      </trkpt>
      <trkpt lat="44.27315" lon="3.16914">
        <ele>865</ele>
        <time>2019-05-22T22:10:51Z</time>
      </trkpt>
      <trkpt lat="44.27301" lon="3.16894">
        <ele>864</ele>
        <time>2019-05-22T22:10:55Z</time>
      </trkpt>
      <trkpt lat="44.27293" lon="3.1688">
        <ele>864</ele>
        <time>2019-05-22T22:10:57Z</time>
      </trkpt>
      <trkpt lat="44.27263" lon="3.16805">
        <ele>863</ele>
        <time>2019-05-22T22:11:08Z</time>
      </trkpt>
      <trkpt lat="44.27254" lon="3.16786">
        <ele>862</ele>
        <time>2019-05-22T22:11:11Z</time>
      </trkpt>
      <trkpt lat="44.27245" lon="3.16774">
        <ele>861</ele>
        <time>2019-05-22T22:11:13Z</time>
      </trkpt>
      <trkpt lat="44.27206" lon="3.16735">
        <ele>859</ele>
        <time>2019-05-22T22:11:22Z</time>
      </trkpt>
      <trkpt lat="44.27177" lon="3.16711">
        <ele>858</ele>
        <time>2019-05-22T22:11:28Z</time>
      </trkpt>
      <trkpt lat="44.27138" lon="3.16682">
        <ele>858</ele>
        <time>2019-05-22T22:11:36Z</time>
      </trkpt>
      <trkpt lat="44.271" lon="3.16642">
        <ele>859</ele>
        <time>2019-05-22T22:11:44Z</time>
      </trkpt>
      <trkpt lat="44.27086" lon="3.16631">
        <ele>859</ele>
        <time>2019-05-22T22:11:47Z</time>
      </trkpt>
      <trkpt lat="44.27036" lon="3.16604">
        <ele>860</ele>
        <time>2019-05-22T22:11:57Z</time>
      </trkpt>
      <trkpt lat="44.27036" lon="3.16604">
        <ele>860</ele>
        <time>2019-05-22T22:11:57Z</time>
      </trkpt>
      <trkpt lat="44.27014" lon="3.16587">
        <ele>861</ele>
        <time>2019-05-22T22:12:01Z</time>
      </trkpt>
      <trkpt lat="44.26994" lon="3.16561">
        <ele>862</ele>
        <time>2019-05-22T22:12:06Z</time>
      </trkpt>
      <trkpt lat="44.26913" lon="3.1643">
        <ele>869</ele>
        <time>2019-05-22T22:12:28Z</time>
      </trkpt>
      <trkpt lat="44.26902" lon="3.16404">
        <ele>869</ele>
        <time>2019-05-22T22:12:32Z</time>
      </trkpt>
      <trkpt lat="44.26895" lon="3.16383">
        <ele>870</ele>
        <time>2019-05-22T22:12:35Z</time>
      </trkpt>
      <trkpt lat="44.26892" lon="3.1636">
        <ele>870</ele>
        <time>2019-05-22T22:12:38Z</time>
      </trkpt>
      <trkpt lat="44.26889" lon="3.16316">
        <ele>871</ele>
        <time>2019-05-22T22:12:43Z</time>
      </trkpt>
      <trkpt lat="44.26885" lon="3.16301">
        <ele>871</ele>
        <time>2019-05-22T22:12:45Z</time>
      </trkpt>
      <trkpt lat="44.26879" lon="3.16288">
        <ele>872</ele>
        <time>2019-05-22T22:12:47Z</time>
      </trkpt>
      <trkpt lat="44.26871" lon="3.16278">
        <ele>872</ele>
        <time>2019-05-22T22:12:49Z</time>
      </trkpt>
      <trkpt lat="44.26851" lon="3.16266">
        <ele>874</ele>
        <time>2019-05-22T22:12:53Z</time>
      </trkpt>
      <trkpt lat="44.26828" lon="3.1626">
        <ele>875</ele>
        <time>2019-05-22T22:12:57Z</time>
      </trkpt>
      <trkpt lat="44.26805" lon="3.1625">
        <ele>875</ele>
        <time>2019-05-22T22:13:02Z</time>
      </trkpt>
      <trkpt lat="44.26784" lon="3.16239">
        <ele>874</ele>
        <time>2019-05-22T22:13:06Z</time>
      </trkpt>
      <trkpt lat="44.26671" lon="3.16157">
        <ele>871</ele>
        <time>2019-05-22T22:13:28Z</time>
      </trkpt>
      <trkpt lat="44.26485" lon="3.16036">
        <ele>867</ele>
        <time>2019-05-22T22:14:05Z</time>
      </trkpt>
      <trkpt lat="44.26468" lon="3.16027">
        <ele>868</ele>
        <time>2019-05-22T22:14:08Z</time>
      </trkpt>
      <trkpt lat="44.26452" lon="3.16023">
        <ele>868</ele>
        <time>2019-05-22T22:14:11Z</time>
      </trkpt>
      <trkpt lat="44.26361" lon="3.16042">
        <ele>870</ele>
        <time>2019-05-22T22:14:27Z</time>
      </trkpt>
      <trkpt lat="44.26312" lon="3.1605">
        <ele>870</ele>
        <time>2019-05-22T22:14:36Z</time>
      </trkpt>
      <trkpt lat="44.26275" lon="3.16054">
        <ele>869</ele>
        <time>2019-05-22T22:14:43Z</time>
      </trkpt>
      <trkpt lat="44.26254" lon="3.16053">
        <ele>868</ele>
        <time>2019-05-22T22:14:46Z</time>
      </trkpt>
      <trkpt lat="44.26217" lon="3.16036">
        <ele>866</ele>
        <time>2019-05-22T22:14:53Z</time>
      </trkpt>
      <trkpt lat="44.26137" lon="3.15978">
        <ele>862</ele>
        <time>2019-05-22T22:15:09Z</time>
      </trkpt>
      <trkpt lat="44.26119" lon="3.15968">
        <ele>861</ele>
        <time>2019-05-22T22:15:13Z</time>
      </trkpt>
      <trkpt lat="44.26104" lon="3.15964">
        <ele>861</ele>
        <time>2019-05-22T22:15:15Z</time>
      </trkpt>
      <trkpt lat="44.25981" lon="3.15974">
        <ele>859</ele>
        <time>2019-05-22T22:15:37Z</time>
      </trkpt>
      <trkpt lat="44.25913" lon="3.15996">
        <ele>860</ele>
        <time>2019-05-22T22:15:50Z</time>
      </trkpt>
      <trkpt lat="44.25864" lon="3.15999">
        <ele>860</ele>
        <time>2019-05-22T22:15:59Z</time>
      </trkpt>
      <trkpt lat="44.25803" lon="3.15996">
        <ele>862</ele>
        <time>2019-05-22T22:16:09Z</time>
      </trkpt>
      <trkpt lat="44.25785" lon="3.15998">
        <ele>864</ele>
        <time>2019-05-22T22:16:13Z</time>
      </trkpt>
      <trkpt lat="44.25764" lon="3.16003">
        <ele>865</ele>
        <time>2019-05-22T22:16:16Z</time>
      </trkpt>
      <trkpt lat="44.25747" lon="3.16011">
        <ele>866</ele>
        <time>2019-05-22T22:16:20Z</time>
      </trkpt>
      <trkpt lat="44.25722" lon="3.1603">
        <ele>866</ele>
        <time>2019-05-22T22:16:25Z</time>
      </trkpt>
      <trkpt lat="44.25701" lon="3.16058">
        <ele>867</ele>
        <time>2019-05-22T22:16:30Z</time>
      </trkpt>
      <trkpt lat="44.25694" lon="3.16071">
        <ele>867</ele>
        <time>2019-05-22T22:16:32Z</time>
      </trkpt>
      <trkpt lat="44.2567" lon="3.16138">
        <ele>870</ele>
        <time>2019-05-22T22:16:41Z</time>
      </trkpt>
      <trkpt lat="44.25664" lon="3.1615">
        <ele>871</ele>
        <time>2019-05-22T22:16:43Z</time>
      </trkpt>
      <trkpt lat="44.2565" lon="3.1616">
        <ele>871</ele>
        <time>2019-05-22T22:16:46Z</time>
      </trkpt>
      <trkpt lat="44.25642" lon="3.1616">
        <ele>871</ele>
        <time>2019-05-22T22:16:48Z</time>
      </trkpt>
      <trkpt lat="44.25633" lon="3.16158">
        <ele>871</ele>
        <time>2019-05-22T22:16:49Z</time>
      </trkpt>
      <trkpt lat="44.25585" lon="3.16116">
        <ele>871</ele>
        <time>2019-05-22T22:16:59Z</time>
      </trkpt>
      <trkpt lat="44.25558" lon="3.16096">
        <ele>871</ele>
        <time>2019-05-22T22:17:05Z</time>
      </trkpt>
      <trkpt lat="44.25505" lon="3.16065">
        <ele>873</ele>
        <time>2019-05-22T22:17:15Z</time>
      </trkpt>
      <trkpt lat="44.25408" lon="3.16013">
        <ele>879</ele>
        <time>2019-05-22T22:17:33Z</time>
      </trkpt>
      <trkpt lat="44.25303" lon="3.15962">
        <ele>884</ele>
        <time>2019-05-22T22:17:53Z</time>
      </trkpt>
      <trkpt lat="44.25286" lon="3.15949">
        <ele>883</ele>
        <time>2019-05-22T22:17:57Z</time>
      </trkpt>
      <trkpt lat="44.2524" lon="3.15895">
        <ele>884</ele>
        <time>2019-05-22T22:18:07Z</time>
      </trkpt>
      <trkpt lat="44.2522" lon="3.1588">
        <ele>883</ele>
        <time>2019-05-22T22:18:11Z</time>
      </trkpt>
      <trkpt lat="44.25206" lon="3.15872">
        <ele>883</ele>
        <time>2019-05-22T22:18:14Z</time>
      </trkpt>
      <trkpt lat="44.25188" lon="3.15866">
        <ele>883</ele>
        <time>2019-05-22T22:18:17Z</time>
      </trkpt>
      <trkpt lat="44.25163" lon="3.1586">
        <ele>882</ele>
        <time>2019-05-22T22:18:22Z</time>
      </trkpt>
      <trkpt lat="44.25148" lon="3.15851">
        <ele>882</ele>
        <time>2019-05-22T22:18:25Z</time>
      </trkpt>
      <trkpt lat="44.25139" lon="3.15842">
        <ele>882</ele>
        <time>2019-05-22T22:18:27Z</time>
      </trkpt>
      <trkpt lat="44.25101" lon="3.15785">
        <ele>880</ele>
        <time>2019-05-22T22:18:37Z</time>
      </trkpt>
      <trkpt lat="44.25079" lon="3.15759">
        <ele>880</ele>
        <time>2019-05-22T22:18:42Z</time>
      </trkpt>
      <trkpt lat="44.2505" lon="3.15744">
        <ele>880</ele>
        <time>2019-05-22T22:18:47Z</time>
      </trkpt>
      <trkpt lat="44.24917" lon="3.15713">
        <ele>880</ele>
        <time>2019-05-22T22:19:11Z</time>
      </trkpt>
      <trkpt lat="44.2489" lon="3.15713">
        <ele>879</ele>
        <time>2019-05-22T22:19:16Z</time>
      </trkpt>
      <trkpt lat="44.24872" lon="3.15716">
        <ele>878</ele>
        <time>2019-05-22T22:19:19Z</time>
      </trkpt>
      <trkpt lat="44.24827" lon="3.15727">
        <ele>877</ele>
        <time>2019-05-22T22:19:27Z</time>
      </trkpt>
      <trkpt lat="44.24663" lon="3.15778">
        <ele>876</ele>
        <time>2019-05-22T22:19:57Z</time>
      </trkpt>
      <trkpt lat="44.24586" lon="3.15814">
        <ele>876</ele>
        <time>2019-05-22T22:20:12Z</time>
      </trkpt>
      <trkpt lat="44.24563" lon="3.15821">
        <ele>875</ele>
        <time>2019-05-22T22:20:16Z</time>
      </trkpt>
      <trkpt lat="44.24465" lon="3.15838">
        <ele>872</ele>
        <time>2019-05-22T22:20:34Z</time>
      </trkpt>
      <trkpt lat="44.2444" lon="3.15837">
        <ele>871</ele>
        <time>2019-05-22T22:20:38Z</time>
      </trkpt>
      <trkpt lat="44.2442" lon="3.15831">
        <ele>870</ele>
        <time>2019-05-22T22:20:42Z</time>
      </trkpt>
      <trkpt lat="44.24321" lon="3.15784">
        <ele>863</ele>
        <time>2019-05-22T22:21:00Z</time>
      </trkpt>
      <trkpt lat="44.24311" lon="3.15781">
        <ele>863</ele>
        <time>2019-05-22T22:21:02Z</time>
      </trkpt>
      <trkpt lat="44.24287" lon="3.15781">
        <ele>862</ele>
        <time>2019-05-22T22:21:06Z</time>
      </trkpt>
      <trkpt lat="44.24218" lon="3.15797">
        <ele>859</ele>
        <time>2019-05-22T22:21:19Z</time>
      </trkpt>
      <trkpt lat="44.24202" lon="3.15808">
        <ele>858</ele>
        <time>2019-05-22T22:21:22Z</time>
      </trkpt>
      <trkpt lat="44.24187" lon="3.15833">
        <ele>855</ele>
        <time>2019-05-22T22:21:26Z</time>
      </trkpt>
      <trkpt lat="44.24171" lon="3.15845">
        <ele>853</ele>
        <time>2019-05-22T22:21:29Z</time>
      </trkpt>
      <trkpt lat="44.24121" lon="3.1586">
        <ele>852</ele>
        <time>2019-05-22T22:21:38Z</time>
      </trkpt>
      <trkpt lat="44.24091" lon="3.15872">
        <ele>851</ele>
        <time>2019-05-22T22:21:44Z</time>
      </trkpt>
      <trkpt lat="44.24081" lon="3.15879">
        <ele>851</ele>
        <time>2019-05-22T22:21:46Z</time>
      </trkpt>
      <trkpt lat="44.24072" lon="3.15887">
        <ele>850</ele>
        <time>2019-05-22T22:21:48Z</time>
      </trkpt>
      <trkpt lat="44.24063" lon="3.159">
        <ele>850</ele>
        <time>2019-05-22T22:21:50Z</time>
      </trkpt>
      <trkpt lat="44.24035" lon="3.15949">
        <ele>848</ele>
        <time>2019-05-22T22:21:58Z</time>
      </trkpt>
      <trkpt lat="44.24025" lon="3.15964">
        <ele>848</ele>
        <time>2019-05-22T22:22:01Z</time>
      </trkpt>
      <trkpt lat="44.24015" lon="3.15974">
        <ele>848</ele>
        <time>2019-05-22T22:22:03Z</time>
      </trkpt>
      <trkpt lat="44.24003" lon="3.15982">
        <ele>848</ele>
        <time>2019-05-22T22:22:05Z</time>
      </trkpt>
      <trkpt lat="44.23988" lon="3.15989">
        <ele>847</ele>
        <time>2019-05-22T22:22:08Z</time>
      </trkpt>
      <trkpt lat="44.23871" lon="3.16027">
        <ele>841</ele>
        <time>2019-05-22T22:22:30Z</time>
      </trkpt>
      <trkpt lat="44.23856" lon="3.1603">
        <ele>840</ele>
        <time>2019-05-22T22:22:32Z</time>
      </trkpt>
      <trkpt lat="44.23845" lon="3.16029">
        <ele>840</ele>
        <time>2019-05-22T22:22:34Z</time>
      </trkpt>
      <trkpt lat="44.23834" lon="3.16023">
        <ele>839</ele>
        <time>2019-05-22T22:22:36Z</time>
      </trkpt>
      <trkpt lat="44.23824" lon="3.16014">
        <ele>837</ele>
        <time>2019-05-22T22:22:38Z</time>
      </trkpt>
      <trkpt lat="44.23817" lon="3.16002">
        <ele>836</ele>
        <time>2019-05-22T22:22:40Z</time>
      </trkpt>
      <trkpt lat="44.23815" lon="3.15991">
        <ele>835</ele>
        <time>2019-05-22T22:22:42Z</time>
      </trkpt>
      <trkpt lat="44.23815" lon="3.15978">
        <ele>835</ele>
        <time>2019-05-22T22:22:43Z</time>
      </trkpt>
      <trkpt lat="44.23819" lon="3.15963">
        <ele>835</ele>
        <time>2019-05-22T22:22:46Z</time>
      </trkpt>
      <trkpt lat="44.23855" lon="3.15861">
        <ele>835</ele>
        <time>2019-05-22T22:23:00Z</time>
      </trkpt>
      <trkpt lat="44.2387" lon="3.15821">
        <ele>835</ele>
        <time>2019-05-22T22:23:06Z</time>
      </trkpt>
      <trkpt lat="44.23884" lon="3.15789">
        <ele>836</ele>
        <time>2019-05-22T22:23:11Z</time>
      </trkpt>
      <trkpt lat="44.23886" lon="3.15778">
        <ele>836</ele>
        <time>2019-05-22T22:23:12Z</time>
      </trkpt>
      <trkpt lat="44.23887" lon="3.15765">
        <ele>836</ele>
        <time>2019-05-22T22:23:14Z</time>
      </trkpt>
      <trkpt lat="44.23884" lon="3.15751">
        <ele>835</ele>
        <time>2019-05-22T22:23:16Z</time>
      </trkpt>
      <trkpt lat="44.2388" lon="3.1574">
        <ele>834</ele>
        <time>2019-05-22T22:23:17Z</time>
      </trkpt>
      <trkpt lat="44.23874" lon="3.15731">
        <ele>833</ele>
        <time>2019-05-22T22:23:19Z</time>
      </trkpt>
      <trkpt lat="44.23865" lon="3.15724">
        <ele>832</ele>
        <time>2019-05-22T22:23:20Z</time>
      </trkpt>
      <trkpt lat="44.23846" lon="3.15717">
        <ele>830</ele>
        <time>2019-05-22T22:23:24Z</time>
      </trkpt>
      <trkpt lat="44.23819" lon="3.1572">
        <ele>828</ele>
        <time>2019-05-22T22:23:29Z</time>
      </trkpt>
      <trkpt lat="44.23795" lon="3.15727">
        <ele>829</ele>
        <time>2019-05-22T22:23:33Z</time>
      </trkpt>
      <trkpt lat="44.2379" lon="3.15731">
        <ele>829</ele>
        <time>2019-05-22T22:23:34Z</time>
      </trkpt>
      <trkpt lat="44.23764" lon="3.15772">
        <ele>829</ele>
        <time>2019-05-22T22:23:41Z</time>
      </trkpt>
      <trkpt lat="44.2373" lon="3.15809">
        <ele>825</ele>
        <time>2019-05-22T22:23:49Z</time>
      </trkpt>
      <trkpt lat="44.23718" lon="3.15819">
        <ele>823</ele>
        <time>2019-05-22T22:23:51Z</time>
      </trkpt>
      <trkpt lat="44.23701" lon="3.15827">
        <ele>821</ele>
        <time>2019-05-22T22:23:55Z</time>
      </trkpt>
      <trkpt lat="44.23688" lon="3.15829">
        <ele>821</ele>
        <time>2019-05-22T22:23:57Z</time>
      </trkpt>
      <trkpt lat="44.23675" lon="3.15828">
        <ele>820</ele>
        <time>2019-05-22T22:23:59Z</time>
      </trkpt>
      <trkpt lat="44.23665" lon="3.15824">
        <ele>820</ele>
        <time>2019-05-22T22:24:01Z</time>
      </trkpt>
      <trkpt lat="44.23647" lon="3.15807">
        <ele>821</ele>
        <time>2019-05-22T22:24:05Z</time>
      </trkpt>
      <trkpt lat="44.23623" lon="3.15778">
        <ele>823</ele>
        <time>2019-05-22T22:24:11Z</time>
      </trkpt>
      <trkpt lat="44.23613" lon="3.15769">
        <ele>823</ele>
        <time>2019-05-22T22:24:13Z</time>
      </trkpt>
      <trkpt lat="44.23604" lon="3.15763">
        <ele>823</ele>
        <time>2019-05-22T22:24:14Z</time>
      </trkpt>
      <trkpt lat="44.23585" lon="3.15759">
        <ele>822</ele>
        <time>2019-05-22T22:24:18Z</time>
      </trkpt>
      <trkpt lat="44.23541" lon="3.15771">
        <ele>815</ele>
        <time>2019-05-22T22:24:26Z</time>
      </trkpt>
      <trkpt lat="44.23532" lon="3.1577">
        <ele>815</ele>
        <time>2019-05-22T22:24:27Z</time>
      </trkpt>
      <trkpt lat="44.23516" lon="3.15759">
        <ele>814</ele>
        <time>2019-05-22T22:24:31Z</time>
      </trkpt>
      <trkpt lat="44.23505" lon="3.15719">
        <ele>815</ele>
        <time>2019-05-22T22:24:36Z</time>
      </trkpt>
      <trkpt lat="44.23499" lon="3.15707">
        <ele>815</ele>
        <time>2019-05-22T22:24:38Z</time>
      </trkpt>
      <trkpt lat="44.23492" lon="3.15698">
        <ele>816</ele>
        <time>2019-05-22T22:24:40Z</time>
      </trkpt>
      <trkpt lat="44.23478" lon="3.15684">
        <ele>817</ele>
        <time>2019-05-22T22:24:43Z</time>
      </trkpt>
      <trkpt lat="44.23396" lon="3.15619">
        <ele>818</ele>
        <time>2019-05-22T22:24:59Z</time>
      </trkpt>
      <trkpt lat="44.23309" lon="3.15559">
        <ele>824</ele>
        <time>2019-05-22T22:25:17Z</time>
      </trkpt>
      <trkpt lat="44.2322" lon="3.15516">
        <ele>823</ele>
        <time>2019-05-22T22:25:33Z</time>
      </trkpt>
      <trkpt lat="44.23155" lon="3.15494">
        <ele>817</ele>
        <time>2019-05-22T22:25:45Z</time>
      </trkpt>
      <trkpt lat="44.23139" lon="3.15486">
        <ele>815</ele>
        <time>2019-05-22T22:25:48Z</time>
      </trkpt>
      <trkpt lat="44.23125" lon="3.15474">
        <ele>814</ele>
        <time>2019-05-22T22:25:51Z</time>
      </trkpt>
      <trkpt lat="44.23079" lon="3.15417">
        <ele>808</ele>
        <time>2019-05-22T22:26:02Z</time>
      </trkpt>
      <trkpt lat="44.2307" lon="3.154">
        <ele>807</ele>
        <time>2019-05-22T22:26:05Z</time>
      </trkpt>
      <trkpt lat="44.23064" lon="3.15382">
        <ele>806</ele>
        <time>2019-05-22T22:26:08Z</time>
      </trkpt>
      <trkpt lat="44.23063" lon="3.15364">
        <ele>806</ele>
        <time>2019-05-22T22:26:10Z</time>
      </trkpt>
      <trkpt lat="44.23065" lon="3.15341">
        <ele>807</ele>
        <time>2019-05-22T22:26:13Z</time>
      </trkpt>
      <trkpt lat="44.23071" lon="3.15299">
        <ele>806</ele>
        <time>2019-05-22T22:26:18Z</time>
      </trkpt>
      <trkpt lat="44.23074" lon="3.15188">
        <ele>800</ele>
        <time>2019-05-22T22:26:32Z</time>
      </trkpt>
      <trkpt lat="44.2307" lon="3.15167">
        <ele>799</ele>
        <time>2019-05-22T22:26:35Z</time>
      </trkpt>
      <trkpt lat="44.23061" lon="3.15157">
        <ele>799</ele>
        <time>2019-05-22T22:26:37Z</time>
      </trkpt>
      <trkpt lat="44.2305" lon="3.15158">
        <ele>798</ele>
        <time>2019-05-22T22:26:39Z</time>
      </trkpt>
      <trkpt lat="44.23042" lon="3.15166">
        <ele>798</ele>
        <time>2019-05-22T22:26:41Z</time>
      </trkpt>
      <trkpt lat="44.22971" lon="3.15302">
        <ele>792</ele>
        <time>2019-05-22T22:27:02Z</time>
      </trkpt>
      <trkpt lat="44.2296" lon="3.15319">
        <ele>790</ele>
        <time>2019-05-22T22:27:05Z</time>
      </trkpt>
      <trkpt lat="44.22942" lon="3.15336">
        <ele>788</ele>
        <time>2019-05-22T22:27:09Z</time>
      </trkpt>
      <trkpt lat="44.22932" lon="3.15342">
        <ele>787</ele>
        <time>2019-05-22T22:27:11Z</time>
      </trkpt>
      <trkpt lat="44.22913" lon="3.15348">
        <ele>786</ele>
        <time>2019-05-22T22:27:15Z</time>
      </trkpt>
      <trkpt lat="44.22896" lon="3.15348">
        <ele>785</ele>
        <time>2019-05-22T22:27:18Z</time>
      </trkpt>
      <trkpt lat="44.22877" lon="3.15342">
        <ele>784</ele>
        <time>2019-05-22T22:27:21Z</time>
      </trkpt>
      <trkpt lat="44.22827" lon="3.1532">
        <ele>783</ele>
        <time>2019-05-22T22:27:30Z</time>
      </trkpt>
      <trkpt lat="44.22788" lon="3.15315">
        <ele>780</ele>
        <time>2019-05-22T22:27:37Z</time>
      </trkpt>
      <trkpt lat="44.22777" lon="3.15309">
        <ele>780</ele>
        <time>2019-05-22T22:27:39Z</time>
      </trkpt>
      <trkpt lat="44.22767" lon="3.15301">
        <ele>779</ele>
        <time>2019-05-22T22:27:42Z</time>
      </trkpt>
      <trkpt lat="44.22735" lon="3.15263">
        <ele>777</ele>
        <time>2019-05-22T22:27:49Z</time>
      </trkpt>
      <trkpt lat="44.22723" lon="3.15252">
        <ele>776</ele>
        <time>2019-05-22T22:27:52Z</time>
      </trkpt>
      <trkpt lat="44.22635" lon="3.1519">
        <ele>770</ele>
        <time>2019-05-22T22:28:09Z</time>
      </trkpt>
      <trkpt lat="44.22608" lon="3.1518">
        <ele>767</ele>
        <time>2019-05-22T22:28:14Z</time>
      </trkpt>
      <trkpt lat="44.22591" lon="3.15178">
        <ele>765</ele>
        <time>2019-05-22T22:28:17Z</time>
      </trkpt>
      <trkpt lat="44.22557" lon="3.15182">
        <ele>754</ele>
        <time>2019-05-22T22:28:23Z</time>
      </trkpt>
      <trkpt lat="44.22533" lon="3.1519">
        <ele>745</ele>
        <time>2019-05-22T22:28:28Z</time>
      </trkpt>
      <trkpt lat="44.22526" lon="3.1519">
        <ele>743</ele>
        <time>2019-05-22T22:28:29Z</time>
      </trkpt>
      <trkpt lat="44.2252" lon="3.15187">
        <ele>741</ele>
        <time>2019-05-22T22:28:30Z</time>
      </trkpt>
      <trkpt lat="44.22517" lon="3.15182">
        <ele>740</ele>
        <time>2019-05-22T22:28:31Z</time>
      </trkpt>
      <trkpt lat="44.22516" lon="3.15168">
        <ele>739</ele>
        <time>2019-05-22T22:28:33Z</time>
      </trkpt>
      <trkpt lat="44.22525" lon="3.15135">
        <ele>739</ele>
        <time>2019-05-22T22:28:37Z</time>
      </trkpt>
      <trkpt lat="44.22543" lon="3.15091">
        <ele>744</ele>
        <time>2019-05-22T22:28:44Z</time>
      </trkpt>
      <trkpt lat="44.22601" lon="3.14982">
        <ele>748</ele>
        <time>2019-05-22T22:29:01Z</time>
      </trkpt>
      <trkpt lat="44.22652" lon="3.14863">
        <ele>737</ele>
        <time>2019-05-22T22:29:19Z</time>
      </trkpt>
      <trkpt lat="44.22665" lon="3.14839">
        <ele>735</ele>
        <time>2019-05-22T22:29:22Z</time>
      </trkpt>
      <trkpt lat="44.22686" lon="3.14806">
        <ele>736</ele>
        <time>2019-05-22T22:29:28Z</time>
      </trkpt>
      <trkpt lat="44.22739" lon="3.14729">
        <ele>735</ele>
        <time>2019-05-22T22:29:42Z</time>
      </trkpt>
      <trkpt lat="44.22761" lon="3.14692">
        <ele>731</ele>
        <time>2019-05-22T22:29:48Z</time>
      </trkpt>
      <trkpt lat="44.22783" lon="3.14652">
        <ele>728</ele>
        <time>2019-05-22T22:29:54Z</time>
      </trkpt>
      <trkpt lat="44.228" lon="3.14613">
        <ele>726</ele>
        <time>2019-05-22T22:30:00Z</time>
      </trkpt>
      <trkpt lat="44.22806" lon="3.14595">
        <ele>724</ele>
        <time>2019-05-22T22:30:02Z</time>
      </trkpt>
      <trkpt lat="44.22809" lon="3.14577">
        <ele>721</ele>
        <time>2019-05-22T22:30:05Z</time>
      </trkpt>
      <trkpt lat="44.2281" lon="3.14532">
        <ele>715</ele>
        <time>2019-05-22T22:30:11Z</time>
      </trkpt>
      <trkpt lat="44.22814" lon="3.14505">
        <ele>712</ele>
        <time>2019-05-22T22:30:14Z</time>
      </trkpt>
      <trkpt lat="44.22824" lon="3.14479">
        <ele>712</ele>
        <time>2019-05-22T22:30:18Z</time>
      </trkpt>
      <trkpt lat="44.22832" lon="3.14464">
        <ele>712</ele>
        <time>2019-05-22T22:30:20Z</time>
      </trkpt>
      <trkpt lat="44.2286" lon="3.1442">
        <ele>709</ele>
        <time>2019-05-22T22:30:28Z</time>
      </trkpt>
      <trkpt lat="44.2287" lon="3.14408">
        <ele>709</ele>
        <time>2019-05-22T22:30:30Z</time>
      </trkpt>
      <trkpt lat="44.22885" lon="3.14391">
        <ele>710</ele>
        <time>2019-05-22T22:30:34Z</time>
      </trkpt>
      <trkpt lat="44.22888" lon="3.14382">
        <ele>709</ele>
        <time>2019-05-22T22:30:35Z</time>
      </trkpt>
      <trkpt lat="44.22886" lon="3.14376">
        <ele>708</ele>
        <time>2019-05-22T22:30:36Z</time>
      </trkpt>
      <trkpt lat="44.22879" lon="3.14375">
        <ele>707</ele>
        <time>2019-05-22T22:30:37Z</time>
      </trkpt>
      <trkpt lat="44.22818" lon="3.14432">
        <ele>703</ele>
        <time>2019-05-22T22:30:50Z</time>
      </trkpt>
      <trkpt lat="44.22782" lon="3.14458">
        <ele>696</ele>
        <time>2019-05-22T22:30:57Z</time>
      </trkpt>
      <trkpt lat="44.2277" lon="3.1447">
        <ele>694</ele>
        <time>2019-05-22T22:31:00Z</time>
      </trkpt>
      <trkpt lat="44.22766" lon="3.14479">
        <ele>693</ele>
        <time>2019-05-22T22:31:01Z</time>
      </trkpt>
      <trkpt lat="44.22765" lon="3.1449">
        <ele>694</ele>
        <time>2019-05-22T22:31:03Z</time>
      </trkpt>
      <trkpt lat="44.22772" lon="3.14524">
        <ele>700</ele>
        <time>2019-05-22T22:31:07Z</time>
      </trkpt>
      <trkpt lat="44.22772" lon="3.14536">
        <ele>701</ele>
        <time>2019-05-22T22:31:09Z</time>
      </trkpt>
      <trkpt lat="44.22769" lon="3.1455">
        <ele>702</ele>
        <time>2019-05-22T22:31:10Z</time>
      </trkpt>
      <trkpt lat="44.22749" lon="3.14573">
        <ele>697</ele>
        <time>2019-05-22T22:31:15Z</time>
      </trkpt>
      <trkpt lat="44.22698" lon="3.14624">
        <ele>690</ele>
        <time>2019-05-22T22:31:26Z</time>
      </trkpt>
      <trkpt lat="44.22632" lon="3.14704">
        <ele>687</ele>
        <time>2019-05-22T22:31:42Z</time>
      </trkpt>
      <trkpt lat="44.22571" lon="3.14791">
        <ele>683</ele>
        <time>2019-05-22T22:31:57Z</time>
      </trkpt>
      <trkpt lat="44.22493" lon="3.14884">
        <ele>679</ele>
        <time>2019-05-22T22:32:16Z</time>
      </trkpt>
      <trkpt lat="44.22482" lon="3.1489">
        <ele>680</ele>
        <time>2019-05-22T22:32:18Z</time>
      </trkpt>
      <trkpt lat="44.22471" lon="3.14887">
        <ele>679</ele>
        <time>2019-05-22T22:32:20Z</time>
      </trkpt>
      <trkpt lat="44.22402" lon="3.14836">
        <ele>664</ele>
        <time>2019-05-22T22:32:34Z</time>
      </trkpt>
      <trkpt lat="44.22368" lon="3.14818">
        <ele>658</ele>
        <time>2019-05-22T22:32:40Z</time>
      </trkpt>
      <trkpt lat="44.22354" lon="3.14815">
        <ele>657</ele>
        <time>2019-05-22T22:32:43Z</time>
      </trkpt>
      <trkpt lat="44.22345" lon="3.14814">
        <ele>656</ele>
        <time>2019-05-22T22:32:44Z</time>
      </trkpt>
      <trkpt lat="44.22331" lon="3.14818">
        <ele>654</ele>
        <time>2019-05-22T22:32:47Z</time>
      </trkpt>
      <trkpt lat="44.22317" lon="3.14826">
        <ele>652</ele>
        <time>2019-05-22T22:32:49Z</time>
      </trkpt>
      <trkpt lat="44.22306" lon="3.14841">
        <ele>652</ele>
        <time>2019-05-22T22:32:52Z</time>
      </trkpt>
      <trkpt lat="44.22296" lon="3.14861">
        <ele>655</ele>
        <time>2019-05-22T22:32:55Z</time>
      </trkpt>
      <trkpt lat="44.22289" lon="3.14866">
        <ele>655</ele>
        <time>2019-05-22T22:32:57Z</time>
      </trkpt>
      <trkpt lat="44.22283" lon="3.14865">
        <ele>653</ele>
        <time>2019-05-22T22:32:58Z</time>
      </trkpt>
      <trkpt lat="44.22282" lon="3.14856">
        <ele>650</ele>
        <time>2019-05-22T22:32:59Z</time>
      </trkpt>
      <trkpt lat="44.22296" lon="3.14819">
        <ele>647</ele>
        <time>2019-05-22T22:33:04Z</time>
      </trkpt>
      <trkpt lat="44.22302" lon="3.14797">
        <ele>646</ele>
        <time>2019-05-22T22:33:07Z</time>
      </trkpt>
      <trkpt lat="44.22311" lon="3.14739">
        <ele>643</ele>
        <time>2019-05-22T22:33:15Z</time>
      </trkpt>
      <trkpt lat="44.22314" lon="3.14695">
        <ele>642</ele>
        <time>2019-05-22T22:33:20Z</time>
      </trkpt>
      <trkpt lat="44.22311" lon="3.14676">
        <ele>641</ele>
        <time>2019-05-22T22:33:23Z</time>
      </trkpt>
      <trkpt lat="44.22305" lon="3.1466">
        <ele>638</ele>
        <time>2019-05-22T22:33:25Z</time>
      </trkpt>
      <trkpt lat="44.22298" lon="3.14656">
        <ele>636</ele>
        <time>2019-05-22T22:33:27Z</time>
      </trkpt>
      <trkpt lat="44.22291" lon="3.14655">
        <ele>635</ele>
        <time>2019-05-22T22:33:28Z</time>
      </trkpt>
      <trkpt lat="44.22284" lon="3.1466">
        <ele>634</ele>
        <time>2019-05-22T22:33:29Z</time>
      </trkpt>
      <trkpt lat="44.22259" lon="3.14686">
        <ele>632</ele>
        <time>2019-05-22T22:33:35Z</time>
      </trkpt>
      <trkpt lat="44.22237" lon="3.14691">
        <ele>628</ele>
        <time>2019-05-22T22:33:39Z</time>
      </trkpt>
      <trkpt lat="44.22219" lon="3.1469">
        <ele>625</ele>
        <time>2019-05-22T22:33:42Z</time>
      </trkpt>
      <trkpt lat="44.22204" lon="3.14685">
        <ele>623</ele>
        <time>2019-05-22T22:33:45Z</time>
      </trkpt>
      <trkpt lat="44.22185" lon="3.14669">
        <ele>619</ele>
        <time>2019-05-22T22:33:49Z</time>
      </trkpt>
      <trkpt lat="44.22177" lon="3.14666">
        <ele>617</ele>
        <time>2019-05-22T22:33:50Z</time>
      </trkpt>
      <trkpt lat="44.22168" lon="3.14666">
        <ele>616</ele>
        <time>2019-05-22T22:33:52Z</time>
      </trkpt>
      <trkpt lat="44.2216" lon="3.1467">
        <ele>614</ele>
        <time>2019-05-22T22:33:53Z</time>
      </trkpt>
      <trkpt lat="44.2215" lon="3.14678">
        <ele>611</ele>
        <time>2019-05-22T22:33:55Z</time>
      </trkpt>
      <trkpt lat="44.22144" lon="3.1469">
        <ele>610</ele>
        <time>2019-05-22T22:33:57Z</time>
      </trkpt>
      <trkpt lat="44.22144" lon="3.14702">
        <ele>610</ele>
        <time>2019-05-22T22:33:59Z</time>
      </trkpt>
      <trkpt lat="44.22151" lon="3.14728">
        <ele>614</ele>
        <time>2019-05-22T22:34:02Z</time>
      </trkpt>
      <trkpt lat="44.22165" lon="3.14749">
        <ele>618</ele>
        <time>2019-05-22T22:34:06Z</time>
      </trkpt>
      <trkpt lat="44.2217" lon="3.1476">
        <ele>619</ele>
        <time>2019-05-22T22:34:07Z</time>
      </trkpt>
      <trkpt lat="44.22171" lon="3.14775">
        <ele>619</ele>
        <time>2019-05-22T22:34:09Z</time>
      </trkpt>
      <trkpt lat="44.22168" lon="3.148">
        <ele>617</ele>
        <time>2019-05-22T22:34:13Z</time>
      </trkpt>
      <trkpt lat="44.22162" lon="3.14832">
        <ele>615</ele>
        <time>2019-05-22T22:34:17Z</time>
      </trkpt>
      <trkpt lat="44.22155" lon="3.1485">
        <ele>616</ele>
        <time>2019-05-22T22:34:19Z</time>
      </trkpt>
      <trkpt lat="44.22142" lon="3.14869">
        <ele>616</ele>
        <time>2019-05-22T22:34:23Z</time>
      </trkpt>
      <trkpt lat="44.22126" lon="3.14885">
        <ele>614</ele>
        <time>2019-05-22T22:34:26Z</time>
      </trkpt>
      <trkpt lat="44.22064" lon="3.14928">
        <ele>604</ele>
        <time>2019-05-22T22:34:39Z</time>
      </trkpt>
      <trkpt lat="44.2205" lon="3.14941">
        <ele>602</ele>
        <time>2019-05-22T22:34:42Z</time>
      </trkpt>
      <trkpt lat="44.22041" lon="3.14955">
        <ele>601</ele>
        <time>2019-05-22T22:34:44Z</time>
      </trkpt>
      <trkpt lat="44.22032" lon="3.14973">
        <ele>600</ele>
        <time>2019-05-22T22:34:47Z</time>
      </trkpt>
      <trkpt lat="44.22025" lon="3.15003">
        <ele>601</ele>
        <time>2019-05-22T22:34:51Z</time>
      </trkpt>
      <trkpt lat="44.22022" lon="3.15009">
        <ele>601</ele>
        <time>2019-05-22T22:34:52Z</time>
      </trkpt>
      <trkpt lat="44.22018" lon="3.1501">
        <ele>599</ele>
        <time>2019-05-22T22:34:53Z</time>
      </trkpt>
      <trkpt lat="44.22014" lon="3.15007">
        <ele>597</ele>
        <time>2019-05-22T22:34:53Z</time>
      </trkpt>
      <trkpt lat="44.22013" lon="3.15001">
        <ele>596</ele>
        <time>2019-05-22T22:34:54Z</time>
      </trkpt>
      <trkpt lat="44.22023" lon="3.14947">
        <ele>594</ele>
        <time>2019-05-22T22:35:01Z</time>
      </trkpt>
      <trkpt lat="44.22024" lon="3.14865">
        <ele>586</ele>
        <time>2019-05-22T22:35:12Z</time>
      </trkpt>
      <trkpt lat="44.22026" lon="3.14851">
        <ele>586</ele>
        <time>2019-05-22T22:35:13Z</time>
      </trkpt>
      <trkpt lat="44.22031" lon="3.14837">
        <ele>586</ele>
        <time>2019-05-22T22:35:15Z</time>
      </trkpt>
      <trkpt lat="44.22065" lon="3.14785">
        <ele>590</ele>
        <time>2019-05-22T22:35:24Z</time>
      </trkpt>
      <trkpt lat="44.22066" lon="3.14772">
        <ele>590</ele>
        <time>2019-05-22T22:35:26Z</time>
      </trkpt>
      <trkpt lat="44.22065" lon="3.14762">
        <ele>589</ele>
        <time>2019-05-22T22:35:27Z</time>
      </trkpt>
      <trkpt lat="44.22048" lon="3.14685">
        <ele>580</ele>
        <time>2019-05-22T22:35:38Z</time>
      </trkpt>
      <trkpt lat="44.22044" lon="3.14659">
        <ele>577</ele>
        <time>2019-05-22T22:35:41Z</time>
      </trkpt>
      <trkpt lat="44.22044" lon="3.14634">
        <ele>575</ele>
        <time>2019-05-22T22:35:44Z</time>
      </trkpt>
      <trkpt lat="44.22048" lon="3.14604">
        <ele>574</ele>
        <time>2019-05-22T22:35:48Z</time>
      </trkpt>
      <trkpt lat="44.22058" lon="3.14563">
        <ele>571</ele>
        <time>2019-05-22T22:35:54Z</time>
      </trkpt>
      <trkpt lat="44.22074" lon="3.14515">
        <ele>568</ele>
        <time>2019-05-22T22:36:00Z</time>
      </trkpt>
      <trkpt lat="44.22083" lon="3.14495">
        <ele>567</ele>
        <time>2019-05-22T22:36:03Z</time>
      </trkpt>
      <trkpt lat="44.2209" lon="3.14487">
        <ele>566</ele>
        <time>2019-05-22T22:36:05Z</time>
      </trkpt>
      <trkpt lat="44.22104" lon="3.14479">
        <ele>566</ele>
        <time>2019-05-22T22:36:08Z</time>
      </trkpt>
      <trkpt lat="44.22111" lon="3.1447">
        <ele>565</ele>
        <time>2019-05-22T22:36:09Z</time>
      </trkpt>
      <trkpt lat="44.22112" lon="3.14464">
        <ele>564</ele>
        <time>2019-05-22T22:36:10Z</time>
      </trkpt>
      <trkpt lat="44.22111" lon="3.14459">
        <ele>562</ele>
        <time>2019-05-22T22:36:11Z</time>
      </trkpt>
      <trkpt lat="44.22105" lon="3.14456">
        <ele>560</ele>
        <time>2019-05-22T22:36:12Z</time>
      </trkpt>
      <trkpt lat="44.22097" lon="3.14457">
        <ele>559</ele>
        <time>2019-05-22T22:36:13Z</time>
      </trkpt>
      <trkpt lat="44.22086" lon="3.14465">
        <ele>559</ele>
        <time>2019-05-22T22:36:16Z</time>
      </trkpt>
      <trkpt lat="44.22031" lon="3.14523">
        <ele>556</ele>
        <time>2019-05-22T22:36:28Z</time>
      </trkpt>
      <trkpt lat="44.21949" lon="3.14602">
        <ele>548</ele>
        <time>2019-05-22T22:36:46Z</time>
      </trkpt>
      <trkpt lat="44.21926" lon="3.14613">
        <ele>544</ele>
        <time>2019-05-22T22:36:50Z</time>
      </trkpt>
      <trkpt lat="44.2189" lon="3.14616">
        <ele>538</ele>
        <time>2019-05-22T22:36:56Z</time>
      </trkpt>
      <trkpt lat="44.21882" lon="3.1462">
        <ele>537</ele>
        <time>2019-05-22T22:36:58Z</time>
      </trkpt>
      <trkpt lat="44.21868" lon="3.14632">
        <ele>536</ele>
        <time>2019-05-22T22:37:01Z</time>
      </trkpt>
      <trkpt lat="44.21858" lon="3.14643">
        <ele>535</ele>
        <time>2019-05-22T22:37:03Z</time>
      </trkpt>
      <trkpt lat="44.21855" lon="3.14655">
        <ele>535</ele>
        <time>2019-05-22T22:37:05Z</time>
      </trkpt>
      <trkpt lat="44.21855" lon="3.14666">
        <ele>535</ele>
        <time>2019-05-22T22:37:06Z</time>
      </trkpt>
      <trkpt lat="44.2186" lon="3.14678">
        <ele>536</ele>
        <time>2019-05-22T22:37:08Z</time>
      </trkpt>
      <trkpt lat="44.21873" lon="3.14696">
        <ele>539</ele>
        <time>2019-05-22T22:37:11Z</time>
      </trkpt>
      <trkpt lat="44.21876" lon="3.14706">
        <ele>539</ele>
        <time>2019-05-22T22:37:13Z</time>
      </trkpt>
      <trkpt lat="44.21875" lon="3.14712">
        <ele>539</ele>
        <time>2019-05-22T22:37:13Z</time>
      </trkpt>
      <trkpt lat="44.21871" lon="3.14722">
        <ele>539</ele>
        <time>2019-05-22T22:37:15Z</time>
      </trkpt>
      <trkpt lat="44.21843" lon="3.14733">
        <ele>533</ele>
        <time>2019-05-22T22:37:20Z</time>
      </trkpt>
      <trkpt lat="44.21814" lon="3.14748">
        <ele>525</ele>
        <time>2019-05-22T22:37:25Z</time>
      </trkpt>
      <trkpt lat="44.21806" lon="3.14755">
        <ele>523</ele>
        <time>2019-05-22T22:37:27Z</time>
      </trkpt>
      <trkpt lat="44.218" lon="3.14764">
        <ele>522</ele>
        <time>2019-05-22T22:37:29Z</time>
      </trkpt>
      <trkpt lat="44.21796" lon="3.14777">
        <ele>521</ele>
        <time>2019-05-22T22:37:31Z</time>
      </trkpt>
      <trkpt lat="44.21796" lon="3.14792">
        <ele>522</ele>
        <time>2019-05-22T22:37:32Z</time>
      </trkpt>
      <trkpt lat="44.21799" lon="3.14815">
        <ele>524</ele>
        <time>2019-05-22T22:37:35Z</time>
      </trkpt>
      <trkpt lat="44.21799" lon="3.14834">
        <ele>526</ele>
        <time>2019-05-22T22:37:38Z</time>
      </trkpt>
      <trkpt lat="44.21794" lon="3.14843">
        <ele>525</ele>
        <time>2019-05-22T22:37:39Z</time>
      </trkpt>
      <trkpt lat="44.2178" lon="3.14854">
        <ele>522</ele>
        <time>2019-05-22T22:37:42Z</time>
      </trkpt>
      <trkpt lat="44.21707" lon="3.14868">
        <ele>507</ele>
        <time>2019-05-22T22:37:55Z</time>
      </trkpt>
      <trkpt lat="44.21695" lon="3.14873">
        <ele>505</ele>
        <time>2019-05-22T22:37:57Z</time>
      </trkpt>
      <trkpt lat="44.21684" lon="3.14885">
        <ele>504</ele>
        <time>2019-05-22T22:38:00Z</time>
      </trkpt>
      <trkpt lat="44.21675" lon="3.14899">
        <ele>504</ele>
        <time>2019-05-22T22:38:02Z</time>
      </trkpt>
      <trkpt lat="44.2166" lon="3.14938">
        <ele>503</ele>
        <time>2019-05-22T22:38:08Z</time>
      </trkpt>
      <trkpt lat="44.21653" lon="3.14952">
        <ele>501</ele>
        <time>2019-05-22T22:38:10Z</time>
      </trkpt>
      <trkpt lat="44.21619" lon="3.14996">
        <ele>493</ele>
        <time>2019-05-22T22:38:18Z</time>
      </trkpt>
      <trkpt lat="44.21609" lon="3.15015">
        <ele>489</ele>
        <time>2019-05-22T22:38:21Z</time>
      </trkpt>
      <trkpt lat="44.21608" lon="3.15027">
        <ele>488</ele>
        <time>2019-05-22T22:38:23Z</time>
      </trkpt>
      <trkpt lat="44.21609" lon="3.15037">
        <ele>487</ele>
        <time>2019-05-22T22:38:24Z</time>
      </trkpt>
      <trkpt lat="44.21614" lon="3.15047">
        <ele>487</ele>
        <time>2019-05-22T22:38:26Z</time>
      </trkpt>
      <trkpt lat="44.21623" lon="3.15055">
        <ele>488</ele>
        <time>2019-05-22T22:38:28Z</time>
      </trkpt>
      <trkpt lat="44.2163" lon="3.15058">
        <ele>490</ele>
        <time>2019-05-22T22:38:29Z</time>
      </trkpt>
      <trkpt lat="44.21669" lon="3.15061">
        <ele>498</ele>
        <time>2019-05-22T22:38:36Z</time>
      </trkpt>
      <trkpt lat="44.21681" lon="3.15063">
        <ele>499</ele>
        <time>2019-05-22T22:38:38Z</time>
      </trkpt>
      <trkpt lat="44.21686" lon="3.15068">
        <ele>500</ele>
        <time>2019-05-22T22:38:39Z</time>
      </trkpt>
      <trkpt lat="44.21689" lon="3.15077">
        <ele>499</ele>
        <time>2019-05-22T22:38:40Z</time>
      </trkpt>
      <trkpt lat="44.21688" lon="3.15088">
        <ele>499</ele>
        <time>2019-05-22T22:38:42Z</time>
      </trkpt>
      <trkpt lat="44.2166" lon="3.15135">
        <ele>497</ele>
        <time>2019-05-22T22:38:50Z</time>
      </trkpt>
      <trkpt lat="44.21634" lon="3.15171">
        <ele>492</ele>
        <time>2019-05-22T22:38:56Z</time>
      </trkpt>
      <trkpt lat="44.21588" lon="3.15215">
        <ele>486</ele>
        <time>2019-05-22T22:39:06Z</time>
      </trkpt>
      <trkpt lat="44.21573" lon="3.15225">
        <ele>485</ele>
        <time>2019-05-22T22:39:09Z</time>
      </trkpt>
      <trkpt lat="44.21511" lon="3.15254">
        <ele>478</ele>
        <time>2019-05-22T22:39:21Z</time>
      </trkpt>
      <trkpt lat="44.21487" lon="3.1527">
        <ele>477</ele>
        <time>2019-05-22T22:39:25Z</time>
      </trkpt>
      <trkpt lat="44.21395" lon="3.15349">
        <ele>470</ele>
        <time>2019-05-22T22:39:45Z</time>
      </trkpt>
      <trkpt lat="44.21388" lon="3.15368">
        <ele>470</ele>
        <time>2019-05-22T22:39:47Z</time>
      </trkpt>
      <trkpt lat="44.21382" lon="3.15388">
        <ele>472</ele>
        <time>2019-05-22T22:39:50Z</time>
      </trkpt>
      <trkpt lat="44.21375" lon="3.15424">
        <ele>475</ele>
        <time>2019-05-22T22:39:55Z</time>
      </trkpt>
      <trkpt lat="44.21365" lon="3.15446">
        <ele>475</ele>
        <time>2019-05-22T22:39:58Z</time>
      </trkpt>
      <trkpt lat="44.21344" lon="3.15472">
        <ele>472</ele>
        <time>2019-05-22T22:40:03Z</time>
      </trkpt>
      <trkpt lat="44.21328" lon="3.15483">
        <ele>470</ele>
        <time>2019-05-22T22:40:06Z</time>
      </trkpt>
      <trkpt lat="44.2132" lon="3.15487">
        <ele>469</ele>
        <time>2019-05-22T22:40:08Z</time>
      </trkpt>
      <trkpt lat="44.21284" lon="3.15488">
        <ele>461</ele>
        <time>2019-05-22T22:40:14Z</time>
      </trkpt>
      <trkpt lat="44.21274" lon="3.15491">
        <ele>459</ele>
        <time>2019-05-22T22:40:16Z</time>
      </trkpt>
      <trkpt lat="44.21265" lon="3.15498">
        <ele>459</ele>
        <time>2019-05-22T22:40:18Z</time>
      </trkpt>
      <trkpt lat="44.21235" lon="3.1554">
        <ele>459</ele>
        <time>2019-05-22T22:40:26Z</time>
      </trkpt>
      <trkpt lat="44.21198" lon="3.15573">
        <ele>454</ele>
        <time>2019-05-22T22:40:33Z</time>
      </trkpt>
      <trkpt lat="44.21188" lon="3.15585">
        <ele>452</ele>
        <time>2019-05-22T22:40:36Z</time>
      </trkpt>
      <trkpt lat="44.21145" lon="3.15656">
        <ele>453</ele>
        <time>2019-05-22T22:40:48Z</time>
      </trkpt>
      <trkpt lat="44.21131" lon="3.15675">
        <ele>453</ele>
        <time>2019-05-22T22:40:51Z</time>
      </trkpt>
      <trkpt lat="44.21119" lon="3.15686">
        <ele>452</ele>
        <time>2019-05-22T22:40:54Z</time>
      </trkpt>
      <trkpt lat="44.21101" lon="3.15697">
        <ele>449</ele>
        <time>2019-05-22T22:40:57Z</time>
      </trkpt>
      <trkpt lat="44.21059" lon="3.15719">
        <ele>445</ele>
        <time>2019-05-22T22:41:05Z</time>
      </trkpt>
      <trkpt lat="44.2099" lon="3.15722">
        <ele>431</ele>
        <time>2019-05-22T22:41:17Z</time>
      </trkpt>
      <trkpt lat="44.20976" lon="3.15725">
        <ele>429</ele>
        <time>2019-05-22T22:41:20Z</time>
      </trkpt>
      <trkpt lat="44.20967" lon="3.15731">
        <ele>429</ele>
        <time>2019-05-22T22:41:22Z</time>
      </trkpt>
      <trkpt lat="44.20958" lon="3.15742">
        <ele>430</ele>
        <time>2019-05-22T22:41:24Z</time>
      </trkpt>
      <trkpt lat="44.20953" lon="3.15755">
        <ele>431</ele>
        <time>2019-05-22T22:41:26Z</time>
      </trkpt>
      <trkpt lat="44.20951" lon="3.15769">
        <ele>433</ele>
        <time>2019-05-22T22:41:27Z</time>
      </trkpt>
      <trkpt lat="44.2095" lon="3.15805">
        <ele>438</ele>
        <time>2019-05-22T22:41:32Z</time>
      </trkpt>
      <trkpt lat="44.20947" lon="3.15823">
        <ele>440</ele>
        <time>2019-05-22T22:41:34Z</time>
      </trkpt>
      <trkpt lat="44.20941" lon="3.15832">
        <ele>440</ele>
        <time>2019-05-22T22:41:36Z</time>
      </trkpt>
      <trkpt lat="44.20933" lon="3.15839">
        <ele>440</ele>
        <time>2019-05-22T22:41:38Z</time>
      </trkpt>
      <trkpt lat="44.20924" lon="3.15841">
        <ele>439</ele>
        <time>2019-05-22T22:41:39Z</time>
      </trkpt>
      <trkpt lat="44.20867" lon="3.15838">
        <ele>425</ele>
        <time>2019-05-22T22:41:49Z</time>
      </trkpt>
      <trkpt lat="44.20854" lon="3.1584">
        <ele>423</ele>
        <time>2019-05-22T22:41:52Z</time>
      </trkpt>
      <trkpt lat="44.20836" lon="3.15848">
        <ele>422</ele>
        <time>2019-05-22T22:41:55Z</time>
      </trkpt>
      <trkpt lat="44.2078" lon="3.15888">
        <ele>423</ele>
        <time>2019-05-22T22:42:06Z</time>
      </trkpt>
      <trkpt lat="44.20756" lon="3.159">
        <ele>421</ele>
        <time>2019-05-22T22:42:11Z</time>
      </trkpt>
      <trkpt lat="44.2071" lon="3.15908">
        <ele>415</ele>
        <time>2019-05-22T22:42:19Z</time>
      </trkpt>
      <trkpt lat="44.20682" lon="3.15919">
        <ele>413</ele>
        <time>2019-05-22T22:42:24Z</time>
      </trkpt>
      <trkpt lat="44.20682" lon="3.15919">
        <ele>413</ele>
        <time>2019-05-22T22:42:24Z</time>
      </trkpt>
      <trkpt lat="44.20671" lon="3.15923">
        <ele>413</ele>
        <time>2019-05-22T22:42:26Z</time>
      </trkpt>
      <trkpt lat="44.20629" lon="3.15932">
        <ele>412</ele>
        <time>2019-05-22T22:42:34Z</time>
      </trkpt>
      <trkpt lat="44.20606" lon="3.15933">
        <ele>410</ele>
        <time>2019-05-22T22:42:38Z</time>
      </trkpt>
      <trkpt lat="44.20589" lon="3.15929">
        <ele>407</ele>
        <time>2019-05-22T22:42:41Z</time>
      </trkpt>
      <trkpt lat="44.2054" lon="3.15911">
        <ele>400</ele>
        <time>2019-05-22T22:42:50Z</time>
      </trkpt>
      <trkpt lat="44.20522" lon="3.15909">
        <ele>399</ele>
        <time>2019-05-22T22:42:53Z</time>
      </trkpt>
      <trkpt lat="44.20476" lon="3.15925">
        <ele>399</ele>
        <time>2019-05-22T22:43:02Z</time>
      </trkpt>
      <trkpt lat="44.20442" lon="3.15934">
        <ele>399</ele>
        <time>2019-05-22T22:43:08Z</time>
      </trkpt>
      <trkpt lat="44.20388" lon="3.15921">
        <ele>393</ele>
        <time>2019-05-22T22:43:18Z</time>
      </trkpt>
      <trkpt lat="44.20372" lon="3.15911">
        <ele>391</ele>
        <time>2019-05-22T22:43:21Z</time>
      </trkpt>
      <trkpt lat="44.20361" lon="3.15894">
        <ele>390</ele>
        <time>2019-05-22T22:43:24Z</time>
      </trkpt>
      <trkpt lat="44.20363" lon="3.15885">
        <ele>390</ele>
        <time>2019-05-22T22:43:25Z</time>
      </trkpt>
      <trkpt lat="44.20363" lon="3.15874">
        <ele>389</ele>
        <time>2019-05-22T22:43:26Z</time>
      </trkpt>
      <trkpt lat="44.20344" lon="3.15769">
        <ele>388</ele>
        <time>2019-05-22T22:43:40Z</time>
      </trkpt>
      <trkpt lat="44.20336" lon="3.15744">
        <ele>389</ele>
        <time>2019-05-22T22:43:44Z</time>
      </trkpt>
      <trkpt lat="44.20328" lon="3.15732">
        <ele>390</ele>
        <time>2019-05-22T22:43:46Z</time>
      </trkpt>
      <trkpt lat="44.20316" lon="3.1572">
        <ele>391</ele>
        <time>2019-05-22T22:43:48Z</time>
      </trkpt>
      <trkpt lat="44.20302" lon="3.15711">
        <ele>391</ele>
        <time>2019-05-22T22:43:51Z</time>
      </trkpt>
      <trkpt lat="44.2029" lon="3.15707">
        <ele>392</ele>
        <time>2019-05-22T22:43:53Z</time>
      </trkpt>
      <trkpt lat="44.20271" lon="3.15705">
        <ele>392</ele>
        <time>2019-05-22T22:43:57Z</time>
      </trkpt>
      <trkpt lat="44.20173" lon="3.15703">
        <ele>393</ele>
        <time>2019-05-22T22:44:14Z</time>
      </trkpt>
      <trkpt lat="44.20154" lon="3.15698">
        <ele>392</ele>
        <time>2019-05-22T22:44:17Z</time>
      </trkpt>
      <trkpt lat="44.2014" lon="3.15689">
        <ele>392</ele>
        <time>2019-05-22T22:44:20Z</time>
      </trkpt>
      <trkpt lat="44.2013" lon="3.15681">
        <ele>392</ele>
        <time>2019-05-22T22:44:22Z</time>
      </trkpt>
      <trkpt lat="44.20119" lon="3.15667">
        <ele>392</ele>
        <time>2019-05-22T22:44:25Z</time>
      </trkpt>
      <trkpt lat="44.20109" lon="3.15648">
        <ele>393</ele>
        <time>2019-05-22T22:44:28Z</time>
      </trkpt>
      <trkpt lat="44.20098" lon="3.15619">
        <ele>394</ele>
        <time>2019-05-22T22:44:32Z</time>
      </trkpt>
      <trkpt lat="44.20075" lon="3.15542">
        <ele>398</ele>
        <time>2019-05-22T22:44:43Z</time>
      </trkpt>
      <trkpt lat="44.20066" lon="3.15516">
        <ele>399</ele>
        <time>2019-05-22T22:44:46Z</time>
      </trkpt>
      <trkpt lat="44.20052" lon="3.15486">
        <ele>400</ele>
        <time>2019-05-22T22:44:51Z</time>
      </trkpt>
      <trkpt lat="44.20029" lon="3.15448">
        <ele>400</ele>
        <time>2019-05-22T22:44:57Z</time>
      </trkpt>
      <trkpt lat="44.20003" lon="3.15415">
        <ele>400</ele>
        <time>2019-05-22T22:45:04Z</time>
      </trkpt>
      <trkpt lat="44.19965" lon="3.15385">
        <ele>399</ele>
        <time>2019-05-22T22:45:11Z</time>
      </trkpt>
      <trkpt lat="44.19933" lon="3.15372">
        <ele>397</ele>
        <time>2019-05-22T22:45:17Z</time>
      </trkpt>
      <trkpt lat="44.19903" lon="3.15366">
        <ele>395</ele>
        <time>2019-05-22T22:45:23Z</time>
      </trkpt>
      <trkpt lat="44.19877" lon="3.15364">
        <ele>395</ele>
        <time>2019-05-22T22:45:27Z</time>
      </trkpt>
      <trkpt lat="44.19847" lon="3.15367">
        <ele>393</ele>
        <time>2019-05-22T22:45:33Z</time>
      </trkpt>
      <trkpt lat="44.19771" lon="3.15378">
        <ele>395</ele>
        <time>2019-05-22T22:45:46Z</time>
      </trkpt>
      <trkpt lat="44.19722" lon="3.15379">
        <ele>397</ele>
        <time>2019-05-22T22:45:55Z</time>
      </trkpt>
      <trkpt lat="44.19627" lon="3.15366">
        <ele>401</ele>
        <time>2019-05-22T22:46:12Z</time>
      </trkpt>
      <trkpt lat="44.19588" lon="3.15371">
        <ele>400</ele>
        <time>2019-05-22T22:46:19Z</time>
      </trkpt>
      <trkpt lat="44.19528" lon="3.1539">
        <ele>405</ele>
        <time>2019-05-22T22:46:30Z</time>
      </trkpt>
      <trkpt lat="44.19507" lon="3.15401">
        <ele>405</ele>
        <time>2019-05-22T22:46:34Z</time>
      </trkpt>
      <trkpt lat="44.19484" lon="3.15416">
        <ele>407</ele>
        <time>2019-05-22T22:46:38Z</time>
      </trkpt>
      <trkpt lat="44.19467" lon="3.15431">
        <ele>409</ele>
        <time>2019-05-22T22:46:42Z</time>
      </trkpt>
      <trkpt lat="44.19326" lon="3.15588">
        <ele>403</ele>
        <time>2019-05-22T22:47:14Z</time>
      </trkpt>
      <trkpt lat="44.19314" lon="3.15598">
        <ele>403</ele>
        <time>2019-05-22T22:47:17Z</time>
      </trkpt>
      <trkpt lat="44.19289" lon="3.15607">
        <ele>405</ele>
        <time>2019-05-22T22:47:21Z</time>
      </trkpt>
      <trkpt lat="44.19239" lon="3.15628">
        <ele>406</ele>
        <time>2019-05-22T22:47:30Z</time>
      </trkpt>
      <trkpt lat="44.19203" lon="3.15638">
        <ele>404</ele>
        <time>2019-05-22T22:47:37Z</time>
      </trkpt>
      <trkpt lat="44.19148" lon="3.15648">
        <ele>400</ele>
        <time>2019-05-22T22:47:47Z</time>
      </trkpt>
      <trkpt lat="44.19108" lon="3.15652">
        <ele>397</ele>
        <time>2019-05-22T22:47:54Z</time>
      </trkpt>
      <trkpt lat="44.1908" lon="3.15648">
        <ele>397</ele>
        <time>2019-05-22T22:47:59Z</time>
      </trkpt>
      <trkpt lat="44.19057" lon="3.15639">
        <ele>397</ele>
        <time>2019-05-22T22:48:03Z</time>
      </trkpt>
      <trkpt lat="44.19008" lon="3.15604">
        <ele>395</ele>
        <time>2019-05-22T22:48:13Z</time>
      </trkpt>
      <trkpt lat="44.1899" lon="3.15588">
        <ele>394</ele>
        <time>2019-05-22T22:48:17Z</time>
      </trkpt>
      <trkpt lat="44.18971" lon="3.1556">
        <ele>393</ele>
        <time>2019-05-22T22:48:22Z</time>
      </trkpt>
      <trkpt lat="44.18958" lon="3.15534">
        <ele>393</ele>
        <time>2019-05-22T22:48:26Z</time>
      </trkpt>
      <trkpt lat="44.18944" lon="3.15485">
        <ele>392</ele>
        <time>2019-05-22T22:48:33Z</time>
      </trkpt>
      <trkpt lat="44.1894" lon="3.15449">
        <ele>392</ele>
        <time>2019-05-22T22:48:37Z</time>
      </trkpt>
      <trkpt lat="44.1894" lon="3.15423">
        <ele>392</ele>
        <time>2019-05-22T22:48:41Z</time>
      </trkpt>
      <trkpt lat="44.18947" lon="3.15379">
        <ele>393</ele>
        <time>2019-05-22T22:48:46Z</time>
      </trkpt>
      <trkpt lat="44.18968" lon="3.15296">
        <ele>394</ele>
        <time>2019-05-22T22:48:57Z</time>
      </trkpt>
      <trkpt lat="44.18993" lon="3.1521">
        <ele>391</ele>
        <time>2019-05-22T22:49:09Z</time>
      </trkpt>
      <trkpt lat="44.1904" lon="3.15087">
        <ele>390</ele>
        <time>2019-05-22T22:49:27Z</time>
      </trkpt>
      <trkpt lat="44.19058" lon="3.15028">
        <ele>389</ele>
        <time>2019-05-22T22:49:35Z</time>
      </trkpt>
      <trkpt lat="44.19114" lon="3.14825">
        <ele>388</ele>
        <time>2019-05-22T22:50:03Z</time>
      </trkpt>
      <trkpt lat="44.19129" lon="3.14763">
        <ele>389</ele>
        <time>2019-05-22T22:50:11Z</time>
      </trkpt>
      <trkpt lat="44.19132" lon="3.14729">
        <ele>389</ele>
        <time>2019-05-22T22:50:16Z</time>
      </trkpt>
      <trkpt lat="44.19132" lon="3.1466">
        <ele>387</ele>
        <time>2019-05-22T22:50:25Z</time>
      </trkpt>
      <trkpt lat="44.19128" lon="3.14623">
        <ele>388</ele>
        <time>2019-05-22T22:50:29Z</time>
      </trkpt>
      <trkpt lat="44.19076" lon="3.14332">
        <ele>384</ele>
        <time>2019-05-22T22:51:08Z</time>
      </trkpt>
      <trkpt lat="44.19064" lon="3.14259">
        <ele>383</ele>
        <time>2019-05-22T22:51:17Z</time>
      </trkpt>
      <trkpt lat="44.19061" lon="3.14163">
        <ele>381</ele>
        <time>2019-05-22T22:51:29Z</time>
      </trkpt>
      <trkpt lat="44.19057" lon="3.14122">
        <ele>380</ele>
        <time>2019-05-22T22:51:35Z</time>
      </trkpt>
      <trkpt lat="44.19035" lon="3.14018">
        <ele>378</ele>
        <time>2019-05-22T22:51:49Z</time>
      </trkpt>
      <trkpt lat="44.1902" lon="3.13959">
        <ele>377</ele>
        <time>2019-05-22T22:51:57Z</time>
      </trkpt>
      <trkpt lat="44.18945" lon="3.13636">
        <ele>380</ele>
        <time>2019-05-22T22:52:40Z</time>
      </trkpt>
      <trkpt lat="44.18892" lon="3.13423">
        <ele>381</ele>
        <time>2019-05-22T22:53:09Z</time>
      </trkpt>
      <trkpt lat="44.18883" lon="3.13379">
        <ele>381</ele>
        <time>2019-05-22T22:53:14Z</time>
      </trkpt>
      <trkpt lat="44.18811" lon="3.1308">
        <ele>382</ele>
        <time>2019-05-22T22:53:55Z</time>
      </trkpt>
      <trkpt lat="44.18803" lon="3.13039">
        <ele>383</ele>
        <time>2019-05-22T22:54:00Z</time>
      </trkpt>
      <trkpt lat="44.18799" lon="3.1303">
        <ele>384</ele>
        <time>2019-05-22T22:54:01Z</time>
      </trkpt>
      <trkpt lat="44.1878" lon="3.13008">
        <ele>384</ele>
        <time>2019-05-22T22:54:06Z</time>
      </trkpt>
      <trkpt lat="44.18726" lon="3.12962">
        <ele>385</ele>
        <time>2019-05-22T22:54:17Z</time>
      </trkpt>
    </trkseg>
  </trk>
</gpx>